<?xml version="1.0" encoding="utf-8"?>
<gpx xmlns:xsi="http://www.w3.org/2001/XMLSchema-instance" xmlns:xsd="http://www.w3.org/2001/XMLSchema" version="1.1" creator="Shapelink.com" xmlns="http://www.topografix.com/GPX/1/1" xmlns:gpxtpx="http://www.garmin.com/xmlschemas/TrackPointExtension/v1">
  <metadata>
    <name>Cykling - CX 6.43 km, 2018-09-16</name>
    <desc></desc>
    <author><name>Alexander Engvall</name></author> 
    <time>2018-09-16T09:06:21Z</time>
  </metadata>
  <trk>
    <name>Cykling - CX 6.43 km, 2018-09-16</name>
    <trkseg>
      <trkpt lat="59.219737" lon="17.907142">
        <ele>40.9</ele>
        <time>2018-09-16T09:06:21Z</time>
      </trkpt>
      <trkpt lat="59.219765" lon="17.907137">
        <ele>41.1</ele>
        <time>2018-09-16T09:06:23Z</time>
      </trkpt>
      <trkpt lat="59.219732" lon="17.907126">
        <ele>41.1</ele>
        <time>2018-09-16T09:07:59Z</time>
      </trkpt>
      <trkpt lat="59.219697" lon="17.90711">
        <ele>41.1</ele>
        <time>2018-09-16T09:08:01Z</time>
      </trkpt>
      <trkpt lat="59.219664" lon="17.907092">
        <ele>41</ele>
        <time>2018-09-16T09:08:03Z</time>
      </trkpt>
      <trkpt lat="59.219639" lon="17.907048">
        <ele>41</ele>
        <time>2018-09-16T09:08:05Z</time>
      </trkpt>
      <trkpt lat="59.219618" lon="17.906983">
        <ele>41</ele>
        <time>2018-09-16T09:08:07Z</time>
      </trkpt>
      <trkpt lat="59.219599" lon="17.906908">
        <ele>41.3</ele>
        <time>2018-09-16T09:08:09Z</time>
      </trkpt>
      <trkpt lat="59.219561" lon="17.90686">
        <ele>41.5</ele>
        <time>2018-09-16T09:08:11Z</time>
      </trkpt>
      <trkpt lat="59.219509" lon="17.906853">
        <ele>41.6</ele>
        <time>2018-09-16T09:08:13Z</time>
      </trkpt>
      <trkpt lat="59.219479" lon="17.906859">
        <ele>41.7</ele>
        <time>2018-09-16T09:08:14Z</time>
      </trkpt>
      <trkpt lat="59.219451" lon="17.90687">
        <ele>41.8</ele>
        <time>2018-09-16T09:08:15Z</time>
      </trkpt>
      <trkpt lat="59.219398" lon="17.906892">
        <ele>41.9</ele>
        <time>2018-09-16T09:08:17Z</time>
      </trkpt>
      <trkpt lat="59.219369" lon="17.906893">
        <ele>41.9</ele>
        <time>2018-09-16T09:08:18Z</time>
      </trkpt>
      <trkpt lat="59.219324" lon="17.906901">
        <ele>41.8</ele>
        <time>2018-09-16T09:08:20Z</time>
      </trkpt>
      <trkpt lat="59.219298" lon="17.906922">
        <ele>41.8</ele>
        <time>2018-09-16T09:08:21Z</time>
      </trkpt>
      <trkpt lat="59.219272" lon="17.906955">
        <ele>41.8</ele>
        <time>2018-09-16T09:08:22Z</time>
      </trkpt>
      <trkpt lat="59.219249" lon="17.906989">
        <ele>41.8</ele>
        <time>2018-09-16T09:08:23Z</time>
      </trkpt>
      <trkpt lat="59.219224" lon="17.907024">
        <ele>41.9</ele>
        <time>2018-09-16T09:08:24Z</time>
      </trkpt>
      <trkpt lat="59.219199" lon="17.907059">
        <ele>41.9</ele>
        <time>2018-09-16T09:08:25Z</time>
      </trkpt>
      <trkpt lat="59.219175" lon="17.907089">
        <ele>42</ele>
        <time>2018-09-16T09:08:26Z</time>
      </trkpt>
      <trkpt lat="59.21915" lon="17.907113">
        <ele>42.1</ele>
        <time>2018-09-16T09:08:27Z</time>
      </trkpt>
      <trkpt lat="59.21911" lon="17.907167">
        <ele>42.4</ele>
        <time>2018-09-16T09:08:29Z</time>
      </trkpt>
      <trkpt lat="59.219072" lon="17.907222">
        <ele>42.7</ele>
        <time>2018-09-16T09:08:31Z</time>
      </trkpt>
      <trkpt lat="59.219026" lon="17.907255">
        <ele>43</ele>
        <time>2018-09-16T09:08:33Z</time>
      </trkpt>
      <trkpt lat="59.218977" lon="17.907226">
        <ele>43</ele>
        <time>2018-09-16T09:08:35Z</time>
      </trkpt>
      <trkpt lat="59.218957" lon="17.907189">
        <ele>43</ele>
        <time>2018-09-16T09:08:36Z</time>
      </trkpt>
      <trkpt lat="59.218938" lon="17.907139">
        <ele>43</ele>
        <time>2018-09-16T09:08:37Z</time>
      </trkpt>
      <trkpt lat="59.218918" lon="17.907085">
        <ele>43</ele>
        <time>2018-09-16T09:08:38Z</time>
      </trkpt>
      <trkpt lat="59.218899" lon="17.907033">
        <ele>43</ele>
        <time>2018-09-16T09:08:39Z</time>
      </trkpt>
      <trkpt lat="59.218879" lon="17.90698">
        <ele>43</ele>
        <time>2018-09-16T09:08:40Z</time>
      </trkpt>
      <trkpt lat="59.218858" lon="17.906928">
        <ele>43</ele>
        <time>2018-09-16T09:08:41Z</time>
      </trkpt>
      <trkpt lat="59.218839" lon="17.906882">
        <ele>43</ele>
        <time>2018-09-16T09:08:42Z</time>
      </trkpt>
      <trkpt lat="59.218819" lon="17.906834">
        <ele>43</ele>
        <time>2018-09-16T09:08:43Z</time>
      </trkpt>
      <trkpt lat="59.218801" lon="17.906785">
        <ele>43.1</ele>
        <time>2018-09-16T09:08:44Z</time>
      </trkpt>
      <trkpt lat="59.218783" lon="17.906736">
        <ele>43.1</ele>
        <time>2018-09-16T09:08:45Z</time>
      </trkpt>
      <trkpt lat="59.218768" lon="17.906688">
        <ele>43.2</ele>
        <time>2018-09-16T09:08:46Z</time>
      </trkpt>
      <trkpt lat="59.218751" lon="17.906642">
        <ele>43.2</ele>
        <time>2018-09-16T09:08:47Z</time>
      </trkpt>
      <trkpt lat="59.218733" lon="17.906599">
        <ele>43.2</ele>
        <time>2018-09-16T09:08:48Z</time>
      </trkpt>
      <trkpt lat="59.218715" lon="17.906556">
        <ele>43.3</ele>
        <time>2018-09-16T09:08:49Z</time>
      </trkpt>
      <trkpt lat="59.218695" lon="17.906512">
        <ele>43.3</ele>
        <time>2018-09-16T09:08:50Z</time>
      </trkpt>
      <trkpt lat="59.218676" lon="17.906466">
        <ele>43.4</ele>
        <time>2018-09-16T09:08:51Z</time>
      </trkpt>
      <trkpt lat="59.218658" lon="17.906418">
        <ele>43.4</ele>
        <time>2018-09-16T09:08:52Z</time>
      </trkpt>
      <trkpt lat="59.21864" lon="17.906374">
        <ele>43.5</ele>
        <time>2018-09-16T09:08:53Z</time>
      </trkpt>
      <trkpt lat="59.218623" lon="17.906328">
        <ele>43.5</ele>
        <time>2018-09-16T09:08:54Z</time>
      </trkpt>
      <trkpt lat="59.218607" lon="17.906282">
        <ele>43.6</ele>
        <time>2018-09-16T09:08:55Z</time>
      </trkpt>
      <trkpt lat="59.218588" lon="17.906231">
        <ele>43.6</ele>
        <time>2018-09-16T09:08:56Z</time>
      </trkpt>
      <trkpt lat="59.218567" lon="17.906175">
        <ele>43.7</ele>
        <time>2018-09-16T09:08:57Z</time>
      </trkpt>
      <trkpt lat="59.218548" lon="17.906127">
        <ele>43.7</ele>
        <time>2018-09-16T09:08:58Z</time>
      </trkpt>
      <trkpt lat="59.218529" lon="17.906079">
        <ele>43.8</ele>
        <time>2018-09-16T09:08:59Z</time>
      </trkpt>
      <trkpt lat="59.218508" lon="17.906027">
        <ele>43.8</ele>
        <time>2018-09-16T09:09:00Z</time>
      </trkpt>
      <trkpt lat="59.218487" lon="17.905974">
        <ele>43.9</ele>
        <time>2018-09-16T09:09:01Z</time>
      </trkpt>
      <trkpt lat="59.218464" lon="17.90592">
        <ele>44.1</ele>
        <time>2018-09-16T09:09:02Z</time>
      </trkpt>
      <trkpt lat="59.218441" lon="17.905865">
        <ele>44.2</ele>
        <time>2018-09-16T09:09:03Z</time>
      </trkpt>
      <trkpt lat="59.21842" lon="17.905809">
        <ele>44.4</ele>
        <time>2018-09-16T09:09:04Z</time>
      </trkpt>
      <trkpt lat="59.2184" lon="17.905754">
        <ele>44.6</ele>
        <time>2018-09-16T09:09:05Z</time>
      </trkpt>
      <trkpt lat="59.21838" lon="17.905699">
        <ele>44.8</ele>
        <time>2018-09-16T09:09:06Z</time>
      </trkpt>
      <trkpt lat="59.218362" lon="17.905645">
        <ele>45</ele>
        <time>2018-09-16T09:09:07Z</time>
      </trkpt>
      <trkpt lat="59.218341" lon="17.905591">
        <ele>44.9</ele>
        <time>2018-09-16T09:09:08Z</time>
      </trkpt>
      <trkpt lat="59.218321" lon="17.905537">
        <ele>44.8</ele>
        <time>2018-09-16T09:09:09Z</time>
      </trkpt>
      <trkpt lat="59.218301" lon="17.905481">
        <ele>44.7</ele>
        <time>2018-09-16T09:09:10Z</time>
      </trkpt>
      <trkpt lat="59.21828" lon="17.905425">
        <ele>44.7</ele>
        <time>2018-09-16T09:09:11Z</time>
      </trkpt>
      <trkpt lat="59.218261" lon="17.905374">
        <ele>44.6</ele>
        <time>2018-09-16T09:09:12Z</time>
      </trkpt>
      <trkpt lat="59.218244" lon="17.905322">
        <ele>44.6</ele>
        <time>2018-09-16T09:09:13Z</time>
      </trkpt>
      <trkpt lat="59.218226" lon="17.905268">
        <ele>44.6</ele>
        <time>2018-09-16T09:09:14Z</time>
      </trkpt>
      <trkpt lat="59.218205" lon="17.905218">
        <ele>44.5</ele>
        <time>2018-09-16T09:09:15Z</time>
      </trkpt>
      <trkpt lat="59.218184" lon="17.905168">
        <ele>44.5</ele>
        <time>2018-09-16T09:09:16Z</time>
      </trkpt>
      <trkpt lat="59.218163" lon="17.905113">
        <ele>44.4</ele>
        <time>2018-09-16T09:09:17Z</time>
      </trkpt>
      <trkpt lat="59.218143" lon="17.905056">
        <ele>44.4</ele>
        <time>2018-09-16T09:09:18Z</time>
      </trkpt>
      <trkpt lat="59.218123" lon="17.905003">
        <ele>44.4</ele>
        <time>2018-09-16T09:09:19Z</time>
      </trkpt>
      <trkpt lat="59.218101" lon="17.904955">
        <ele>44.3</ele>
        <time>2018-09-16T09:09:20Z</time>
      </trkpt>
      <trkpt lat="59.21808" lon="17.904909">
        <ele>44.3</ele>
        <time>2018-09-16T09:09:21Z</time>
      </trkpt>
      <trkpt lat="59.218058" lon="17.904863">
        <ele>44.3</ele>
        <time>2018-09-16T09:09:22Z</time>
      </trkpt>
      <trkpt lat="59.218039" lon="17.904815">
        <ele>44.3</ele>
        <time>2018-09-16T09:09:23Z</time>
      </trkpt>
      <trkpt lat="59.218023" lon="17.904768">
        <ele>44.2</ele>
        <time>2018-09-16T09:09:24Z</time>
      </trkpt>
      <trkpt lat="59.217989" lon="17.904683">
        <ele>44.2</ele>
        <time>2018-09-16T09:09:26Z</time>
      </trkpt>
      <trkpt lat="59.217968" lon="17.904633">
        <ele>44.2</ele>
        <time>2018-09-16T09:09:27Z</time>
      </trkpt>
      <trkpt lat="59.217949" lon="17.904582">
        <ele>44.1</ele>
        <time>2018-09-16T09:09:28Z</time>
      </trkpt>
      <trkpt lat="59.217932" lon="17.904534">
        <ele>44.1</ele>
        <time>2018-09-16T09:09:29Z</time>
      </trkpt>
      <trkpt lat="59.217916" lon="17.904488">
        <ele>44.1</ele>
        <time>2018-09-16T09:09:30Z</time>
      </trkpt>
      <trkpt lat="59.217891" lon="17.904397">
        <ele>44</ele>
        <time>2018-09-16T09:09:32Z</time>
      </trkpt>
      <trkpt lat="59.217875" lon="17.904352">
        <ele>44</ele>
        <time>2018-09-16T09:09:33Z</time>
      </trkpt>
      <trkpt lat="59.217859" lon="17.904305">
        <ele>43.9</ele>
        <time>2018-09-16T09:09:34Z</time>
      </trkpt>
      <trkpt lat="59.217842" lon="17.904256">
        <ele>43.8</ele>
        <time>2018-09-16T09:09:35Z</time>
      </trkpt>
      <trkpt lat="59.217825" lon="17.904209">
        <ele>43.7</ele>
        <time>2018-09-16T09:09:36Z</time>
      </trkpt>
      <trkpt lat="59.217808" lon="17.904163">
        <ele>43.6</ele>
        <time>2018-09-16T09:09:37Z</time>
      </trkpt>
      <trkpt lat="59.21779" lon="17.904117">
        <ele>43.5</ele>
        <time>2018-09-16T09:09:38Z</time>
      </trkpt>
      <trkpt lat="59.21777" lon="17.90407">
        <ele>43.4</ele>
        <time>2018-09-16T09:09:39Z</time>
      </trkpt>
      <trkpt lat="59.217749" lon="17.90402">
        <ele>43.3</ele>
        <time>2018-09-16T09:09:40Z</time>
      </trkpt>
      <trkpt lat="59.21773" lon="17.903968">
        <ele>43.2</ele>
        <time>2018-09-16T09:09:41Z</time>
      </trkpt>
      <trkpt lat="59.217713" lon="17.903916">
        <ele>43</ele>
        <time>2018-09-16T09:09:42Z</time>
      </trkpt>
      <trkpt lat="59.217697" lon="17.903864">
        <ele>42.9</ele>
        <time>2018-09-16T09:09:43Z</time>
      </trkpt>
      <trkpt lat="59.21768" lon="17.903812">
        <ele>42.7</ele>
        <time>2018-09-16T09:09:44Z</time>
      </trkpt>
      <trkpt lat="59.217662" lon="17.903762">
        <ele>42.6</ele>
        <time>2018-09-16T09:09:45Z</time>
      </trkpt>
      <trkpt lat="59.217643" lon="17.903713">
        <ele>42.4</ele>
        <time>2018-09-16T09:09:46Z</time>
      </trkpt>
      <trkpt lat="59.217625" lon="17.903665">
        <ele>42.3</ele>
        <time>2018-09-16T09:09:47Z</time>
      </trkpt>
      <trkpt lat="59.217608" lon="17.903616">
        <ele>42.2</ele>
        <time>2018-09-16T09:09:48Z</time>
      </trkpt>
      <trkpt lat="59.21759" lon="17.903564">
        <ele>42.1</ele>
        <time>2018-09-16T09:09:49Z</time>
      </trkpt>
      <trkpt lat="59.217569" lon="17.90351">
        <ele>42</ele>
        <time>2018-09-16T09:09:50Z</time>
      </trkpt>
      <trkpt lat="59.217548" lon="17.903458">
        <ele>41.9</ele>
        <time>2018-09-16T09:09:51Z</time>
      </trkpt>
      <trkpt lat="59.217527" lon="17.903408">
        <ele>41.7</ele>
        <time>2018-09-16T09:09:52Z</time>
      </trkpt>
      <trkpt lat="59.217507" lon="17.903359">
        <ele>41.6</ele>
        <time>2018-09-16T09:09:53Z</time>
      </trkpt>
      <trkpt lat="59.217489" lon="17.903311">
        <ele>41.5</ele>
        <time>2018-09-16T09:09:54Z</time>
      </trkpt>
      <trkpt lat="59.217468" lon="17.903267">
        <ele>41.4</ele>
        <time>2018-09-16T09:09:55Z</time>
      </trkpt>
      <trkpt lat="59.217431" lon="17.903217">
        <ele>41.2</ele>
        <time>2018-09-16T09:09:57Z</time>
      </trkpt>
      <trkpt lat="59.217397" lon="17.903244">
        <ele>41.1</ele>
        <time>2018-09-16T09:10:00Z</time>
      </trkpt>
      <trkpt lat="59.217367" lon="17.903279">
        <ele>41</ele>
        <time>2018-09-16T09:10:02Z</time>
      </trkpt>
      <trkpt lat="59.217327" lon="17.903317">
        <ele>41</ele>
        <time>2018-09-16T09:10:04Z</time>
      </trkpt>
      <trkpt lat="59.21728" lon="17.903306">
        <ele>41</ele>
        <time>2018-09-16T09:10:06Z</time>
      </trkpt>
      <trkpt lat="59.217248" lon="17.903289">
        <ele>41</ele>
        <time>2018-09-16T09:10:07Z</time>
      </trkpt>
      <trkpt lat="59.217213" lon="17.903275">
        <ele>41</ele>
        <time>2018-09-16T09:10:08Z</time>
      </trkpt>
      <trkpt lat="59.217177" lon="17.903266">
        <ele>41</ele>
        <time>2018-09-16T09:10:09Z</time>
      </trkpt>
      <trkpt lat="59.217143" lon="17.903263">
        <ele>41</ele>
        <time>2018-09-16T09:10:10Z</time>
      </trkpt>
      <trkpt lat="59.217113" lon="17.903265">
        <ele>41</ele>
        <time>2018-09-16T09:10:11Z</time>
      </trkpt>
      <trkpt lat="59.217082" lon="17.90327">
        <ele>41</ele>
        <time>2018-09-16T09:10:12Z</time>
      </trkpt>
      <trkpt lat="59.217051" lon="17.903284">
        <ele>41</ele>
        <time>2018-09-16T09:10:13Z</time>
      </trkpt>
      <trkpt lat="59.21701" lon="17.903302">
        <ele>41</ele>
        <time>2018-09-16T09:10:15Z</time>
      </trkpt>
      <trkpt lat="59.216974" lon="17.903294">
        <ele>41</ele>
        <time>2018-09-16T09:10:17Z</time>
      </trkpt>
      <trkpt lat="59.216928" lon="17.903282">
        <ele>41</ele>
        <time>2018-09-16T09:10:19Z</time>
      </trkpt>
      <trkpt lat="59.216957" lon="17.903291">
        <ele>41</ele>
        <time>2018-09-16T09:10:22Z</time>
      </trkpt>
      <trkpt lat="59.216936" lon="17.903254">
        <ele>41</ele>
        <time>2018-09-16T09:10:25Z</time>
      </trkpt>
      <trkpt lat="59.216907" lon="17.903167">
        <ele>41.1</ele>
        <time>2018-09-16T09:10:27Z</time>
      </trkpt>
      <trkpt lat="59.216887" lon="17.903118">
        <ele>41.3</ele>
        <time>2018-09-16T09:10:28Z</time>
      </trkpt>
      <trkpt lat="59.216865" lon="17.903064">
        <ele>41.5</ele>
        <time>2018-09-16T09:10:29Z</time>
      </trkpt>
      <trkpt lat="59.216848" lon="17.903001">
        <ele>41.7</ele>
        <time>2018-09-16T09:10:30Z</time>
      </trkpt>
      <trkpt lat="59.216837" lon="17.902933">
        <ele>41.9</ele>
        <time>2018-09-16T09:10:31Z</time>
      </trkpt>
      <trkpt lat="59.216834" lon="17.90286">
        <ele>42.1</ele>
        <time>2018-09-16T09:10:32Z</time>
      </trkpt>
      <trkpt lat="59.216838" lon="17.902783">
        <ele>42.5</ele>
        <time>2018-09-16T09:10:33Z</time>
      </trkpt>
      <trkpt lat="59.216844" lon="17.902706">
        <ele>42.8</ele>
        <time>2018-09-16T09:10:34Z</time>
      </trkpt>
      <trkpt lat="59.216845" lon="17.90264">
        <ele>43</ele>
        <time>2018-09-16T09:10:35Z</time>
      </trkpt>
      <trkpt lat="59.216841" lon="17.902578">
        <ele>43.2</ele>
        <time>2018-09-16T09:10:36Z</time>
      </trkpt>
      <trkpt lat="59.216832" lon="17.90252">
        <ele>43.4</ele>
        <time>2018-09-16T09:10:37Z</time>
      </trkpt>
      <trkpt lat="59.21682" lon="17.902467">
        <ele>43.6</ele>
        <time>2018-09-16T09:10:38Z</time>
      </trkpt>
      <trkpt lat="59.216808" lon="17.902419">
        <ele>43.7</ele>
        <time>2018-09-16T09:10:39Z</time>
      </trkpt>
      <trkpt lat="59.216795" lon="17.90237">
        <ele>43.9</ele>
        <time>2018-09-16T09:10:40Z</time>
      </trkpt>
      <trkpt lat="59.216779" lon="17.902323">
        <ele>44</ele>
        <time>2018-09-16T09:10:41Z</time>
      </trkpt>
      <trkpt lat="59.216753" lon="17.902232">
        <ele>44.3</ele>
        <time>2018-09-16T09:10:43Z</time>
      </trkpt>
      <trkpt lat="59.216736" lon="17.90219">
        <ele>44.5</ele>
        <time>2018-09-16T09:10:44Z</time>
      </trkpt>
      <trkpt lat="59.216719" lon="17.902148">
        <ele>44.7</ele>
        <time>2018-09-16T09:10:45Z</time>
      </trkpt>
      <trkpt lat="59.216703" lon="17.902104">
        <ele>44.9</ele>
        <time>2018-09-16T09:10:46Z</time>
      </trkpt>
      <trkpt lat="59.216686" lon="17.90206">
        <ele>45.1</ele>
        <time>2018-09-16T09:10:47Z</time>
      </trkpt>
      <trkpt lat="59.216656" lon="17.901977">
        <ele>45.3</ele>
        <time>2018-09-16T09:10:49Z</time>
      </trkpt>
      <trkpt lat="59.216633" lon="17.901894">
        <ele>45.6</ele>
        <time>2018-09-16T09:10:51Z</time>
      </trkpt>
      <trkpt lat="59.216618" lon="17.901801">
        <ele>46</ele>
        <time>2018-09-16T09:10:53Z</time>
      </trkpt>
      <trkpt lat="59.216615" lon="17.901748">
        <ele>46.2</ele>
        <time>2018-09-16T09:10:54Z</time>
      </trkpt>
      <trkpt lat="59.216616" lon="17.901688">
        <ele>46.4</ele>
        <time>2018-09-16T09:10:55Z</time>
      </trkpt>
      <trkpt lat="59.216615" lon="17.901628">
        <ele>46.5</ele>
        <time>2018-09-16T09:10:56Z</time>
      </trkpt>
      <trkpt lat="59.216611" lon="17.901564">
        <ele>46.7</ele>
        <time>2018-09-16T09:10:57Z</time>
      </trkpt>
      <trkpt lat="59.216603" lon="17.901502">
        <ele>46.9</ele>
        <time>2018-09-16T09:10:58Z</time>
      </trkpt>
      <trkpt lat="59.216589" lon="17.901446">
        <ele>47.3</ele>
        <time>2018-09-16T09:10:59Z</time>
      </trkpt>
      <trkpt lat="59.216572" lon="17.901396">
        <ele>47.6</ele>
        <time>2018-09-16T09:11:00Z</time>
      </trkpt>
      <trkpt lat="59.216554" lon="17.901346">
        <ele>47.8</ele>
        <time>2018-09-16T09:11:01Z</time>
      </trkpt>
      <trkpt lat="59.216535" lon="17.901295">
        <ele>48</ele>
        <time>2018-09-16T09:11:02Z</time>
      </trkpt>
      <trkpt lat="59.216513" lon="17.901248">
        <ele>48.1</ele>
        <time>2018-09-16T09:11:03Z</time>
      </trkpt>
      <trkpt lat="59.216489" lon="17.901201">
        <ele>48.2</ele>
        <time>2018-09-16T09:11:04Z</time>
      </trkpt>
      <trkpt lat="59.216464" lon="17.901151">
        <ele>48.4</ele>
        <time>2018-09-16T09:11:05Z</time>
      </trkpt>
      <trkpt lat="59.216438" lon="17.901103">
        <ele>48.5</ele>
        <time>2018-09-16T09:11:06Z</time>
      </trkpt>
      <trkpt lat="59.216415" lon="17.901054">
        <ele>48.6</ele>
        <time>2018-09-16T09:11:07Z</time>
      </trkpt>
      <trkpt lat="59.216393" lon="17.901005">
        <ele>48.7</ele>
        <time>2018-09-16T09:11:08Z</time>
      </trkpt>
      <trkpt lat="59.216369" lon="17.900952">
        <ele>48.8</ele>
        <time>2018-09-16T09:11:09Z</time>
      </trkpt>
      <trkpt lat="59.216344" lon="17.9009">
        <ele>48.9</ele>
        <time>2018-09-16T09:11:10Z</time>
      </trkpt>
      <trkpt lat="59.216321" lon="17.900849">
        <ele>49</ele>
        <time>2018-09-16T09:11:11Z</time>
      </trkpt>
      <trkpt lat="59.216302" lon="17.900796">
        <ele>49.1</ele>
        <time>2018-09-16T09:11:12Z</time>
      </trkpt>
      <trkpt lat="59.216278" lon="17.900744">
        <ele>49.2</ele>
        <time>2018-09-16T09:11:13Z</time>
      </trkpt>
      <trkpt lat="59.216256" lon="17.900693">
        <ele>49.3</ele>
        <time>2018-09-16T09:11:14Z</time>
      </trkpt>
      <trkpt lat="59.216232" lon="17.900647">
        <ele>49.4</ele>
        <time>2018-09-16T09:11:15Z</time>
      </trkpt>
      <trkpt lat="59.216209" lon="17.900603">
        <ele>49.5</ele>
        <time>2018-09-16T09:11:16Z</time>
      </trkpt>
      <trkpt lat="59.216181" lon="17.900561">
        <ele>49.6</ele>
        <time>2018-09-16T09:11:17Z</time>
      </trkpt>
      <trkpt lat="59.216153" lon="17.90052">
        <ele>49.7</ele>
        <time>2018-09-16T09:11:18Z</time>
      </trkpt>
      <trkpt lat="59.216126" lon="17.900482">
        <ele>49.8</ele>
        <time>2018-09-16T09:11:19Z</time>
      </trkpt>
      <trkpt lat="59.216098" lon="17.900447">
        <ele>49.9</ele>
        <time>2018-09-16T09:11:20Z</time>
      </trkpt>
      <trkpt lat="59.216071" lon="17.900413">
        <ele>50</ele>
        <time>2018-09-16T09:11:21Z</time>
      </trkpt>
      <trkpt lat="59.216045" lon="17.90038">
        <ele>50.1</ele>
        <time>2018-09-16T09:11:22Z</time>
      </trkpt>
      <trkpt lat="59.216019" lon="17.900341">
        <ele>50.2</ele>
        <time>2018-09-16T09:11:23Z</time>
      </trkpt>
      <trkpt lat="59.215994" lon="17.9003">
        <ele>50.3</ele>
        <time>2018-09-16T09:11:24Z</time>
      </trkpt>
      <trkpt lat="59.215971" lon="17.900267">
        <ele>50.4</ele>
        <time>2018-09-16T09:11:25Z</time>
      </trkpt>
      <trkpt lat="59.215949" lon="17.900235">
        <ele>50.5</ele>
        <time>2018-09-16T09:11:26Z</time>
      </trkpt>
      <trkpt lat="59.215909" lon="17.900163">
        <ele>50.6</ele>
        <time>2018-09-16T09:11:28Z</time>
      </trkpt>
      <trkpt lat="59.215888" lon="17.900126">
        <ele>50.7</ele>
        <time>2018-09-16T09:11:29Z</time>
      </trkpt>
      <trkpt lat="59.215862" lon="17.900088">
        <ele>50.8</ele>
        <time>2018-09-16T09:11:30Z</time>
      </trkpt>
      <trkpt lat="59.215828" lon="17.900053">
        <ele>50.9</ele>
        <time>2018-09-16T09:11:31Z</time>
      </trkpt>
      <trkpt lat="59.215794" lon="17.900019">
        <ele>51</ele>
        <time>2018-09-16T09:11:32Z</time>
      </trkpt>
      <trkpt lat="59.215757" lon="17.89998">
        <ele>51</ele>
        <time>2018-09-16T09:11:33Z</time>
      </trkpt>
      <trkpt lat="59.215718" lon="17.899932">
        <ele>51</ele>
        <time>2018-09-16T09:11:34Z</time>
      </trkpt>
      <trkpt lat="59.215683" lon="17.899873">
        <ele>51</ele>
        <time>2018-09-16T09:11:35Z</time>
      </trkpt>
      <trkpt lat="59.215658" lon="17.899806">
        <ele>51</ele>
        <time>2018-09-16T09:11:36Z</time>
      </trkpt>
      <trkpt lat="59.215642" lon="17.899735">
        <ele>51</ele>
        <time>2018-09-16T09:11:37Z</time>
      </trkpt>
      <trkpt lat="59.215631" lon="17.899661">
        <ele>51</ele>
        <time>2018-09-16T09:11:38Z</time>
      </trkpt>
      <trkpt lat="59.215622" lon="17.899505">
        <ele>51</ele>
        <time>2018-09-16T09:11:40Z</time>
      </trkpt>
      <trkpt lat="59.215638" lon="17.89942">
        <ele>51</ele>
        <time>2018-09-16T09:11:41Z</time>
      </trkpt>
      <trkpt lat="59.21567" lon="17.899335">
        <ele>51</ele>
        <time>2018-09-16T09:11:42Z</time>
      </trkpt>
      <trkpt lat="59.21571" lon="17.899254">
        <ele>51</ele>
        <time>2018-09-16T09:11:43Z</time>
      </trkpt>
      <trkpt lat="59.215751" lon="17.899183">
        <ele>45.5</ele>
        <time>2018-09-16T09:11:44Z</time>
      </trkpt>
      <trkpt lat="59.215789" lon="17.899133">
        <ele>41.5</ele>
        <time>2018-09-16T09:11:45Z</time>
      </trkpt>
      <trkpt lat="59.215826" lon="17.899085">
        <ele>38</ele>
        <time>2018-09-16T09:11:46Z</time>
      </trkpt>
      <trkpt lat="59.215863" lon="17.899037">
        <ele>37.7</ele>
        <time>2018-09-16T09:11:47Z</time>
      </trkpt>
      <trkpt lat="59.215898" lon="17.898988">
        <ele>37.3</ele>
        <time>2018-09-16T09:11:48Z</time>
      </trkpt>
      <trkpt lat="59.215928" lon="17.898936">
        <ele>36</ele>
        <time>2018-09-16T09:11:49Z</time>
      </trkpt>
      <trkpt lat="59.215945" lon="17.89888">
        <ele>36</ele>
        <time>2018-09-16T09:11:50Z</time>
      </trkpt>
      <trkpt lat="59.215938" lon="17.898789">
        <ele>36</ele>
        <time>2018-09-16T09:11:52Z</time>
      </trkpt>
      <trkpt lat="59.215895" lon="17.898724">
        <ele>36</ele>
        <time>2018-09-16T09:11:54Z</time>
      </trkpt>
      <trkpt lat="59.215873" lon="17.898691">
        <ele>36</ele>
        <time>2018-09-16T09:11:55Z</time>
      </trkpt>
      <trkpt lat="59.215838" lon="17.898615">
        <ele>36.4</ele>
        <time>2018-09-16T09:11:57Z</time>
      </trkpt>
      <trkpt lat="59.215822" lon="17.898572">
        <ele>36.6</ele>
        <time>2018-09-16T09:11:58Z</time>
      </trkpt>
      <trkpt lat="59.215806" lon="17.898526">
        <ele>36.8</ele>
        <time>2018-09-16T09:11:59Z</time>
      </trkpt>
      <trkpt lat="59.215786" lon="17.898485">
        <ele>37</ele>
        <time>2018-09-16T09:12:00Z</time>
      </trkpt>
      <trkpt lat="59.215764" lon="17.898446">
        <ele>37.3</ele>
        <time>2018-09-16T09:12:01Z</time>
      </trkpt>
      <trkpt lat="59.21574" lon="17.898416">
        <ele>37.5</ele>
        <time>2018-09-16T09:12:02Z</time>
      </trkpt>
      <trkpt lat="59.215698" lon="17.89836">
        <ele>37.8</ele>
        <time>2018-09-16T09:12:04Z</time>
      </trkpt>
      <trkpt lat="59.215669" lon="17.898298">
        <ele>38.2</ele>
        <time>2018-09-16T09:12:06Z</time>
      </trkpt>
      <trkpt lat="59.21564" lon="17.898215">
        <ele>38.6</ele>
        <time>2018-09-16T09:12:08Z</time>
      </trkpt>
      <trkpt lat="59.215625" lon="17.89817">
        <ele>39</ele>
        <time>2018-09-16T09:12:09Z</time>
      </trkpt>
      <trkpt lat="59.215609" lon="17.898125">
        <ele>39</ele>
        <time>2018-09-16T09:12:10Z</time>
      </trkpt>
      <trkpt lat="59.215591" lon="17.898083">
        <ele>39</ele>
        <time>2018-09-16T09:12:11Z</time>
      </trkpt>
      <trkpt lat="59.215553" lon="17.898019">
        <ele>39</ele>
        <time>2018-09-16T09:12:13Z</time>
      </trkpt>
      <trkpt lat="59.215505" lon="17.897984">
        <ele>39</ele>
        <time>2018-09-16T09:12:15Z</time>
      </trkpt>
      <trkpt lat="59.215477" lon="17.897971">
        <ele>39</ele>
        <time>2018-09-16T09:12:16Z</time>
      </trkpt>
      <trkpt lat="59.215426" lon="17.897946">
        <ele>39</ele>
        <time>2018-09-16T09:12:18Z</time>
      </trkpt>
      <trkpt lat="59.215399" lon="17.897933">
        <ele>39</ele>
        <time>2018-09-16T09:12:19Z</time>
      </trkpt>
      <trkpt lat="59.215371" lon="17.897919">
        <ele>39</ele>
        <time>2018-09-16T09:12:20Z</time>
      </trkpt>
      <trkpt lat="59.215341" lon="17.897905">
        <ele>39</ele>
        <time>2018-09-16T09:12:21Z</time>
      </trkpt>
      <trkpt lat="59.215289" lon="17.897891">
        <ele>39</ele>
        <time>2018-09-16T09:12:23Z</time>
      </trkpt>
      <trkpt lat="59.215262" lon="17.897883">
        <ele>39.6</ele>
        <time>2018-09-16T09:12:24Z</time>
      </trkpt>
      <trkpt lat="59.215211" lon="17.897863">
        <ele>40.8</ele>
        <time>2018-09-16T09:12:26Z</time>
      </trkpt>
      <trkpt lat="59.215172" lon="17.897855">
        <ele>41.7</ele>
        <time>2018-09-16T09:12:28Z</time>
      </trkpt>
      <trkpt lat="59.215136" lon="17.89785">
        <ele>42.6</ele>
        <time>2018-09-16T09:12:30Z</time>
      </trkpt>
      <trkpt lat="59.215092" lon="17.897825">
        <ele>43.7</ele>
        <time>2018-09-16T09:12:32Z</time>
      </trkpt>
      <trkpt lat="59.215049" lon="17.897799">
        <ele>44.7</ele>
        <time>2018-09-16T09:12:34Z</time>
      </trkpt>
      <trkpt lat="59.215004" lon="17.897774">
        <ele>45.8</ele>
        <time>2018-09-16T09:12:36Z</time>
      </trkpt>
      <trkpt lat="59.214954" lon="17.897756">
        <ele>47</ele>
        <time>2018-09-16T09:12:38Z</time>
      </trkpt>
      <trkpt lat="59.214903" lon="17.897751">
        <ele>46</ele>
        <time>2018-09-16T09:12:40Z</time>
      </trkpt>
      <trkpt lat="59.214874" lon="17.897741">
        <ele>45.3</ele>
        <time>2018-09-16T09:12:41Z</time>
      </trkpt>
      <trkpt lat="59.214845" lon="17.897733">
        <ele>44.9</ele>
        <time>2018-09-16T09:12:42Z</time>
      </trkpt>
      <trkpt lat="59.214816" lon="17.897715">
        <ele>44.6</ele>
        <time>2018-09-16T09:12:43Z</time>
      </trkpt>
      <trkpt lat="59.214787" lon="17.897697">
        <ele>44.4</ele>
        <time>2018-09-16T09:12:44Z</time>
      </trkpt>
      <trkpt lat="59.214761" lon="17.897683">
        <ele>44.2</ele>
        <time>2018-09-16T09:12:45Z</time>
      </trkpt>
      <trkpt lat="59.214734" lon="17.897669">
        <ele>44</ele>
        <time>2018-09-16T09:12:46Z</time>
      </trkpt>
      <trkpt lat="59.21469" lon="17.89764">
        <ele>43.6</ele>
        <time>2018-09-16T09:12:48Z</time>
      </trkpt>
      <trkpt lat="59.214641" lon="17.897594">
        <ele>43</ele>
        <time>2018-09-16T09:12:50Z</time>
      </trkpt>
      <trkpt lat="59.214593" lon="17.897558">
        <ele>42.4</ele>
        <time>2018-09-16T09:12:52Z</time>
      </trkpt>
      <trkpt lat="59.214565" lon="17.897536">
        <ele>42.2</ele>
        <time>2018-09-16T09:12:53Z</time>
      </trkpt>
      <trkpt lat="59.214536" lon="17.897508">
        <ele>42</ele>
        <time>2018-09-16T09:12:54Z</time>
      </trkpt>
      <trkpt lat="59.214504" lon="17.897483">
        <ele>41.7</ele>
        <time>2018-09-16T09:12:55Z</time>
      </trkpt>
      <trkpt lat="59.214474" lon="17.897457">
        <ele>41.5</ele>
        <time>2018-09-16T09:12:56Z</time>
      </trkpt>
      <trkpt lat="59.214445" lon="17.897417">
        <ele>41.2</ele>
        <time>2018-09-16T09:12:57Z</time>
      </trkpt>
      <trkpt lat="59.214415" lon="17.89737">
        <ele>40.3</ele>
        <time>2018-09-16T09:12:58Z</time>
      </trkpt>
      <trkpt lat="59.214385" lon="17.89732">
        <ele>40</ele>
        <time>2018-09-16T09:12:59Z</time>
      </trkpt>
      <trkpt lat="59.214354" lon="17.897275">
        <ele>40</ele>
        <time>2018-09-16T09:13:00Z</time>
      </trkpt>
      <trkpt lat="59.214325" lon="17.897237">
        <ele>40.3</ele>
        <time>2018-09-16T09:13:01Z</time>
      </trkpt>
      <trkpt lat="59.214297" lon="17.897197">
        <ele>40.5</ele>
        <time>2018-09-16T09:13:02Z</time>
      </trkpt>
      <trkpt lat="59.214265" lon="17.897157">
        <ele>40.5</ele>
        <time>2018-09-16T09:13:03Z</time>
      </trkpt>
      <trkpt lat="59.214233" lon="17.897117">
        <ele>40.5</ele>
        <time>2018-09-16T09:13:04Z</time>
      </trkpt>
      <trkpt lat="59.2142" lon="17.897081">
        <ele>40.6</ele>
        <time>2018-09-16T09:13:05Z</time>
      </trkpt>
      <trkpt lat="59.214169" lon="17.897045">
        <ele>40.8</ele>
        <time>2018-09-16T09:13:06Z</time>
      </trkpt>
      <trkpt lat="59.214135" lon="17.897016">
        <ele>40.9</ele>
        <time>2018-09-16T09:13:07Z</time>
      </trkpt>
      <trkpt lat="59.214103" lon="17.896989">
        <ele>40.9</ele>
        <time>2018-09-16T09:13:08Z</time>
      </trkpt>
      <trkpt lat="59.21407" lon="17.896963">
        <ele>41</ele>
        <time>2018-09-16T09:13:09Z</time>
      </trkpt>
      <trkpt lat="59.214038" lon="17.89694">
        <ele>41.1</ele>
        <time>2018-09-16T09:13:10Z</time>
      </trkpt>
      <trkpt lat="59.214006" lon="17.896917">
        <ele>41.2</ele>
        <time>2018-09-16T09:13:11Z</time>
      </trkpt>
      <trkpt lat="59.213975" lon="17.896894">
        <ele>41.4</ele>
        <time>2018-09-16T09:13:12Z</time>
      </trkpt>
      <trkpt lat="59.213946" lon="17.896873">
        <ele>41.6</ele>
        <time>2018-09-16T09:13:13Z</time>
      </trkpt>
      <trkpt lat="59.213918" lon="17.896853">
        <ele>41.8</ele>
        <time>2018-09-16T09:13:14Z</time>
      </trkpt>
      <trkpt lat="59.213892" lon="17.89683">
        <ele>41.9</ele>
        <time>2018-09-16T09:13:15Z</time>
      </trkpt>
      <trkpt lat="59.213866" lon="17.896801">
        <ele>42.1</ele>
        <time>2018-09-16T09:13:16Z</time>
      </trkpt>
      <trkpt lat="59.213838" lon="17.89677">
        <ele>42.3</ele>
        <time>2018-09-16T09:13:17Z</time>
      </trkpt>
      <trkpt lat="59.21381" lon="17.896735">
        <ele>42.5</ele>
        <time>2018-09-16T09:13:18Z</time>
      </trkpt>
      <trkpt lat="59.213782" lon="17.896701">
        <ele>42.8</ele>
        <time>2018-09-16T09:13:19Z</time>
      </trkpt>
      <trkpt lat="59.21375" lon="17.896674">
        <ele>43.1</ele>
        <time>2018-09-16T09:13:20Z</time>
      </trkpt>
      <trkpt lat="59.213717" lon="17.896646">
        <ele>43.3</ele>
        <time>2018-09-16T09:13:21Z</time>
      </trkpt>
      <trkpt lat="59.213687" lon="17.896617">
        <ele>43.5</ele>
        <time>2018-09-16T09:13:22Z</time>
      </trkpt>
      <trkpt lat="59.213658" lon="17.89659">
        <ele>43.7</ele>
        <time>2018-09-16T09:13:23Z</time>
      </trkpt>
      <trkpt lat="59.213629" lon="17.896559">
        <ele>43.9</ele>
        <time>2018-09-16T09:13:24Z</time>
      </trkpt>
      <trkpt lat="59.2136" lon="17.896525">
        <ele>44</ele>
        <time>2018-09-16T09:13:25Z</time>
      </trkpt>
      <trkpt lat="59.213553" lon="17.896471">
        <ele>44.2</ele>
        <time>2018-09-16T09:13:26Z</time>
      </trkpt>
      <trkpt lat="59.213526" lon="17.896437">
        <ele>44.2</ele>
        <time>2018-09-16T09:13:27Z</time>
      </trkpt>
      <trkpt lat="59.213493" lon="17.896408">
        <ele>44.3</ele>
        <time>2018-09-16T09:13:28Z</time>
      </trkpt>
      <trkpt lat="59.213456" lon="17.896369">
        <ele>44.6</ele>
        <time>2018-09-16T09:13:29Z</time>
      </trkpt>
      <trkpt lat="59.213429" lon="17.89632">
        <ele>44.8</ele>
        <time>2018-09-16T09:13:30Z</time>
      </trkpt>
      <trkpt lat="59.2134" lon="17.89626">
        <ele>44.9</ele>
        <time>2018-09-16T09:13:31Z</time>
      </trkpt>
      <trkpt lat="59.213375" lon="17.896211">
        <ele>44.9</ele>
        <time>2018-09-16T09:13:32Z</time>
      </trkpt>
      <trkpt lat="59.213349" lon="17.896155">
        <ele>44.9</ele>
        <time>2018-09-16T09:13:33Z</time>
      </trkpt>
      <trkpt lat="59.213314" lon="17.896103">
        <ele>44.9</ele>
        <time>2018-09-16T09:13:35Z</time>
      </trkpt>
      <trkpt lat="59.213272" lon="17.896066">
        <ele>45</ele>
        <time>2018-09-16T09:13:37Z</time>
      </trkpt>
      <trkpt lat="59.213229" lon="17.896016">
        <ele>45.2</ele>
        <time>2018-09-16T09:13:39Z</time>
      </trkpt>
      <trkpt lat="59.213191" lon="17.895941">
        <ele>45.2</ele>
        <time>2018-09-16T09:13:41Z</time>
      </trkpt>
      <trkpt lat="59.213173" lon="17.895895">
        <ele>45.3</ele>
        <time>2018-09-16T09:13:42Z</time>
      </trkpt>
      <trkpt lat="59.213155" lon="17.895847">
        <ele>45.2</ele>
        <time>2018-09-16T09:13:43Z</time>
      </trkpt>
      <trkpt lat="59.213137" lon="17.895801">
        <ele>45.2</ele>
        <time>2018-09-16T09:13:44Z</time>
      </trkpt>
      <trkpt lat="59.213118" lon="17.895753">
        <ele>45.1</ele>
        <time>2018-09-16T09:13:45Z</time>
      </trkpt>
      <trkpt lat="59.213097" lon="17.895704">
        <ele>45.1</ele>
        <time>2018-09-16T09:13:46Z</time>
      </trkpt>
      <trkpt lat="59.213079" lon="17.895656">
        <ele>45.2</ele>
        <time>2018-09-16T09:13:47Z</time>
      </trkpt>
      <trkpt lat="59.213061" lon="17.895613">
        <ele>45.2</ele>
        <time>2018-09-16T09:13:48Z</time>
      </trkpt>
      <trkpt lat="59.213026" lon="17.895539">
        <ele>45.1</ele>
        <time>2018-09-16T09:13:50Z</time>
      </trkpt>
      <trkpt lat="59.212989" lon="17.895475">
        <ele>45.1</ele>
        <time>2018-09-16T09:13:52Z</time>
      </trkpt>
      <trkpt lat="59.212951" lon="17.895405">
        <ele>45.2</ele>
        <time>2018-09-16T09:13:54Z</time>
      </trkpt>
      <trkpt lat="59.212919" lon="17.895329">
        <ele>45.2</ele>
        <time>2018-09-16T09:13:56Z</time>
      </trkpt>
      <trkpt lat="59.212893" lon="17.895254">
        <ele>45.2</ele>
        <time>2018-09-16T09:13:58Z</time>
      </trkpt>
      <trkpt lat="59.212867" lon="17.895183">
        <ele>45.4</ele>
        <time>2018-09-16T09:14:00Z</time>
      </trkpt>
      <trkpt lat="59.212844" lon="17.895105">
        <ele>45.5</ele>
        <time>2018-09-16T09:14:02Z</time>
      </trkpt>
      <trkpt lat="59.212819" lon="17.895022">
        <ele>45.4</ele>
        <time>2018-09-16T09:14:04Z</time>
      </trkpt>
      <trkpt lat="59.212789" lon="17.894944">
        <ele>45.3</ele>
        <time>2018-09-16T09:14:06Z</time>
      </trkpt>
      <trkpt lat="59.21277" lon="17.894904">
        <ele>45.1</ele>
        <time>2018-09-16T09:14:07Z</time>
      </trkpt>
      <trkpt lat="59.212753" lon="17.894861">
        <ele>45</ele>
        <time>2018-09-16T09:14:08Z</time>
      </trkpt>
      <trkpt lat="59.212735" lon="17.894821">
        <ele>45</ele>
        <time>2018-09-16T09:14:09Z</time>
      </trkpt>
      <trkpt lat="59.212716" lon="17.894781">
        <ele>45</ele>
        <time>2018-09-16T09:14:10Z</time>
      </trkpt>
      <trkpt lat="59.212694" lon="17.894743">
        <ele>45</ele>
        <time>2018-09-16T09:14:11Z</time>
      </trkpt>
      <trkpt lat="59.212672" lon="17.894706">
        <ele>45.2</ele>
        <time>2018-09-16T09:14:12Z</time>
      </trkpt>
      <trkpt lat="59.212649" lon="17.894673">
        <ele>45.7</ele>
        <time>2018-09-16T09:14:13Z</time>
      </trkpt>
      <trkpt lat="59.212627" lon="17.894641">
        <ele>46.1</ele>
        <time>2018-09-16T09:14:14Z</time>
      </trkpt>
      <trkpt lat="59.212605" lon="17.894609">
        <ele>46.6</ele>
        <time>2018-09-16T09:14:15Z</time>
      </trkpt>
      <trkpt lat="59.212584" lon="17.894575">
        <ele>47.1</ele>
        <time>2018-09-16T09:14:16Z</time>
      </trkpt>
      <trkpt lat="59.212565" lon="17.894536">
        <ele>47.6</ele>
        <time>2018-09-16T09:14:17Z</time>
      </trkpt>
      <trkpt lat="59.212534" lon="17.894457">
        <ele>48.4</ele>
        <time>2018-09-16T09:14:19Z</time>
      </trkpt>
      <trkpt lat="59.21251" lon="17.894368">
        <ele>49.1</ele>
        <time>2018-09-16T09:14:21Z</time>
      </trkpt>
      <trkpt lat="59.212477" lon="17.894287">
        <ele>49.9</ele>
        <time>2018-09-16T09:14:23Z</time>
      </trkpt>
      <trkpt lat="59.212444" lon="17.894205">
        <ele>50.8</ele>
        <time>2018-09-16T09:14:25Z</time>
      </trkpt>
      <trkpt lat="59.212415" lon="17.894129">
        <ele>51.7</ele>
        <time>2018-09-16T09:14:27Z</time>
      </trkpt>
      <trkpt lat="59.212392" lon="17.894061">
        <ele>52.5</ele>
        <time>2018-09-16T09:14:29Z</time>
      </trkpt>
      <trkpt lat="59.212362" lon="17.893977">
        <ele>53.5</ele>
        <time>2018-09-16T09:14:31Z</time>
      </trkpt>
      <trkpt lat="59.212344" lon="17.893934">
        <ele>53.9</ele>
        <time>2018-09-16T09:14:32Z</time>
      </trkpt>
      <trkpt lat="59.212323" lon="17.893891">
        <ele>54.4</ele>
        <time>2018-09-16T09:14:33Z</time>
      </trkpt>
      <trkpt lat="59.212307" lon="17.893846">
        <ele>54.9</ele>
        <time>2018-09-16T09:14:34Z</time>
      </trkpt>
      <trkpt lat="59.212291" lon="17.893802">
        <ele>55.4</ele>
        <time>2018-09-16T09:14:35Z</time>
      </trkpt>
      <trkpt lat="59.212262" lon="17.893721">
        <ele>56.4</ele>
        <time>2018-09-16T09:14:37Z</time>
      </trkpt>
      <trkpt lat="59.212227" lon="17.893649">
        <ele>57.5</ele>
        <time>2018-09-16T09:14:39Z</time>
      </trkpt>
      <trkpt lat="59.212208" lon="17.893612">
        <ele>58</ele>
        <time>2018-09-16T09:14:40Z</time>
      </trkpt>
      <trkpt lat="59.21219" lon="17.893566">
        <ele>58.7</ele>
        <time>2018-09-16T09:14:41Z</time>
      </trkpt>
      <trkpt lat="59.212173" lon="17.893523">
        <ele>59.3</ele>
        <time>2018-09-16T09:14:42Z</time>
      </trkpt>
      <trkpt lat="59.212148" lon="17.893435">
        <ele>60</ele>
        <time>2018-09-16T09:14:44Z</time>
      </trkpt>
      <trkpt lat="59.212127" lon="17.893353">
        <ele>60</ele>
        <time>2018-09-16T09:14:46Z</time>
      </trkpt>
      <trkpt lat="59.212103" lon="17.893274">
        <ele>56.8</ele>
        <time>2018-09-16T09:14:48Z</time>
      </trkpt>
      <trkpt lat="59.212088" lon="17.893191">
        <ele>53</ele>
        <time>2018-09-16T09:14:50Z</time>
      </trkpt>
      <trkpt lat="59.212069" lon="17.893113">
        <ele>53</ele>
        <time>2018-09-16T09:14:52Z</time>
      </trkpt>
      <trkpt lat="59.212043" lon="17.893046">
        <ele>53</ele>
        <time>2018-09-16T09:14:54Z</time>
      </trkpt>
      <trkpt lat="59.212022" lon="17.892971">
        <ele>52.9</ele>
        <time>2018-09-16T09:14:56Z</time>
      </trkpt>
      <trkpt lat="59.212003" lon="17.892889">
        <ele>52.9</ele>
        <time>2018-09-16T09:14:58Z</time>
      </trkpt>
      <trkpt lat="59.211987" lon="17.892816">
        <ele>52.8</ele>
        <time>2018-09-16T09:15:00Z</time>
      </trkpt>
      <trkpt lat="59.211963" lon="17.892772">
        <ele>52.7</ele>
        <time>2018-09-16T09:15:02Z</time>
      </trkpt>
      <trkpt lat="59.211901" lon="17.892591">
        <ele>52.2</ele>
        <time>2018-09-16T09:15:07Z</time>
      </trkpt>
      <trkpt lat="59.211883" lon="17.89255">
        <ele>52.1</ele>
        <time>2018-09-16T09:15:08Z</time>
      </trkpt>
      <trkpt lat="59.211857" lon="17.892501">
        <ele>51.9</ele>
        <time>2018-09-16T09:15:10Z</time>
      </trkpt>
      <trkpt lat="59.211833" lon="17.892473">
        <ele>51.8</ele>
        <time>2018-09-16T09:15:12Z</time>
      </trkpt>
      <trkpt lat="59.211808" lon="17.89241">
        <ele>51.5</ele>
        <time>2018-09-16T09:15:14Z</time>
      </trkpt>
      <trkpt lat="59.211774" lon="17.892334">
        <ele>51.2</ele>
        <time>2018-09-16T09:15:16Z</time>
      </trkpt>
      <trkpt lat="59.211739" lon="17.892257">
        <ele>50.8</ele>
        <time>2018-09-16T09:15:18Z</time>
      </trkpt>
      <trkpt lat="59.211721" lon="17.892211">
        <ele>50.6</ele>
        <time>2018-09-16T09:15:19Z</time>
      </trkpt>
      <trkpt lat="59.211704" lon="17.892166">
        <ele>50.4</ele>
        <time>2018-09-16T09:15:20Z</time>
      </trkpt>
      <trkpt lat="59.211684" lon="17.892121">
        <ele>50.2</ele>
        <time>2018-09-16T09:15:21Z</time>
      </trkpt>
      <trkpt lat="59.211666" lon="17.892079">
        <ele>50.1</ele>
        <time>2018-09-16T09:15:22Z</time>
      </trkpt>
      <trkpt lat="59.211637" lon="17.892006">
        <ele>49.7</ele>
        <time>2018-09-16T09:15:24Z</time>
      </trkpt>
      <trkpt lat="59.211624" lon="17.891933">
        <ele>49.4</ele>
        <time>2018-09-16T09:15:26Z</time>
      </trkpt>
      <trkpt lat="59.211641" lon="17.891835">
        <ele>49</ele>
        <time>2018-09-16T09:15:28Z</time>
      </trkpt>
      <trkpt lat="59.211646" lon="17.891744">
        <ele>48.6</ele>
        <time>2018-09-16T09:15:30Z</time>
      </trkpt>
      <trkpt lat="59.211629" lon="17.891654">
        <ele>48.2</ele>
        <time>2018-09-16T09:15:32Z</time>
      </trkpt>
      <trkpt lat="59.211607" lon="17.891585">
        <ele>47.8</ele>
        <time>2018-09-16T09:15:34Z</time>
      </trkpt>
      <trkpt lat="59.211576" lon="17.891516">
        <ele>47.5</ele>
        <time>2018-09-16T09:15:36Z</time>
      </trkpt>
      <trkpt lat="59.211545" lon="17.89148">
        <ele>47.2</ele>
        <time>2018-09-16T09:15:37Z</time>
      </trkpt>
      <trkpt lat="59.211517" lon="17.891444">
        <ele>46.9</ele>
        <time>2018-09-16T09:15:38Z</time>
      </trkpt>
      <trkpt lat="59.211492" lon="17.891408">
        <ele>46.7</ele>
        <time>2018-09-16T09:15:39Z</time>
      </trkpt>
      <trkpt lat="59.211468" lon="17.891368">
        <ele>46.7</ele>
        <time>2018-09-16T09:15:40Z</time>
      </trkpt>
      <trkpt lat="59.211437" lon="17.891311">
        <ele>46.6</ele>
        <time>2018-09-16T09:15:42Z</time>
      </trkpt>
      <trkpt lat="59.211407" lon="17.891256">
        <ele>46.5</ele>
        <time>2018-09-16T09:15:45Z</time>
      </trkpt>
      <trkpt lat="59.211383" lon="17.891219">
        <ele>46.3</ele>
        <time>2018-09-16T09:15:47Z</time>
      </trkpt>
      <trkpt lat="59.211365" lon="17.891171">
        <ele>46.2</ele>
        <time>2018-09-16T09:15:50Z</time>
      </trkpt>
      <trkpt lat="59.211362" lon="17.891115">
        <ele>46.2</ele>
        <time>2018-09-16T09:15:58Z</time>
      </trkpt>
      <trkpt lat="59.211306" lon="17.891089">
        <ele>46.1</ele>
        <time>2018-09-16T09:16:46Z</time>
      </trkpt>
      <trkpt lat="59.21128" lon="17.891062">
        <ele>46.1</ele>
        <time>2018-09-16T09:16:47Z</time>
      </trkpt>
      <trkpt lat="59.211254" lon="17.891043">
        <ele>46</ele>
        <time>2018-09-16T09:16:48Z</time>
      </trkpt>
      <trkpt lat="59.211201" lon="17.891">
        <ele>45.8</ele>
        <time>2018-09-16T09:16:50Z</time>
      </trkpt>
      <trkpt lat="59.211168" lon="17.890977">
        <ele>45.6</ele>
        <time>2018-09-16T09:16:51Z</time>
      </trkpt>
      <trkpt lat="59.211134" lon="17.890953">
        <ele>45.5</ele>
        <time>2018-09-16T09:16:52Z</time>
      </trkpt>
      <trkpt lat="59.2111" lon="17.890927">
        <ele>45.5</ele>
        <time>2018-09-16T09:16:53Z</time>
      </trkpt>
      <trkpt lat="59.211072" lon="17.890905">
        <ele>45.5</ele>
        <time>2018-09-16T09:16:54Z</time>
      </trkpt>
      <trkpt lat="59.211044" lon="17.890886">
        <ele>45.4</ele>
        <time>2018-09-16T09:16:55Z</time>
      </trkpt>
      <trkpt lat="59.211016" lon="17.890872">
        <ele>45.3</ele>
        <time>2018-09-16T09:16:56Z</time>
      </trkpt>
      <trkpt lat="59.210988" lon="17.890855">
        <ele>45.2</ele>
        <time>2018-09-16T09:16:57Z</time>
      </trkpt>
      <trkpt lat="59.21096" lon="17.890836">
        <ele>45.1</ele>
        <time>2018-09-16T09:16:58Z</time>
      </trkpt>
      <trkpt lat="59.210931" lon="17.890811">
        <ele>45</ele>
        <time>2018-09-16T09:16:59Z</time>
      </trkpt>
      <trkpt lat="59.210904" lon="17.890787">
        <ele>45</ele>
        <time>2018-09-16T09:17:00Z</time>
      </trkpt>
      <trkpt lat="59.210878" lon="17.890759">
        <ele>45</ele>
        <time>2018-09-16T09:17:01Z</time>
      </trkpt>
      <trkpt lat="59.210834" lon="17.890719">
        <ele>45.9</ele>
        <time>2018-09-16T09:17:03Z</time>
      </trkpt>
      <trkpt lat="59.210793" lon="17.890693">
        <ele>47.5</ele>
        <time>2018-09-16T09:17:05Z</time>
      </trkpt>
      <trkpt lat="59.210761" lon="17.890681">
        <ele>48.8</ele>
        <time>2018-09-16T09:17:07Z</time>
      </trkpt>
      <trkpt lat="59.210724" lon="17.89065">
        <ele>50.3</ele>
        <time>2018-09-16T09:17:09Z</time>
      </trkpt>
      <trkpt lat="59.210686" lon="17.89061">
        <ele>51.9</ele>
        <time>2018-09-16T09:17:11Z</time>
      </trkpt>
      <trkpt lat="59.210646" lon="17.890578">
        <ele>53.5</ele>
        <time>2018-09-16T09:17:13Z</time>
      </trkpt>
      <trkpt lat="59.210612" lon="17.890555">
        <ele>54.8</ele>
        <time>2018-09-16T09:17:15Z</time>
      </trkpt>
      <trkpt lat="59.21058" lon="17.890538">
        <ele>56.1</ele>
        <time>2018-09-16T09:17:17Z</time>
      </trkpt>
      <trkpt lat="59.210541" lon="17.890516">
        <ele>57.6</ele>
        <time>2018-09-16T09:17:19Z</time>
      </trkpt>
      <trkpt lat="59.210504" lon="17.890487">
        <ele>59.1</ele>
        <time>2018-09-16T09:17:21Z</time>
      </trkpt>
      <trkpt lat="59.210474" lon="17.890462">
        <ele>60.3</ele>
        <time>2018-09-16T09:17:24Z</time>
      </trkpt>
      <trkpt lat="59.210447" lon="17.890432">
        <ele>62.4</ele>
        <time>2018-09-16T09:17:27Z</time>
      </trkpt>
      <trkpt lat="59.210422" lon="17.890455">
        <ele>62.5</ele>
        <time>2018-09-16T09:17:34Z</time>
      </trkpt>
      <trkpt lat="59.210395" lon="17.890477">
        <ele>62.6</ele>
        <time>2018-09-16T09:17:37Z</time>
      </trkpt>
      <trkpt lat="59.21038" lon="17.890522">
        <ele>62.7</ele>
        <time>2018-09-16T09:17:39Z</time>
      </trkpt>
      <trkpt lat="59.210379" lon="17.89059">
        <ele>62.8</ele>
        <time>2018-09-16T09:17:42Z</time>
      </trkpt>
      <trkpt lat="59.210359" lon="17.890647">
        <ele>62.9</ele>
        <time>2018-09-16T09:17:44Z</time>
      </trkpt>
      <trkpt lat="59.210344" lon="17.890708">
        <ele>63.1</ele>
        <time>2018-09-16T09:17:46Z</time>
      </trkpt>
      <trkpt lat="59.210345" lon="17.890769">
        <ele>63.2</ele>
        <time>2018-09-16T09:17:48Z</time>
      </trkpt>
      <trkpt lat="59.210341" lon="17.890826">
        <ele>63.2</ele>
        <time>2018-09-16T09:17:50Z</time>
      </trkpt>
      <trkpt lat="59.210317" lon="17.890878">
        <ele>63.3</ele>
        <time>2018-09-16T09:17:52Z</time>
      </trkpt>
      <trkpt lat="59.210305" lon="17.890944">
        <ele>63.4</ele>
        <time>2018-09-16T09:17:55Z</time>
      </trkpt>
      <trkpt lat="59.210313" lon="17.890999">
        <ele>63.5</ele>
        <time>2018-09-16T09:17:57Z</time>
      </trkpt>
      <trkpt lat="59.210323" lon="17.891064">
        <ele>63.6</ele>
        <time>2018-09-16T09:18:00Z</time>
      </trkpt>
      <trkpt lat="59.210331" lon="17.891115">
        <ele>63.7</ele>
        <time>2018-09-16T09:18:02Z</time>
      </trkpt>
      <trkpt lat="59.210327" lon="17.891171">
        <ele>63.7</ele>
        <time>2018-09-16T09:18:04Z</time>
      </trkpt>
      <trkpt lat="59.210314" lon="17.891231">
        <ele>63.8</ele>
        <time>2018-09-16T09:18:06Z</time>
      </trkpt>
      <trkpt lat="59.210301" lon="17.891298">
        <ele>63.9</ele>
        <time>2018-09-16T09:18:08Z</time>
      </trkpt>
      <trkpt lat="59.210293" lon="17.891363">
        <ele>63.9</ele>
        <time>2018-09-16T09:18:10Z</time>
      </trkpt>
      <trkpt lat="59.210296" lon="17.891418">
        <ele>64</ele>
        <time>2018-09-16T09:18:12Z</time>
      </trkpt>
      <trkpt lat="59.210281" lon="17.891477">
        <ele>64.1</ele>
        <time>2018-09-16T09:18:14Z</time>
      </trkpt>
      <trkpt lat="59.210268" lon="17.891538">
        <ele>64.1</ele>
        <time>2018-09-16T09:18:16Z</time>
      </trkpt>
      <trkpt lat="59.210266" lon="17.891599">
        <ele>64.1</ele>
        <time>2018-09-16T09:18:18Z</time>
      </trkpt>
      <trkpt lat="59.210259" lon="17.891652">
        <ele>64.1</ele>
        <time>2018-09-16T09:18:20Z</time>
      </trkpt>
      <trkpt lat="59.210246" lon="17.89171">
        <ele>64.2</ele>
        <time>2018-09-16T09:18:22Z</time>
      </trkpt>
      <trkpt lat="59.210241" lon="17.891766">
        <ele>64.1</ele>
        <time>2018-09-16T09:18:24Z</time>
      </trkpt>
      <trkpt lat="59.210243" lon="17.891834">
        <ele>64.1</ele>
        <time>2018-09-16T09:18:26Z</time>
      </trkpt>
      <trkpt lat="59.210234" lon="17.891911">
        <ele>64.1</ele>
        <time>2018-09-16T09:18:29Z</time>
      </trkpt>
      <trkpt lat="59.210205" lon="17.891968">
        <ele>64</ele>
        <time>2018-09-16T09:18:32Z</time>
      </trkpt>
      <trkpt lat="59.210177" lon="17.891963">
        <ele>64</ele>
        <time>2018-09-16T09:18:34Z</time>
      </trkpt>
      <trkpt lat="59.210171" lon="17.891897">
        <ele>64</ele>
        <time>2018-09-16T09:18:37Z</time>
      </trkpt>
      <trkpt lat="59.210182" lon="17.891846">
        <ele>64</ele>
        <time>2018-09-16T09:18:43Z</time>
      </trkpt>
      <trkpt lat="59.210167" lon="17.891801">
        <ele>64</ele>
        <time>2018-09-16T09:18:57Z</time>
      </trkpt>
      <trkpt lat="59.210151" lon="17.891757">
        <ele>64</ele>
        <time>2018-09-16T09:18:58Z</time>
      </trkpt>
      <trkpt lat="59.210132" lon="17.891674">
        <ele>64</ele>
        <time>2018-09-16T09:19:00Z</time>
      </trkpt>
      <trkpt lat="59.210114" lon="17.891613">
        <ele>64</ele>
        <time>2018-09-16T09:19:02Z</time>
      </trkpt>
      <trkpt lat="59.210084" lon="17.89156">
        <ele>64.1</ele>
        <time>2018-09-16T09:19:04Z</time>
      </trkpt>
      <trkpt lat="59.210041" lon="17.891507">
        <ele>64.1</ele>
        <time>2018-09-16T09:19:06Z</time>
      </trkpt>
      <trkpt lat="59.209995" lon="17.89146">
        <ele>64.1</ele>
        <time>2018-09-16T09:19:08Z</time>
      </trkpt>
      <trkpt lat="59.20997" lon="17.891441">
        <ele>64.2</ele>
        <time>2018-09-16T09:19:09Z</time>
      </trkpt>
      <trkpt lat="59.209923" lon="17.891412">
        <ele>64.2</ele>
        <time>2018-09-16T09:19:11Z</time>
      </trkpt>
      <trkpt lat="59.209878" lon="17.891393">
        <ele>64.2</ele>
        <time>2018-09-16T09:19:13Z</time>
      </trkpt>
      <trkpt lat="59.209831" lon="17.89138">
        <ele>64.2</ele>
        <time>2018-09-16T09:19:15Z</time>
      </trkpt>
      <trkpt lat="59.209781" lon="17.891357">
        <ele>64.2</ele>
        <time>2018-09-16T09:19:17Z</time>
      </trkpt>
      <trkpt lat="59.209733" lon="17.891323">
        <ele>64.1</ele>
        <time>2018-09-16T09:19:19Z</time>
      </trkpt>
      <trkpt lat="59.209685" lon="17.89129">
        <ele>63.9</ele>
        <time>2018-09-16T09:19:21Z</time>
      </trkpt>
      <trkpt lat="59.209658" lon="17.891262">
        <ele>63.9</ele>
        <time>2018-09-16T09:19:22Z</time>
      </trkpt>
      <trkpt lat="59.209631" lon="17.891221">
        <ele>63.8</ele>
        <time>2018-09-16T09:19:23Z</time>
      </trkpt>
      <trkpt lat="59.209613" lon="17.891173">
        <ele>63.7</ele>
        <time>2018-09-16T09:19:24Z</time>
      </trkpt>
      <trkpt lat="59.209596" lon="17.891118">
        <ele>63.6</ele>
        <time>2018-09-16T09:19:25Z</time>
      </trkpt>
      <trkpt lat="59.209586" lon="17.891063">
        <ele>63.4</ele>
        <time>2018-09-16T09:19:26Z</time>
      </trkpt>
      <trkpt lat="59.209581" lon="17.891002">
        <ele>63.2</ele>
        <time>2018-09-16T09:19:27Z</time>
      </trkpt>
      <trkpt lat="59.209574" lon="17.890932">
        <ele>63</ele>
        <time>2018-09-16T09:19:28Z</time>
      </trkpt>
      <trkpt lat="59.209567" lon="17.890864">
        <ele>62.8</ele>
        <time>2018-09-16T09:19:29Z</time>
      </trkpt>
      <trkpt lat="59.209559" lon="17.890798">
        <ele>62.6</ele>
        <time>2018-09-16T09:19:30Z</time>
      </trkpt>
      <trkpt lat="59.209548" lon="17.890737">
        <ele>62.4</ele>
        <time>2018-09-16T09:19:31Z</time>
      </trkpt>
      <trkpt lat="59.209539" lon="17.890678">
        <ele>62.2</ele>
        <time>2018-09-16T09:19:32Z</time>
      </trkpt>
      <trkpt lat="59.209526" lon="17.890623">
        <ele>62</ele>
        <time>2018-09-16T09:19:33Z</time>
      </trkpt>
      <trkpt lat="59.209514" lon="17.890569">
        <ele>61.5</ele>
        <time>2018-09-16T09:19:34Z</time>
      </trkpt>
      <trkpt lat="59.209497" lon="17.890511">
        <ele>61.3</ele>
        <time>2018-09-16T09:19:35Z</time>
      </trkpt>
      <trkpt lat="59.20948" lon="17.89045">
        <ele>61</ele>
        <time>2018-09-16T09:19:36Z</time>
      </trkpt>
      <trkpt lat="59.20946" lon="17.890403">
        <ele>60.8</ele>
        <time>2018-09-16T09:19:37Z</time>
      </trkpt>
      <trkpt lat="59.209433" lon="17.890366">
        <ele>60.5</ele>
        <time>2018-09-16T09:19:38Z</time>
      </trkpt>
      <trkpt lat="59.209399" lon="17.890343">
        <ele>60.3</ele>
        <time>2018-09-16T09:19:39Z</time>
      </trkpt>
      <trkpt lat="59.20936" lon="17.890335">
        <ele>59.7</ele>
        <time>2018-09-16T09:19:40Z</time>
      </trkpt>
      <trkpt lat="59.209322" lon="17.890336">
        <ele>59.3</ele>
        <time>2018-09-16T09:19:41Z</time>
      </trkpt>
      <trkpt lat="59.209287" lon="17.890345">
        <ele>58.9</ele>
        <time>2018-09-16T09:19:42Z</time>
      </trkpt>
      <trkpt lat="59.209255" lon="17.890351">
        <ele>58.7</ele>
        <time>2018-09-16T09:19:43Z</time>
      </trkpt>
      <trkpt lat="59.209227" lon="17.890359">
        <ele>58.4</ele>
        <time>2018-09-16T09:19:44Z</time>
      </trkpt>
      <trkpt lat="59.209179" lon="17.890363">
        <ele>58.1</ele>
        <time>2018-09-16T09:19:46Z</time>
      </trkpt>
      <trkpt lat="59.209131" lon="17.890334">
        <ele>58</ele>
        <time>2018-09-16T09:19:48Z</time>
      </trkpt>
      <trkpt lat="59.209107" lon="17.890294">
        <ele>58</ele>
        <time>2018-09-16T09:19:49Z</time>
      </trkpt>
      <trkpt lat="59.209087" lon="17.890248">
        <ele>58</ele>
        <time>2018-09-16T09:19:50Z</time>
      </trkpt>
      <trkpt lat="59.209072" lon="17.890148">
        <ele>57.7</ele>
        <time>2018-09-16T09:19:52Z</time>
      </trkpt>
      <trkpt lat="59.20907" lon="17.890085">
        <ele>57.6</ele>
        <time>2018-09-16T09:19:53Z</time>
      </trkpt>
      <trkpt lat="59.209069" lon="17.890011">
        <ele>57.6</ele>
        <time>2018-09-16T09:19:54Z</time>
      </trkpt>
      <trkpt lat="59.20907" lon="17.889934">
        <ele>57.5</ele>
        <time>2018-09-16T09:19:55Z</time>
      </trkpt>
      <trkpt lat="59.209071" lon="17.889854">
        <ele>57.5</ele>
        <time>2018-09-16T09:19:56Z</time>
      </trkpt>
      <trkpt lat="59.209061" lon="17.88977">
        <ele>57.4</ele>
        <time>2018-09-16T09:19:57Z</time>
      </trkpt>
      <trkpt lat="59.209044" lon="17.889688">
        <ele>57.3</ele>
        <time>2018-09-16T09:19:58Z</time>
      </trkpt>
      <trkpt lat="59.209023" lon="17.889606">
        <ele>57.3</ele>
        <time>2018-09-16T09:19:59Z</time>
      </trkpt>
      <trkpt lat="59.209" lon="17.889526">
        <ele>57.2</ele>
        <time>2018-09-16T09:20:00Z</time>
      </trkpt>
      <trkpt lat="59.208976" lon="17.889446">
        <ele>57.2</ele>
        <time>2018-09-16T09:20:01Z</time>
      </trkpt>
      <trkpt lat="59.208951" lon="17.889367">
        <ele>57.2</ele>
        <time>2018-09-16T09:20:02Z</time>
      </trkpt>
      <trkpt lat="59.208928" lon="17.889291">
        <ele>57.3</ele>
        <time>2018-09-16T09:20:03Z</time>
      </trkpt>
      <trkpt lat="59.208907" lon="17.889212">
        <ele>57.2</ele>
        <time>2018-09-16T09:20:04Z</time>
      </trkpt>
      <trkpt lat="59.208888" lon="17.88914">
        <ele>57.2</ele>
        <time>2018-09-16T09:20:05Z</time>
      </trkpt>
      <trkpt lat="59.208872" lon="17.889077">
        <ele>57.1</ele>
        <time>2018-09-16T09:20:06Z</time>
      </trkpt>
      <trkpt lat="59.208859" lon="17.889019">
        <ele>57.1</ele>
        <time>2018-09-16T09:20:07Z</time>
      </trkpt>
      <trkpt lat="59.208845" lon="17.88896">
        <ele>57</ele>
        <time>2018-09-16T09:20:08Z</time>
      </trkpt>
      <trkpt lat="59.20883" lon="17.888899">
        <ele>57</ele>
        <time>2018-09-16T09:20:09Z</time>
      </trkpt>
      <trkpt lat="59.208811" lon="17.888838">
        <ele>56.9</ele>
        <time>2018-09-16T09:20:10Z</time>
      </trkpt>
      <trkpt lat="59.208786" lon="17.888772">
        <ele>56.8</ele>
        <time>2018-09-16T09:20:11Z</time>
      </trkpt>
      <trkpt lat="59.208765" lon="17.88871">
        <ele>56.7</ele>
        <time>2018-09-16T09:20:12Z</time>
      </trkpt>
      <trkpt lat="59.208749" lon="17.88864">
        <ele>56.7</ele>
        <time>2018-09-16T09:20:13Z</time>
      </trkpt>
      <trkpt lat="59.208726" lon="17.888571">
        <ele>56.6</ele>
        <time>2018-09-16T09:20:14Z</time>
      </trkpt>
      <trkpt lat="59.2087" lon="17.888501">
        <ele>56.5</ele>
        <time>2018-09-16T09:20:15Z</time>
      </trkpt>
      <trkpt lat="59.208674" lon="17.888428">
        <ele>56.4</ele>
        <time>2018-09-16T09:20:16Z</time>
      </trkpt>
      <trkpt lat="59.208651" lon="17.888355">
        <ele>56.3</ele>
        <time>2018-09-16T09:20:17Z</time>
      </trkpt>
      <trkpt lat="59.20863" lon="17.888281">
        <ele>56.3</ele>
        <time>2018-09-16T09:20:18Z</time>
      </trkpt>
      <trkpt lat="59.208609" lon="17.888201">
        <ele>56.2</ele>
        <time>2018-09-16T09:20:19Z</time>
      </trkpt>
      <trkpt lat="59.208587" lon="17.888125">
        <ele>56.2</ele>
        <time>2018-09-16T09:20:20Z</time>
      </trkpt>
      <trkpt lat="59.208565" lon="17.888049">
        <ele>56.1</ele>
        <time>2018-09-16T09:20:21Z</time>
      </trkpt>
      <trkpt lat="59.20854" lon="17.887968">
        <ele>56</ele>
        <time>2018-09-16T09:20:22Z</time>
      </trkpt>
      <trkpt lat="59.208507" lon="17.88785">
        <ele>55.8</ele>
        <time>2018-09-16T09:20:23Z</time>
      </trkpt>
      <trkpt lat="59.208493" lon="17.887801">
        <ele>55.8</ele>
        <time>2018-09-16T09:20:24Z</time>
      </trkpt>
      <trkpt lat="59.20848" lon="17.887737">
        <ele>55.8</ele>
        <time>2018-09-16T09:20:25Z</time>
      </trkpt>
      <trkpt lat="59.208455" lon="17.887659">
        <ele>55.8</ele>
        <time>2018-09-16T09:20:26Z</time>
      </trkpt>
      <trkpt lat="59.208427" lon="17.887591">
        <ele>55.7</ele>
        <time>2018-09-16T09:20:27Z</time>
      </trkpt>
      <trkpt lat="59.208412" lon="17.887526">
        <ele>55.6</ele>
        <time>2018-09-16T09:20:28Z</time>
      </trkpt>
      <trkpt lat="59.208401" lon="17.887463">
        <ele>55.5</ele>
        <time>2018-09-16T09:20:29Z</time>
      </trkpt>
      <trkpt lat="59.208381" lon="17.887405">
        <ele>55.4</ele>
        <time>2018-09-16T09:20:30Z</time>
      </trkpt>
      <trkpt lat="59.208378" lon="17.887322">
        <ele>55.5</ele>
        <time>2018-09-16T09:20:31Z</time>
      </trkpt>
      <trkpt lat="59.208368" lon="17.887241">
        <ele>55.5</ele>
        <time>2018-09-16T09:20:32Z</time>
      </trkpt>
      <trkpt lat="59.208352" lon="17.887188">
        <ele>55.5</ele>
        <time>2018-09-16T09:20:33Z</time>
      </trkpt>
      <trkpt lat="59.208343" lon="17.887107">
        <ele>55.6</ele>
        <time>2018-09-16T09:20:34Z</time>
      </trkpt>
      <trkpt lat="59.208327" lon="17.887035">
        <ele>55.7</ele>
        <time>2018-09-16T09:20:35Z</time>
      </trkpt>
      <trkpt lat="59.208326" lon="17.886958">
        <ele>55.7</ele>
        <time>2018-09-16T09:20:36Z</time>
      </trkpt>
      <trkpt lat="59.208322" lon="17.886889">
        <ele>55.7</ele>
        <time>2018-09-16T09:20:37Z</time>
      </trkpt>
      <trkpt lat="59.208322" lon="17.886825">
        <ele>55.8</ele>
        <time>2018-09-16T09:20:38Z</time>
      </trkpt>
      <trkpt lat="59.208321" lon="17.886764">
        <ele>55.9</ele>
        <time>2018-09-16T09:20:39Z</time>
      </trkpt>
      <trkpt lat="59.208311" lon="17.886707">
        <ele>56</ele>
        <time>2018-09-16T09:20:40Z</time>
      </trkpt>
      <trkpt lat="59.208289" lon="17.886633">
        <ele>56.2</ele>
        <time>2018-09-16T09:20:42Z</time>
      </trkpt>
      <trkpt lat="59.208281" lon="17.886546">
        <ele>56.4</ele>
        <time>2018-09-16T09:20:44Z</time>
      </trkpt>
      <trkpt lat="59.208278" lon="17.886492">
        <ele>56.5</ele>
        <time>2018-09-16T09:20:45Z</time>
      </trkpt>
      <trkpt lat="59.208265" lon="17.886397">
        <ele>56.7</ele>
        <time>2018-09-16T09:20:47Z</time>
      </trkpt>
      <trkpt lat="59.208256" lon="17.886346">
        <ele>56.8</ele>
        <time>2018-09-16T09:20:48Z</time>
      </trkpt>
      <trkpt lat="59.208246" lon="17.886292">
        <ele>56.9</ele>
        <time>2018-09-16T09:20:49Z</time>
      </trkpt>
      <trkpt lat="59.208237" lon="17.886237">
        <ele>57</ele>
        <time>2018-09-16T09:20:50Z</time>
      </trkpt>
      <trkpt lat="59.208219" lon="17.886146">
        <ele>57</ele>
        <time>2018-09-16T09:20:52Z</time>
      </trkpt>
      <trkpt lat="59.208208" lon="17.886065">
        <ele>57</ele>
        <time>2018-09-16T09:20:54Z</time>
      </trkpt>
      <trkpt lat="59.208193" lon="17.885975">
        <ele>57</ele>
        <time>2018-09-16T09:20:56Z</time>
      </trkpt>
      <trkpt lat="59.208174" lon="17.885878">
        <ele>57</ele>
        <time>2018-09-16T09:20:58Z</time>
      </trkpt>
      <trkpt lat="59.208163" lon="17.885819">
        <ele>57.1</ele>
        <time>2018-09-16T09:20:59Z</time>
      </trkpt>
      <trkpt lat="59.208149" lon="17.885759">
        <ele>57.1</ele>
        <time>2018-09-16T09:21:00Z</time>
      </trkpt>
      <trkpt lat="59.208136" lon="17.885697">
        <ele>57.1</ele>
        <time>2018-09-16T09:21:01Z</time>
      </trkpt>
      <trkpt lat="59.208125" lon="17.885639">
        <ele>57</ele>
        <time>2018-09-16T09:21:02Z</time>
      </trkpt>
      <trkpt lat="59.208115" lon="17.885581">
        <ele>57</ele>
        <time>2018-09-16T09:21:03Z</time>
      </trkpt>
      <trkpt lat="59.208105" lon="17.885522">
        <ele>57</ele>
        <time>2018-09-16T09:21:04Z</time>
      </trkpt>
      <trkpt lat="59.208097" lon="17.885463">
        <ele>56.9</ele>
        <time>2018-09-16T09:21:05Z</time>
      </trkpt>
      <trkpt lat="59.20809" lon="17.885405">
        <ele>56.9</ele>
        <time>2018-09-16T09:21:06Z</time>
      </trkpt>
      <trkpt lat="59.208083" lon="17.885348">
        <ele>56.8</ele>
        <time>2018-09-16T09:21:07Z</time>
      </trkpt>
      <trkpt lat="59.20807" lon="17.885264">
        <ele>56.7</ele>
        <time>2018-09-16T09:21:09Z</time>
      </trkpt>
      <trkpt lat="59.208049" lon="17.885184">
        <ele>56.4</ele>
        <time>2018-09-16T09:21:11Z</time>
      </trkpt>
      <trkpt lat="59.208033" lon="17.885103">
        <ele>56.1</ele>
        <time>2018-09-16T09:21:13Z</time>
      </trkpt>
      <trkpt lat="59.208016" lon="17.885012">
        <ele>55.7</ele>
        <time>2018-09-16T09:21:15Z</time>
      </trkpt>
      <trkpt lat="59.207992" lon="17.884939">
        <ele>55.2</ele>
        <time>2018-09-16T09:21:17Z</time>
      </trkpt>
      <trkpt lat="59.207967" lon="17.884856">
        <ele>54.8</ele>
        <time>2018-09-16T09:21:19Z</time>
      </trkpt>
      <trkpt lat="59.207949" lon="17.884775">
        <ele>54.3</ele>
        <time>2018-09-16T09:21:21Z</time>
      </trkpt>
      <trkpt lat="59.207929" lon="17.884707">
        <ele>54</ele>
        <time>2018-09-16T09:21:23Z</time>
      </trkpt>
      <trkpt lat="59.207899" lon="17.884656">
        <ele>54</ele>
        <time>2018-09-16T09:21:25Z</time>
      </trkpt>
      <trkpt lat="59.207861" lon="17.884614">
        <ele>53.8</ele>
        <time>2018-09-16T09:21:27Z</time>
      </trkpt>
      <trkpt lat="59.207819" lon="17.884576">
        <ele>53.4</ele>
        <time>2018-09-16T09:21:29Z</time>
      </trkpt>
      <trkpt lat="59.207773" lon="17.884551">
        <ele>52.9</ele>
        <time>2018-09-16T09:21:31Z</time>
      </trkpt>
      <trkpt lat="59.207721" lon="17.884535">
        <ele>52.5</ele>
        <time>2018-09-16T09:21:33Z</time>
      </trkpt>
      <trkpt lat="59.207692" lon="17.884521">
        <ele>52.2</ele>
        <time>2018-09-16T09:21:34Z</time>
      </trkpt>
      <trkpt lat="59.207661" lon="17.884504">
        <ele>51.9</ele>
        <time>2018-09-16T09:21:35Z</time>
      </trkpt>
      <trkpt lat="59.207625" lon="17.884483">
        <ele>51.5</ele>
        <time>2018-09-16T09:21:36Z</time>
      </trkpt>
      <trkpt lat="59.207592" lon="17.884468">
        <ele>51.1</ele>
        <time>2018-09-16T09:21:37Z</time>
      </trkpt>
      <trkpt lat="59.207557" lon="17.884457">
        <ele>50.7</ele>
        <time>2018-09-16T09:21:38Z</time>
      </trkpt>
      <trkpt lat="59.207521" lon="17.884449">
        <ele>50.4</ele>
        <time>2018-09-16T09:21:39Z</time>
      </trkpt>
      <trkpt lat="59.20748" lon="17.884444">
        <ele>50</ele>
        <time>2018-09-16T09:21:40Z</time>
      </trkpt>
      <trkpt lat="59.207438" lon="17.884442">
        <ele>49.6</ele>
        <time>2018-09-16T09:21:41Z</time>
      </trkpt>
      <trkpt lat="59.207403" lon="17.884443">
        <ele>49.1</ele>
        <time>2018-09-16T09:21:42Z</time>
      </trkpt>
      <trkpt lat="59.207371" lon="17.884443">
        <ele>48.8</ele>
        <time>2018-09-16T09:21:43Z</time>
      </trkpt>
      <trkpt lat="59.207335" lon="17.884443">
        <ele>48.5</ele>
        <time>2018-09-16T09:21:44Z</time>
      </trkpt>
      <trkpt lat="59.207296" lon="17.884439">
        <ele>48.1</ele>
        <time>2018-09-16T09:21:45Z</time>
      </trkpt>
      <trkpt lat="59.207253" lon="17.884431">
        <ele>47.9</ele>
        <time>2018-09-16T09:21:46Z</time>
      </trkpt>
      <trkpt lat="59.207212" lon="17.884416">
        <ele>47.6</ele>
        <time>2018-09-16T09:21:47Z</time>
      </trkpt>
      <trkpt lat="59.207181" lon="17.884413">
        <ele>47.3</ele>
        <time>2018-09-16T09:21:48Z</time>
      </trkpt>
      <trkpt lat="59.207148" lon="17.884417">
        <ele>47</ele>
        <time>2018-09-16T09:21:49Z</time>
      </trkpt>
      <trkpt lat="59.207111" lon="17.884429">
        <ele>46.6</ele>
        <time>2018-09-16T09:21:50Z</time>
      </trkpt>
      <trkpt lat="59.207076" lon="17.88445">
        <ele>46.3</ele>
        <time>2018-09-16T09:21:51Z</time>
      </trkpt>
      <trkpt lat="59.207042" lon="17.884473">
        <ele>46.2</ele>
        <time>2018-09-16T09:21:52Z</time>
      </trkpt>
      <trkpt lat="59.207013" lon="17.884498">
        <ele>46.1</ele>
        <time>2018-09-16T09:21:53Z</time>
      </trkpt>
      <trkpt lat="59.206985" lon="17.884525">
        <ele>46.2</ele>
        <time>2018-09-16T09:21:54Z</time>
      </trkpt>
      <trkpt lat="59.20696" lon="17.884549">
        <ele>46.2</ele>
        <time>2018-09-16T09:21:55Z</time>
      </trkpt>
      <trkpt lat="59.20692" lon="17.884606">
        <ele>46.1</ele>
        <time>2018-09-16T09:21:57Z</time>
      </trkpt>
      <trkpt lat="59.206901" lon="17.884645">
        <ele>46</ele>
        <time>2018-09-16T09:21:58Z</time>
      </trkpt>
      <trkpt lat="59.20688" lon="17.884693">
        <ele>45.9</ele>
        <time>2018-09-16T09:21:59Z</time>
      </trkpt>
      <trkpt lat="59.20686" lon="17.884747">
        <ele>45.8</ele>
        <time>2018-09-16T09:22:00Z</time>
      </trkpt>
      <trkpt lat="59.206841" lon="17.884805">
        <ele>45.8</ele>
        <time>2018-09-16T09:22:01Z</time>
      </trkpt>
      <trkpt lat="59.206827" lon="17.884862">
        <ele>45.9</ele>
        <time>2018-09-16T09:22:02Z</time>
      </trkpt>
      <trkpt lat="59.206817" lon="17.88492">
        <ele>46</ele>
        <time>2018-09-16T09:22:03Z</time>
      </trkpt>
      <trkpt lat="59.206808" lon="17.884979">
        <ele>46</ele>
        <time>2018-09-16T09:22:04Z</time>
      </trkpt>
      <trkpt lat="59.206799" lon="17.885038">
        <ele>46</ele>
        <time>2018-09-16T09:22:05Z</time>
      </trkpt>
      <trkpt lat="59.206791" lon="17.885095">
        <ele>46</ele>
        <time>2018-09-16T09:22:06Z</time>
      </trkpt>
      <trkpt lat="59.206783" lon="17.885154">
        <ele>46</ele>
        <time>2018-09-16T09:22:07Z</time>
      </trkpt>
      <trkpt lat="59.206777" lon="17.885217">
        <ele>46</ele>
        <time>2018-09-16T09:22:08Z</time>
      </trkpt>
      <trkpt lat="59.206773" lon="17.885283">
        <ele>45.8</ele>
        <time>2018-09-16T09:22:09Z</time>
      </trkpt>
      <trkpt lat="59.206772" lon="17.885348">
        <ele>45.6</ele>
        <time>2018-09-16T09:22:10Z</time>
      </trkpt>
      <trkpt lat="59.206777" lon="17.885419">
        <ele>45.5</ele>
        <time>2018-09-16T09:22:11Z</time>
      </trkpt>
      <trkpt lat="59.206786" lon="17.885495">
        <ele>45.3</ele>
        <time>2018-09-16T09:22:12Z</time>
      </trkpt>
      <trkpt lat="59.206797" lon="17.885576">
        <ele>45.3</ele>
        <time>2018-09-16T09:22:13Z</time>
      </trkpt>
      <trkpt lat="59.206832" lon="17.885675">
        <ele>45.2</ele>
        <time>2018-09-16T09:22:14Z</time>
      </trkpt>
      <trkpt lat="59.206842" lon="17.88578">
        <ele>44.9</ele>
        <time>2018-09-16T09:22:15Z</time>
      </trkpt>
      <trkpt lat="59.206862" lon="17.885876">
        <ele>44.7</ele>
        <time>2018-09-16T09:22:16Z</time>
      </trkpt>
      <trkpt lat="59.206867" lon="17.885957">
        <ele>44.5</ele>
        <time>2018-09-16T09:22:17Z</time>
      </trkpt>
      <trkpt lat="59.206882" lon="17.886053">
        <ele>44.4</ele>
        <time>2018-09-16T09:22:18Z</time>
      </trkpt>
      <trkpt lat="59.206891" lon="17.886138">
        <ele>44.6</ele>
        <time>2018-09-16T09:22:19Z</time>
      </trkpt>
      <trkpt lat="59.206899" lon="17.886215">
        <ele>44.7</ele>
        <time>2018-09-16T09:22:20Z</time>
      </trkpt>
      <trkpt lat="59.206904" lon="17.886301">
        <ele>44.7</ele>
        <time>2018-09-16T09:22:21Z</time>
      </trkpt>
      <trkpt lat="59.206896" lon="17.886418">
        <ele>44.6</ele>
        <time>2018-09-16T09:22:23Z</time>
      </trkpt>
      <trkpt lat="59.206908" lon="17.886498">
        <ele>44.6</ele>
        <time>2018-09-16T09:22:25Z</time>
      </trkpt>
      <trkpt lat="59.206902" lon="17.886571">
        <ele>44.6</ele>
        <time>2018-09-16T09:22:27Z</time>
      </trkpt>
      <trkpt lat="59.206904" lon="17.886629">
        <ele>44.6</ele>
        <time>2018-09-16T09:22:30Z</time>
      </trkpt>
      <trkpt lat="59.206912" lon="17.886683">
        <ele>44.6</ele>
        <time>2018-09-16T09:22:32Z</time>
      </trkpt>
      <trkpt lat="59.206911" lon="17.886758">
        <ele>44.6</ele>
        <time>2018-09-16T09:22:34Z</time>
      </trkpt>
      <trkpt lat="59.206916" lon="17.886835">
        <ele>44.8</ele>
        <time>2018-09-16T09:22:36Z</time>
      </trkpt>
      <trkpt lat="59.206935" lon="17.886903">
        <ele>44.9</ele>
        <time>2018-09-16T09:22:38Z</time>
      </trkpt>
      <trkpt lat="59.206959" lon="17.886963">
        <ele>44.9</ele>
        <time>2018-09-16T09:22:40Z</time>
      </trkpt>
      <trkpt lat="59.206985" lon="17.887029">
        <ele>44.9</ele>
        <time>2018-09-16T09:22:42Z</time>
      </trkpt>
      <trkpt lat="59.207007" lon="17.887107">
        <ele>45.1</ele>
        <time>2018-09-16T09:22:44Z</time>
      </trkpt>
      <trkpt lat="59.207029" lon="17.887177">
        <ele>45.3</ele>
        <time>2018-09-16T09:22:46Z</time>
      </trkpt>
      <trkpt lat="59.207048" lon="17.887256">
        <ele>45.6</ele>
        <time>2018-09-16T09:22:48Z</time>
      </trkpt>
      <trkpt lat="59.207073" lon="17.887342">
        <ele>45.8</ele>
        <time>2018-09-16T09:22:50Z</time>
      </trkpt>
      <trkpt lat="59.207104" lon="17.88742">
        <ele>46.1</ele>
        <time>2018-09-16T09:22:52Z</time>
      </trkpt>
      <trkpt lat="59.207131" lon="17.887499">
        <ele>46.3</ele>
        <time>2018-09-16T09:22:54Z</time>
      </trkpt>
      <trkpt lat="59.207152" lon="17.887585">
        <ele>46.6</ele>
        <time>2018-09-16T09:22:56Z</time>
      </trkpt>
      <trkpt lat="59.207176" lon="17.887666">
        <ele>46.8</ele>
        <time>2018-09-16T09:22:58Z</time>
      </trkpt>
      <trkpt lat="59.207205" lon="17.887742">
        <ele>47</ele>
        <time>2018-09-16T09:23:00Z</time>
      </trkpt>
      <trkpt lat="59.207235" lon="17.887826">
        <ele>47</ele>
        <time>2018-09-16T09:23:02Z</time>
      </trkpt>
      <trkpt lat="59.207263" lon="17.887904">
        <ele>47</ele>
        <time>2018-09-16T09:23:04Z</time>
      </trkpt>
      <trkpt lat="59.207291" lon="17.887998">
        <ele>47.1</ele>
        <time>2018-09-16T09:23:06Z</time>
      </trkpt>
      <trkpt lat="59.207307" lon="17.888052">
        <ele>47.2</ele>
        <time>2018-09-16T09:23:07Z</time>
      </trkpt>
      <trkpt lat="59.207322" lon="17.888114">
        <ele>47.3</ele>
        <time>2018-09-16T09:23:08Z</time>
      </trkpt>
      <trkpt lat="59.207338" lon="17.888184">
        <ele>47.3</ele>
        <time>2018-09-16T09:23:09Z</time>
      </trkpt>
      <trkpt lat="59.207354" lon="17.888255">
        <ele>47.2</ele>
        <time>2018-09-16T09:23:10Z</time>
      </trkpt>
      <trkpt lat="59.207368" lon="17.888325">
        <ele>47.1</ele>
        <time>2018-09-16T09:23:11Z</time>
      </trkpt>
      <trkpt lat="59.20738" lon="17.888403">
        <ele>47</ele>
        <time>2018-09-16T09:23:12Z</time>
      </trkpt>
      <trkpt lat="59.207391" lon="17.888483">
        <ele>47</ele>
        <time>2018-09-16T09:23:13Z</time>
      </trkpt>
      <trkpt lat="59.207408" lon="17.888576">
        <ele>46.8</ele>
        <time>2018-09-16T09:23:14Z</time>
      </trkpt>
      <trkpt lat="59.207418" lon="17.888689">
        <ele>46.6</ele>
        <time>2018-09-16T09:23:15Z</time>
      </trkpt>
      <trkpt lat="59.207428" lon="17.888782">
        <ele>46.4</ele>
        <time>2018-09-16T09:23:16Z</time>
      </trkpt>
      <trkpt lat="59.207463" lon="17.888912">
        <ele>46.1</ele>
        <time>2018-09-16T09:23:17Z</time>
      </trkpt>
      <trkpt lat="59.207481" lon="17.889037">
        <ele>45.8</ele>
        <time>2018-09-16T09:23:18Z</time>
      </trkpt>
      <trkpt lat="59.207501" lon="17.88914">
        <ele>45.7</ele>
        <time>2018-09-16T09:23:19Z</time>
      </trkpt>
      <trkpt lat="59.207521" lon="17.889264">
        <ele>45.2</ele>
        <time>2018-09-16T09:23:20Z</time>
      </trkpt>
      <trkpt lat="59.207565" lon="17.889413">
        <ele>45</ele>
        <time>2018-09-16T09:23:21Z</time>
      </trkpt>
      <trkpt lat="59.207586" lon="17.889541">
        <ele>44.7</ele>
        <time>2018-09-16T09:23:22Z</time>
      </trkpt>
      <trkpt lat="59.207598" lon="17.889674">
        <ele>44.3</ele>
        <time>2018-09-16T09:23:23Z</time>
      </trkpt>
      <trkpt lat="59.20761" lon="17.889808">
        <ele>44.1</ele>
        <time>2018-09-16T09:23:24Z</time>
      </trkpt>
      <trkpt lat="59.207619" lon="17.88993">
        <ele>44</ele>
        <time>2018-09-16T09:23:25Z</time>
      </trkpt>
      <trkpt lat="59.207639" lon="17.890067">
        <ele>43.8</ele>
        <time>2018-09-16T09:23:26Z</time>
      </trkpt>
      <trkpt lat="59.207663" lon="17.890157">
        <ele>43.9</ele>
        <time>2018-09-16T09:23:27Z</time>
      </trkpt>
      <trkpt lat="59.207679" lon="17.890262">
        <ele>44</ele>
        <time>2018-09-16T09:23:28Z</time>
      </trkpt>
      <trkpt lat="59.2077" lon="17.890383">
        <ele>44</ele>
        <time>2018-09-16T09:23:29Z</time>
      </trkpt>
      <trkpt lat="59.207707" lon="17.890498">
        <ele>44</ele>
        <time>2018-09-16T09:23:30Z</time>
      </trkpt>
      <trkpt lat="59.207716" lon="17.890609">
        <ele>44</ele>
        <time>2018-09-16T09:23:31Z</time>
      </trkpt>
      <trkpt lat="59.207725" lon="17.890719">
        <ele>44</ele>
        <time>2018-09-16T09:23:32Z</time>
      </trkpt>
      <trkpt lat="59.207734" lon="17.89083">
        <ele>44</ele>
        <time>2018-09-16T09:23:33Z</time>
      </trkpt>
      <trkpt lat="59.207744" lon="17.890912">
        <ele>43.9</ele>
        <time>2018-09-16T09:23:34Z</time>
      </trkpt>
      <trkpt lat="59.207745" lon="17.891018">
        <ele>43.8</ele>
        <time>2018-09-16T09:23:35Z</time>
      </trkpt>
      <trkpt lat="59.207758" lon="17.891134">
        <ele>43.8</ele>
        <time>2018-09-16T09:23:36Z</time>
      </trkpt>
      <trkpt lat="59.207752" lon="17.891243">
        <ele>43.7</ele>
        <time>2018-09-16T09:23:37Z</time>
      </trkpt>
      <trkpt lat="59.207741" lon="17.891341">
        <ele>43.5</ele>
        <time>2018-09-16T09:23:38Z</time>
      </trkpt>
      <trkpt lat="59.207737" lon="17.891419">
        <ele>43.4</ele>
        <time>2018-09-16T09:23:39Z</time>
      </trkpt>
      <trkpt lat="59.207731" lon="17.891495">
        <ele>43.3</ele>
        <time>2018-09-16T09:23:40Z</time>
      </trkpt>
      <trkpt lat="59.207711" lon="17.891552">
        <ele>43.2</ele>
        <time>2018-09-16T09:23:41Z</time>
      </trkpt>
      <trkpt lat="59.207682" lon="17.891613">
        <ele>43.1</ele>
        <time>2018-09-16T09:23:42Z</time>
      </trkpt>
      <trkpt lat="59.20766" lon="17.891671">
        <ele>42.7</ele>
        <time>2018-09-16T09:23:43Z</time>
      </trkpt>
      <trkpt lat="59.207626" lon="17.89171">
        <ele>42.6</ele>
        <time>2018-09-16T09:23:44Z</time>
      </trkpt>
      <trkpt lat="59.207586" lon="17.891752">
        <ele>42.4</ele>
        <time>2018-09-16T09:23:45Z</time>
      </trkpt>
      <trkpt lat="59.207536" lon="17.891798">
        <ele>42.3</ele>
        <time>2018-09-16T09:23:46Z</time>
      </trkpt>
      <trkpt lat="59.207478" lon="17.891869">
        <ele>42.2</ele>
        <time>2018-09-16T09:23:47Z</time>
      </trkpt>
      <trkpt lat="59.207433" lon="17.891998">
        <ele>42.1</ele>
        <time>2018-09-16T09:23:48Z</time>
      </trkpt>
      <trkpt lat="59.207379" lon="17.892113">
        <ele>41.9</ele>
        <time>2018-09-16T09:23:49Z</time>
      </trkpt>
      <trkpt lat="59.207343" lon="17.892214">
        <ele>41.9</ele>
        <time>2018-09-16T09:23:50Z</time>
      </trkpt>
      <trkpt lat="59.207304" lon="17.892303">
        <ele>41.9</ele>
        <time>2018-09-16T09:23:51Z</time>
      </trkpt>
      <trkpt lat="59.207268" lon="17.892386">
        <ele>41.9</ele>
        <time>2018-09-16T09:23:52Z</time>
      </trkpt>
      <trkpt lat="59.20722" lon="17.892459">
        <ele>42</ele>
        <time>2018-09-16T09:23:53Z</time>
      </trkpt>
      <trkpt lat="59.207207" lon="17.892506">
        <ele>41.6</ele>
        <time>2018-09-16T09:23:55Z</time>
      </trkpt>
      <trkpt lat="59.20718" lon="17.892515">
        <ele>41.3</ele>
        <time>2018-09-16T09:24:00Z</time>
      </trkpt>
      <trkpt lat="59.20716" lon="17.892454">
        <ele>41</ele>
        <time>2018-09-16T09:24:13Z</time>
      </trkpt>
      <trkpt lat="59.207152" lon="17.892399">
        <ele>40.7</ele>
        <time>2018-09-16T09:24:15Z</time>
      </trkpt>
      <trkpt lat="59.207121" lon="17.892336">
        <ele>40.3</ele>
        <time>2018-09-16T09:24:17Z</time>
      </trkpt>
      <trkpt lat="59.207103" lon="17.892277">
        <ele>40</ele>
        <time>2018-09-16T09:24:19Z</time>
      </trkpt>
      <trkpt lat="59.207084" lon="17.892201">
        <ele>39.6</ele>
        <time>2018-09-16T09:24:21Z</time>
      </trkpt>
      <trkpt lat="59.207063" lon="17.892123">
        <ele>39.1</ele>
        <time>2018-09-16T09:24:23Z</time>
      </trkpt>
      <trkpt lat="59.207051" lon="17.892075">
        <ele>38.9</ele>
        <time>2018-09-16T09:24:24Z</time>
      </trkpt>
      <trkpt lat="59.20692" lon="17.891548">
        <ele>36</ele>
        <time>2018-09-16T09:24:32Z</time>
      </trkpt>
      <trkpt lat="59.206905" lon="17.891485">
        <ele>36</ele>
        <time>2018-09-16T09:24:33Z</time>
      </trkpt>
      <trkpt lat="59.206895" lon="17.891419">
        <ele>36</ele>
        <time>2018-09-16T09:24:34Z</time>
      </trkpt>
      <trkpt lat="59.206889" lon="17.89136">
        <ele>35.9</ele>
        <time>2018-09-16T09:24:35Z</time>
      </trkpt>
      <trkpt lat="59.206885" lon="17.891305">
        <ele>35.6</ele>
        <time>2018-09-16T09:24:36Z</time>
      </trkpt>
      <trkpt lat="59.206882" lon="17.891242">
        <ele>35.2</ele>
        <time>2018-09-16T09:24:37Z</time>
      </trkpt>
      <trkpt lat="59.206882" lon="17.891171">
        <ele>34.8</ele>
        <time>2018-09-16T09:24:38Z</time>
      </trkpt>
      <trkpt lat="59.206885" lon="17.891102">
        <ele>34.4</ele>
        <time>2018-09-16T09:24:39Z</time>
      </trkpt>
      <trkpt lat="59.206885" lon="17.891028">
        <ele>33.9</ele>
        <time>2018-09-16T09:24:40Z</time>
      </trkpt>
      <trkpt lat="59.206872" lon="17.890947">
        <ele>33.4</ele>
        <time>2018-09-16T09:24:41Z</time>
      </trkpt>
      <trkpt lat="59.206845" lon="17.890863">
        <ele>32.7</ele>
        <time>2018-09-16T09:24:42Z</time>
      </trkpt>
      <trkpt lat="59.206771" lon="17.890733">
        <ele>31.4</ele>
        <time>2018-09-16T09:24:43Z</time>
      </trkpt>
      <trkpt lat="59.20674" lon="17.890666">
        <ele>30.7</ele>
        <time>2018-09-16T09:24:44Z</time>
      </trkpt>
      <trkpt lat="59.206681" lon="17.890587">
        <ele>29.4</ele>
        <time>2018-09-16T09:24:45Z</time>
      </trkpt>
      <trkpt lat="59.206659" lon="17.890534">
        <ele>28.8</ele>
        <time>2018-09-16T09:24:46Z</time>
      </trkpt>
      <trkpt lat="59.206611" lon="17.890473">
        <ele>27.7</ele>
        <time>2018-09-16T09:24:47Z</time>
      </trkpt>
      <trkpt lat="59.206555" lon="17.890387">
        <ele>26.6</ele>
        <time>2018-09-16T09:24:48Z</time>
      </trkpt>
      <trkpt lat="59.20651" lon="17.890323">
        <ele>25.7</ele>
        <time>2018-09-16T09:24:49Z</time>
      </trkpt>
      <trkpt lat="59.206475" lon="17.890246">
        <ele>24.7</ele>
        <time>2018-09-16T09:24:50Z</time>
      </trkpt>
      <trkpt lat="59.206438" lon="17.890172">
        <ele>23.8</ele>
        <time>2018-09-16T09:24:51Z</time>
      </trkpt>
      <trkpt lat="59.206403" lon="17.890142">
        <ele>23.1</ele>
        <time>2018-09-16T09:24:52Z</time>
      </trkpt>
      <trkpt lat="59.206359" lon="17.890068">
        <ele>22</ele>
        <time>2018-09-16T09:24:53Z</time>
      </trkpt>
      <trkpt lat="59.206387" lon="17.890064">
        <ele>21.7</ele>
        <time>2018-09-16T09:24:54Z</time>
      </trkpt>
      <trkpt lat="59.206367" lon="17.890002">
        <ele>21.4</ele>
        <time>2018-09-16T09:24:56Z</time>
      </trkpt>
      <trkpt lat="59.206392" lon="17.889952">
        <ele>21.4</ele>
        <time>2018-09-16T09:24:58Z</time>
      </trkpt>
      <trkpt lat="59.206433" lon="17.890002">
        <ele>21.6</ele>
        <time>2018-09-16T09:25:00Z</time>
      </trkpt>
      <trkpt lat="59.20647" lon="17.890037">
        <ele>21.8</ele>
        <time>2018-09-16T09:25:02Z</time>
      </trkpt>
      <trkpt lat="59.206506" lon="17.890056">
        <ele>22</ele>
        <time>2018-09-16T09:25:04Z</time>
      </trkpt>
      <trkpt lat="59.206542" lon="17.890062">
        <ele>22</ele>
        <time>2018-09-16T09:25:06Z</time>
      </trkpt>
      <trkpt lat="59.206566" lon="17.890088">
        <ele>22</ele>
        <time>2018-09-16T09:25:12Z</time>
      </trkpt>
      <trkpt lat="59.206571" lon="17.890142">
        <ele>22</ele>
        <time>2018-09-16T09:25:15Z</time>
      </trkpt>
      <trkpt lat="59.20656" lon="17.89009">
        <ele>22.8</ele>
        <time>2018-09-16T09:25:21Z</time>
      </trkpt>
      <trkpt lat="59.206563" lon="17.89015">
        <ele>23.4</ele>
        <time>2018-09-16T09:28:20Z</time>
      </trkpt>
      <trkpt lat="59.206591" lon="17.890197">
        <ele>24</ele>
        <time>2018-09-16T09:28:24Z</time>
      </trkpt>
      <trkpt lat="59.206598" lon="17.890267">
        <ele>24.6</ele>
        <time>2018-09-16T09:28:26Z</time>
      </trkpt>
      <trkpt lat="59.206587" lon="17.890324">
        <ele>25.1</ele>
        <time>2018-09-16T09:28:28Z</time>
      </trkpt>
      <trkpt lat="59.206624" lon="17.89031">
        <ele>25.8</ele>
        <time>2018-09-16T09:28:31Z</time>
      </trkpt>
      <trkpt lat="59.206662" lon="17.890284">
        <ele>26.5</ele>
        <time>2018-09-16T09:28:34Z</time>
      </trkpt>
      <trkpt lat="59.2067" lon="17.890337">
        <ele>27.2</ele>
        <time>2018-09-16T09:28:53Z</time>
      </trkpt>
      <trkpt lat="59.206727" lon="17.89039">
        <ele>27.8</ele>
        <time>2018-09-16T09:28:56Z</time>
      </trkpt>
      <trkpt lat="59.206746" lon="17.890436">
        <ele>28.3</ele>
        <time>2018-09-16T09:28:59Z</time>
      </trkpt>
      <trkpt lat="59.206772" lon="17.890476">
        <ele>28.9</ele>
        <time>2018-09-16T09:29:02Z</time>
      </trkpt>
      <trkpt lat="59.206793" lon="17.890511">
        <ele>29.4</ele>
        <time>2018-09-16T09:29:04Z</time>
      </trkpt>
      <trkpt lat="59.206804" lon="17.890575">
        <ele>30</ele>
        <time>2018-09-16T09:29:08Z</time>
      </trkpt>
      <trkpt lat="59.206809" lon="17.890645">
        <ele>30.7</ele>
        <time>2018-09-16T09:29:12Z</time>
      </trkpt>
      <trkpt lat="59.206812" lon="17.890714">
        <ele>31.1</ele>
        <time>2018-09-16T09:29:16Z</time>
      </trkpt>
      <trkpt lat="59.206815" lon="17.890788">
        <ele>31.6</ele>
        <time>2018-09-16T09:29:20Z</time>
      </trkpt>
      <trkpt lat="59.206807" lon="17.890841">
        <ele>32</ele>
        <time>2018-09-16T09:29:22Z</time>
      </trkpt>
      <trkpt lat="59.206804" lon="17.890895">
        <ele>32.3</ele>
        <time>2018-09-16T09:29:24Z</time>
      </trkpt>
      <trkpt lat="59.206798" lon="17.890957">
        <ele>32.7</ele>
        <time>2018-09-16T09:29:27Z</time>
      </trkpt>
      <trkpt lat="59.20679" lon="17.891014">
        <ele>33.1</ele>
        <time>2018-09-16T09:29:29Z</time>
      </trkpt>
      <trkpt lat="59.206815" lon="17.891052">
        <ele>33.6</ele>
        <time>2018-09-16T09:29:31Z</time>
      </trkpt>
      <trkpt lat="59.206847" lon="17.891072">
        <ele>34</ele>
        <time>2018-09-16T09:29:33Z</time>
      </trkpt>
      <trkpt lat="59.206879" lon="17.891107">
        <ele>34.4</ele>
        <time>2018-09-16T09:29:36Z</time>
      </trkpt>
      <trkpt lat="59.206902" lon="17.891162">
        <ele>34.8</ele>
        <time>2018-09-16T09:29:39Z</time>
      </trkpt>
      <trkpt lat="59.206907" lon="17.891225">
        <ele>35.2</ele>
        <time>2018-09-16T09:29:42Z</time>
      </trkpt>
      <trkpt lat="59.206896" lon="17.8913">
        <ele>35.6</ele>
        <time>2018-09-16T09:29:45Z</time>
      </trkpt>
      <trkpt lat="59.206894" lon="17.891367">
        <ele>36</ele>
        <time>2018-09-16T09:29:48Z</time>
      </trkpt>
      <trkpt lat="59.206888" lon="17.891419">
        <ele>36</ele>
        <time>2018-09-16T09:29:51Z</time>
      </trkpt>
      <trkpt lat="59.206891" lon="17.891473">
        <ele>36</ele>
        <time>2018-09-16T09:29:54Z</time>
      </trkpt>
      <trkpt lat="59.206898" lon="17.891526">
        <ele>36</ele>
        <time>2018-09-16T09:29:57Z</time>
      </trkpt>
      <trkpt lat="59.206923" lon="17.891551">
        <ele>36</ele>
        <time>2018-09-16T09:30:03Z</time>
      </trkpt>
      <trkpt lat="59.206934" lon="17.891602">
        <ele>36</ele>
        <time>2018-09-16T09:30:05Z</time>
      </trkpt>
      <trkpt lat="59.206948" lon="17.891661">
        <ele>36.1</ele>
        <time>2018-09-16T09:30:08Z</time>
      </trkpt>
      <trkpt lat="59.206957" lon="17.891726">
        <ele>36.6</ele>
        <time>2018-09-16T09:30:11Z</time>
      </trkpt>
      <trkpt lat="59.206971" lon="17.8918">
        <ele>37.2</ele>
        <time>2018-09-16T09:30:14Z</time>
      </trkpt>
      <trkpt lat="59.206984" lon="17.89185">
        <ele>37.6</ele>
        <time>2018-09-16T09:30:16Z</time>
      </trkpt>
      <trkpt lat="59.207002" lon="17.891902">
        <ele>38</ele>
        <time>2018-09-16T09:30:19Z</time>
      </trkpt>
      <trkpt lat="59.207017" lon="17.891956">
        <ele>38.3</ele>
        <time>2018-09-16T09:30:22Z</time>
      </trkpt>
      <trkpt lat="59.20703" lon="17.892009">
        <ele>38.6</ele>
        <time>2018-09-16T09:30:25Z</time>
      </trkpt>
      <trkpt lat="59.207043" lon="17.892066">
        <ele>38.9</ele>
        <time>2018-09-16T09:30:28Z</time>
      </trkpt>
      <trkpt lat="59.207049" lon="17.892121">
        <ele>39.2</ele>
        <time>2018-09-16T09:30:31Z</time>
      </trkpt>
      <trkpt lat="59.207072" lon="17.892179">
        <ele>39.5</ele>
        <time>2018-09-16T09:30:34Z</time>
      </trkpt>
      <trkpt lat="59.207093" lon="17.892245">
        <ele>39.9</ele>
        <time>2018-09-16T09:30:37Z</time>
      </trkpt>
      <trkpt lat="59.207112" lon="17.892305">
        <ele>40.2</ele>
        <time>2018-09-16T09:30:40Z</time>
      </trkpt>
      <trkpt lat="59.207131" lon="17.892346">
        <ele>40.5</ele>
        <time>2018-09-16T09:30:45Z</time>
      </trkpt>
      <trkpt lat="59.207142" lon="17.892405">
        <ele>40.8</ele>
        <time>2018-09-16T09:30:49Z</time>
      </trkpt>
      <trkpt lat="59.207152" lon="17.892459">
        <ele>41.1</ele>
        <time>2018-09-16T09:30:52Z</time>
      </trkpt>
      <trkpt lat="59.207161" lon="17.892509">
        <ele>41.4</ele>
        <time>2018-09-16T09:31:00Z</time>
      </trkpt>
      <trkpt lat="59.207177" lon="17.892554">
        <ele>41.6</ele>
        <time>2018-09-16T09:31:06Z</time>
      </trkpt>
      <trkpt lat="59.207196" lon="17.892627">
        <ele>42</ele>
        <time>2018-09-16T09:31:10Z</time>
      </trkpt>
      <trkpt lat="59.207219" lon="17.89269">
        <ele>42</ele>
        <time>2018-09-16T09:31:12Z</time>
      </trkpt>
      <trkpt lat="59.207237" lon="17.892779">
        <ele>42</ele>
        <time>2018-09-16T09:31:14Z</time>
      </trkpt>
      <trkpt lat="59.207238" lon="17.892881">
        <ele>42</ele>
        <time>2018-09-16T09:31:16Z</time>
      </trkpt>
      <trkpt lat="59.207233" lon="17.892968">
        <ele>42</ele>
        <time>2018-09-16T09:31:18Z</time>
      </trkpt>
      <trkpt lat="59.207227" lon="17.893037">
        <ele>42</ele>
        <time>2018-09-16T09:31:20Z</time>
      </trkpt>
      <trkpt lat="59.207229" lon="17.89311">
        <ele>42.1</ele>
        <time>2018-09-16T09:31:22Z</time>
      </trkpt>
      <trkpt lat="59.207234" lon="17.893177">
        <ele>42.4</ele>
        <time>2018-09-16T09:31:24Z</time>
      </trkpt>
      <trkpt lat="59.207237" lon="17.893256">
        <ele>42.6</ele>
        <time>2018-09-16T09:31:26Z</time>
      </trkpt>
      <trkpt lat="59.207239" lon="17.893346">
        <ele>42.9</ele>
        <time>2018-09-16T09:31:28Z</time>
      </trkpt>
      <trkpt lat="59.207242" lon="17.893439">
        <ele>43.2</ele>
        <time>2018-09-16T09:31:30Z</time>
      </trkpt>
      <trkpt lat="59.207246" lon="17.893529">
        <ele>43.4</ele>
        <time>2018-09-16T09:31:32Z</time>
      </trkpt>
      <trkpt lat="59.207249" lon="17.893624">
        <ele>43.6</ele>
        <time>2018-09-16T09:31:34Z</time>
      </trkpt>
      <trkpt lat="59.207255" lon="17.893723">
        <ele>43.9</ele>
        <time>2018-09-16T09:31:36Z</time>
      </trkpt>
      <trkpt lat="59.207259" lon="17.893824">
        <ele>44.1</ele>
        <time>2018-09-16T09:31:38Z</time>
      </trkpt>
      <trkpt lat="59.207264" lon="17.893916">
        <ele>44.3</ele>
        <time>2018-09-16T09:31:40Z</time>
      </trkpt>
      <trkpt lat="59.207281" lon="17.894181">
        <ele>44.9</ele>
        <time>2018-09-16T09:31:47Z</time>
      </trkpt>
      <trkpt lat="59.207245" lon="17.894239">
        <ele>44.1</ele>
        <time>2018-09-16T09:31:49Z</time>
      </trkpt>
      <trkpt lat="59.207202" lon="17.894237">
        <ele>43.8</ele>
        <time>2018-09-16T09:31:51Z</time>
      </trkpt>
      <trkpt lat="59.207161" lon="17.894189">
        <ele>43.4</ele>
        <time>2018-09-16T09:31:53Z</time>
      </trkpt>
      <trkpt lat="59.207121" lon="17.894133">
        <ele>43</ele>
        <time>2018-09-16T09:31:55Z</time>
      </trkpt>
      <trkpt lat="59.207078" lon="17.894099">
        <ele>43</ele>
        <time>2018-09-16T09:31:57Z</time>
      </trkpt>
      <trkpt lat="59.207051" lon="17.894093">
        <ele>43</ele>
        <time>2018-09-16T09:31:58Z</time>
      </trkpt>
      <trkpt lat="59.207007" lon="17.894138">
        <ele>43.2</ele>
        <time>2018-09-16T09:32:00Z</time>
      </trkpt>
      <trkpt lat="59.20699" lon="17.894228">
        <ele>43.4</ele>
        <time>2018-09-16T09:32:02Z</time>
      </trkpt>
      <trkpt lat="59.206982" lon="17.894317">
        <ele>43.7</ele>
        <time>2018-09-16T09:32:04Z</time>
      </trkpt>
      <trkpt lat="59.206979" lon="17.894391">
        <ele>43.9</ele>
        <time>2018-09-16T09:32:06Z</time>
      </trkpt>
      <trkpt lat="59.206972" lon="17.89446">
        <ele>44</ele>
        <time>2018-09-16T09:32:08Z</time>
      </trkpt>
      <trkpt lat="59.206968" lon="17.89454">
        <ele>44.2</ele>
        <time>2018-09-16T09:32:10Z</time>
      </trkpt>
      <trkpt lat="59.206967" lon="17.894611">
        <ele>44.4</ele>
        <time>2018-09-16T09:32:12Z</time>
      </trkpt>
      <trkpt lat="59.206972" lon="17.894678">
        <ele>44.6</ele>
        <time>2018-09-16T09:32:14Z</time>
      </trkpt>
      <trkpt lat="59.206958" lon="17.894753">
        <ele>44.8</ele>
        <time>2018-09-16T09:32:17Z</time>
      </trkpt>
      <trkpt lat="59.206942" lon="17.894816">
        <ele>44.9</ele>
        <time>2018-09-16T09:32:19Z</time>
      </trkpt>
      <trkpt lat="59.206934" lon="17.894877">
        <ele>45.1</ele>
        <time>2018-09-16T09:32:21Z</time>
      </trkpt>
      <trkpt lat="59.206928" lon="17.89494">
        <ele>45.3</ele>
        <time>2018-09-16T09:32:23Z</time>
      </trkpt>
      <trkpt lat="59.206926" lon="17.895014">
        <ele>45.4</ele>
        <time>2018-09-16T09:32:26Z</time>
      </trkpt>
      <trkpt lat="59.206923" lon="17.895085">
        <ele>45.6</ele>
        <time>2018-09-16T09:32:28Z</time>
      </trkpt>
      <trkpt lat="59.20692" lon="17.895162">
        <ele>45.9</ele>
        <time>2018-09-16T09:32:30Z</time>
      </trkpt>
      <trkpt lat="59.20691" lon="17.895254">
        <ele>46.1</ele>
        <time>2018-09-16T09:32:32Z</time>
      </trkpt>
      <trkpt lat="59.2069" lon="17.895337">
        <ele>46.3</ele>
        <time>2018-09-16T09:32:34Z</time>
      </trkpt>
      <trkpt lat="59.206886" lon="17.895429">
        <ele>46.5</ele>
        <time>2018-09-16T09:32:36Z</time>
      </trkpt>
      <trkpt lat="59.206873" lon="17.89552">
        <ele>46.7</ele>
        <time>2018-09-16T09:32:38Z</time>
      </trkpt>
      <trkpt lat="59.206864" lon="17.895588">
        <ele>46.9</ele>
        <time>2018-09-16T09:32:39Z</time>
      </trkpt>
      <trkpt lat="59.206859" lon="17.895652">
        <ele>47</ele>
        <time>2018-09-16T09:32:40Z</time>
      </trkpt>
      <trkpt lat="59.206854" lon="17.895704">
        <ele>47</ele>
        <time>2018-09-16T09:32:41Z</time>
      </trkpt>
      <trkpt lat="59.206843" lon="17.895797">
        <ele>47</ele>
        <time>2018-09-16T09:32:43Z</time>
      </trkpt>
      <trkpt lat="59.206837" lon="17.895855">
        <ele>47</ele>
        <time>2018-09-16T09:32:45Z</time>
      </trkpt>
      <trkpt lat="59.206832" lon="17.895932">
        <ele>47.1</ele>
        <time>2018-09-16T09:32:47Z</time>
      </trkpt>
      <trkpt lat="59.206842" lon="17.896017">
        <ele>47.3</ele>
        <time>2018-09-16T09:32:49Z</time>
      </trkpt>
      <trkpt lat="59.206872" lon="17.896095">
        <ele>47.4</ele>
        <time>2018-09-16T09:32:51Z</time>
      </trkpt>
      <trkpt lat="59.206892" lon="17.896144">
        <ele>47.5</ele>
        <time>2018-09-16T09:32:52Z</time>
      </trkpt>
      <trkpt lat="59.206914" lon="17.896182">
        <ele>47.5</ele>
        <time>2018-09-16T09:32:53Z</time>
      </trkpt>
      <trkpt lat="59.206934" lon="17.89622">
        <ele>47.6</ele>
        <time>2018-09-16T09:32:54Z</time>
      </trkpt>
      <trkpt lat="59.206954" lon="17.896258">
        <ele>47.7</ele>
        <time>2018-09-16T09:32:55Z</time>
      </trkpt>
      <trkpt lat="59.206974" lon="17.896295">
        <ele>47.7</ele>
        <time>2018-09-16T09:32:56Z</time>
      </trkpt>
      <trkpt lat="59.206992" lon="17.896334">
        <ele>47.8</ele>
        <time>2018-09-16T09:32:57Z</time>
      </trkpt>
      <trkpt lat="59.207018" lon="17.896379">
        <ele>47.8</ele>
        <time>2018-09-16T09:32:59Z</time>
      </trkpt>
      <trkpt lat="59.207034" lon="17.896422">
        <ele>47.8</ele>
        <time>2018-09-16T09:33:00Z</time>
      </trkpt>
      <trkpt lat="59.207052" lon="17.896486">
        <ele>47.9</ele>
        <time>2018-09-16T09:33:01Z</time>
      </trkpt>
      <trkpt lat="59.207065" lon="17.896552">
        <ele>48</ele>
        <time>2018-09-16T09:33:02Z</time>
      </trkpt>
      <trkpt lat="59.207075" lon="17.896616">
        <ele>48</ele>
        <time>2018-09-16T09:33:03Z</time>
      </trkpt>
      <trkpt lat="59.207082" lon="17.896677">
        <ele>48</ele>
        <time>2018-09-16T09:33:04Z</time>
      </trkpt>
      <trkpt lat="59.207087" lon="17.896737">
        <ele>48</ele>
        <time>2018-09-16T09:33:05Z</time>
      </trkpt>
      <trkpt lat="59.207085" lon="17.896792">
        <ele>48.1</ele>
        <time>2018-09-16T09:33:06Z</time>
      </trkpt>
      <trkpt lat="59.207077" lon="17.896846">
        <ele>48.3</ele>
        <time>2018-09-16T09:33:07Z</time>
      </trkpt>
      <trkpt lat="59.207066" lon="17.896896">
        <ele>48.4</ele>
        <time>2018-09-16T09:33:08Z</time>
      </trkpt>
      <trkpt lat="59.207046" lon="17.896987">
        <ele>48.7</ele>
        <time>2018-09-16T09:33:10Z</time>
      </trkpt>
      <trkpt lat="59.207033" lon="17.897043">
        <ele>48.8</ele>
        <time>2018-09-16T09:33:11Z</time>
      </trkpt>
      <trkpt lat="59.207019" lon="17.897094">
        <ele>48.9</ele>
        <time>2018-09-16T09:33:12Z</time>
      </trkpt>
      <trkpt lat="59.206994" lon="17.897188">
        <ele>49</ele>
        <time>2018-09-16T09:33:14Z</time>
      </trkpt>
      <trkpt lat="59.206975" lon="17.897272">
        <ele>49.2</ele>
        <time>2018-09-16T09:33:16Z</time>
      </trkpt>
      <trkpt lat="59.206961" lon="17.897355">
        <ele>49.3</ele>
        <time>2018-09-16T09:33:18Z</time>
      </trkpt>
      <trkpt lat="59.20697" lon="17.897453">
        <ele>49.5</ele>
        <time>2018-09-16T09:33:20Z</time>
      </trkpt>
      <trkpt lat="59.20698" lon="17.897504">
        <ele>49.5</ele>
        <time>2018-09-16T09:33:21Z</time>
      </trkpt>
      <trkpt lat="59.206996" lon="17.897548">
        <ele>49.6</ele>
        <time>2018-09-16T09:33:22Z</time>
      </trkpt>
      <trkpt lat="59.207017" lon="17.897637">
        <ele>49</ele>
        <time>2018-09-16T09:33:24Z</time>
      </trkpt>
      <trkpt lat="59.207023" lon="17.897688">
        <ele>48.5</ele>
        <time>2018-09-16T09:33:25Z</time>
      </trkpt>
      <trkpt lat="59.207026" lon="17.897741">
        <ele>48</ele>
        <time>2018-09-16T09:33:26Z</time>
      </trkpt>
      <trkpt lat="59.207032" lon="17.897835">
        <ele>47.4</ele>
        <time>2018-09-16T09:33:28Z</time>
      </trkpt>
      <trkpt lat="59.207048" lon="17.897927">
        <ele>46.9</ele>
        <time>2018-09-16T09:33:30Z</time>
      </trkpt>
      <trkpt lat="59.207061" lon="17.898015">
        <ele>46.5</ele>
        <time>2018-09-16T09:33:32Z</time>
      </trkpt>
      <trkpt lat="59.207074" lon="17.898096">
        <ele>46</ele>
        <time>2018-09-16T09:33:34Z</time>
      </trkpt>
      <trkpt lat="59.207091" lon="17.898167">
        <ele>45.6</ele>
        <time>2018-09-16T09:33:36Z</time>
      </trkpt>
      <trkpt lat="59.207112" lon="17.898246">
        <ele>45.6</ele>
        <time>2018-09-16T09:33:38Z</time>
      </trkpt>
      <trkpt lat="59.20713" lon="17.898301">
        <ele>45.6</ele>
        <time>2018-09-16T09:33:41Z</time>
      </trkpt>
      <trkpt lat="59.207145" lon="17.89835">
        <ele>45.7</ele>
        <time>2018-09-16T09:33:43Z</time>
      </trkpt>
      <trkpt lat="59.207153" lon="17.898402">
        <ele>45.7</ele>
        <time>2018-09-16T09:33:45Z</time>
      </trkpt>
      <trkpt lat="59.207163" lon="17.89833">
        <ele>45.7</ele>
        <time>2018-09-16T09:33:48Z</time>
      </trkpt>
      <trkpt lat="59.207141" lon="17.898365">
        <ele>45.7</ele>
        <time>2018-09-16T09:33:54Z</time>
      </trkpt>
      <trkpt lat="59.207121" lon="17.898435">
        <ele>45.7</ele>
        <time>2018-09-16T09:33:57Z</time>
      </trkpt>
      <trkpt lat="59.207095" lon="17.898499">
        <ele>45.8</ele>
        <time>2018-09-16T09:33:59Z</time>
      </trkpt>
      <trkpt lat="59.207068" lon="17.898561">
        <ele>45.8</ele>
        <time>2018-09-16T09:34:01Z</time>
      </trkpt>
      <trkpt lat="59.207043" lon="17.898651">
        <ele>45.8</ele>
        <time>2018-09-16T09:34:03Z</time>
      </trkpt>
      <trkpt lat="59.207032" lon="17.898701">
        <ele>45.8</ele>
        <time>2018-09-16T09:34:04Z</time>
      </trkpt>
      <trkpt lat="59.207019" lon="17.898752">
        <ele>45.8</ele>
        <time>2018-09-16T09:34:05Z</time>
      </trkpt>
      <trkpt lat="59.207005" lon="17.898797">
        <ele>45.9</ele>
        <time>2018-09-16T09:34:06Z</time>
      </trkpt>
      <trkpt lat="59.206976" lon="17.898885">
        <ele>45.9</ele>
        <time>2018-09-16T09:34:08Z</time>
      </trkpt>
      <trkpt lat="59.206958" lon="17.89893">
        <ele>45.9</ele>
        <time>2018-09-16T09:34:09Z</time>
      </trkpt>
      <trkpt lat="59.206941" lon="17.898971">
        <ele>45.9</ele>
        <time>2018-09-16T09:34:10Z</time>
      </trkpt>
      <trkpt lat="59.206907" lon="17.899048">
        <ele>45.9</ele>
        <time>2018-09-16T09:34:12Z</time>
      </trkpt>
      <trkpt lat="59.206774" lon="17.899259">
        <ele>46</ele>
        <time>2018-09-16T09:34:19Z</time>
      </trkpt>
      <trkpt lat="59.206733" lon="17.89931">
        <ele>46</ele>
        <time>2018-09-16T09:34:21Z</time>
      </trkpt>
      <trkpt lat="59.206696" lon="17.899382">
        <ele>46</ele>
        <time>2018-09-16T09:34:23Z</time>
      </trkpt>
      <trkpt lat="59.20666" lon="17.899451">
        <ele>46</ele>
        <time>2018-09-16T09:34:25Z</time>
      </trkpt>
      <trkpt lat="59.206628" lon="17.899521">
        <ele>46</ele>
        <time>2018-09-16T09:34:27Z</time>
      </trkpt>
      <trkpt lat="59.206627" lon="17.899583">
        <ele>46</ele>
        <time>2018-09-16T09:34:29Z</time>
      </trkpt>
      <trkpt lat="59.206654" lon="17.8996">
        <ele>46</ele>
        <time>2018-09-16T09:34:33Z</time>
      </trkpt>
      <trkpt lat="59.206688" lon="17.899623">
        <ele>46</ele>
        <time>2018-09-16T09:34:41Z</time>
      </trkpt>
      <trkpt lat="59.206728" lon="17.899645">
        <ele>46</ele>
        <time>2018-09-16T09:34:43Z</time>
      </trkpt>
      <trkpt lat="59.206773" lon="17.899657">
        <ele>46</ele>
        <time>2018-09-16T09:34:45Z</time>
      </trkpt>
      <trkpt lat="59.206826" lon="17.899666">
        <ele>46</ele>
        <time>2018-09-16T09:34:47Z</time>
      </trkpt>
      <trkpt lat="59.206865" lon="17.899644">
        <ele>46</ele>
        <time>2018-09-16T09:34:48Z</time>
      </trkpt>
      <trkpt lat="59.206899" lon="17.899609">
        <ele>46</ele>
        <time>2018-09-16T09:34:49Z</time>
      </trkpt>
      <trkpt lat="59.206922" lon="17.899569">
        <ele>46</ele>
        <time>2018-09-16T09:34:50Z</time>
      </trkpt>
      <trkpt lat="59.206947" lon="17.899494">
        <ele>46</ele>
        <time>2018-09-16T09:34:52Z</time>
      </trkpt>
      <trkpt lat="59.206965" lon="17.899425">
        <ele>46</ele>
        <time>2018-09-16T09:34:54Z</time>
      </trkpt>
      <trkpt lat="59.206985" lon="17.899361">
        <ele>46</ele>
        <time>2018-09-16T09:34:56Z</time>
      </trkpt>
      <trkpt lat="59.207009" lon="17.899299">
        <ele>46</ele>
        <time>2018-09-16T09:34:58Z</time>
      </trkpt>
      <trkpt lat="59.207039" lon="17.899234">
        <ele>46</ele>
        <time>2018-09-16T09:35:00Z</time>
      </trkpt>
      <trkpt lat="59.207079" lon="17.899205">
        <ele>46</ele>
        <time>2018-09-16T09:35:02Z</time>
      </trkpt>
      <trkpt lat="59.207117" lon="17.899232">
        <ele>46</ele>
        <time>2018-09-16T09:35:04Z</time>
      </trkpt>
      <trkpt lat="59.207138" lon="17.899301">
        <ele>46</ele>
        <time>2018-09-16T09:35:06Z</time>
      </trkpt>
      <trkpt lat="59.207137" lon="17.899391">
        <ele>46</ele>
        <time>2018-09-16T09:35:08Z</time>
      </trkpt>
      <trkpt lat="59.207128" lon="17.899443">
        <ele>46</ele>
        <time>2018-09-16T09:35:09Z</time>
      </trkpt>
      <trkpt lat="59.207107" lon="17.899537">
        <ele>46</ele>
        <time>2018-09-16T09:35:11Z</time>
      </trkpt>
      <trkpt lat="59.207088" lon="17.899622">
        <ele>46</ele>
        <time>2018-09-16T09:35:13Z</time>
      </trkpt>
      <trkpt lat="59.207075" lon="17.899706">
        <ele>46</ele>
        <time>2018-09-16T09:35:15Z</time>
      </trkpt>
      <trkpt lat="59.207067" lon="17.899791">
        <ele>46.2</ele>
        <time>2018-09-16T09:35:17Z</time>
      </trkpt>
      <trkpt lat="59.207061" lon="17.899845">
        <ele>46.4</ele>
        <time>2018-09-16T09:35:19Z</time>
      </trkpt>
      <trkpt lat="59.207065" lon="17.899913">
        <ele>46.8</ele>
        <time>2018-09-16T09:35:22Z</time>
      </trkpt>
      <trkpt lat="59.207065" lon="17.899972">
        <ele>47</ele>
        <time>2018-09-16T09:35:24Z</time>
      </trkpt>
      <trkpt lat="59.207071" lon="17.900029">
        <ele>47.2</ele>
        <time>2018-09-16T09:35:26Z</time>
      </trkpt>
      <trkpt lat="59.207075" lon="17.900097">
        <ele>47.4</ele>
        <time>2018-09-16T09:35:28Z</time>
      </trkpt>
      <trkpt lat="59.207084" lon="17.900165">
        <ele>47.7</ele>
        <time>2018-09-16T09:35:30Z</time>
      </trkpt>
      <trkpt lat="59.207089" lon="17.900229">
        <ele>48</ele>
        <time>2018-09-16T09:35:32Z</time>
      </trkpt>
      <trkpt lat="59.207095" lon="17.900284">
        <ele>48.1</ele>
        <time>2018-09-16T09:35:34Z</time>
      </trkpt>
      <trkpt lat="59.207109" lon="17.900368">
        <ele>48.4</ele>
        <time>2018-09-16T09:35:36Z</time>
      </trkpt>
      <trkpt lat="59.20712" lon="17.900458">
        <ele>48.5</ele>
        <time>2018-09-16T09:35:38Z</time>
      </trkpt>
      <trkpt lat="59.207131" lon="17.900541">
        <ele>48.7</ele>
        <time>2018-09-16T09:35:40Z</time>
      </trkpt>
      <trkpt lat="59.207146" lon="17.900613">
        <ele>49</ele>
        <time>2018-09-16T09:35:42Z</time>
      </trkpt>
      <trkpt lat="59.207163" lon="17.900674">
        <ele>49.2</ele>
        <time>2018-09-16T09:35:44Z</time>
      </trkpt>
      <trkpt lat="59.20718" lon="17.900719">
        <ele>49.4</ele>
        <time>2018-09-16T09:35:46Z</time>
      </trkpt>
      <trkpt lat="59.207202" lon="17.90076">
        <ele>49.6</ele>
        <time>2018-09-16T09:35:48Z</time>
      </trkpt>
      <trkpt lat="59.207227" lon="17.900794">
        <ele>49.8</ele>
        <time>2018-09-16T09:35:50Z</time>
      </trkpt>
      <trkpt lat="59.207245" lon="17.900845">
        <ele>50</ele>
        <time>2018-09-16T09:35:52Z</time>
      </trkpt>
      <trkpt lat="59.207266" lon="17.900902">
        <ele>50.2</ele>
        <time>2018-09-16T09:35:54Z</time>
      </trkpt>
      <trkpt lat="59.207296" lon="17.900955">
        <ele>50.4</ele>
        <time>2018-09-16T09:35:56Z</time>
      </trkpt>
      <trkpt lat="59.20732" lon="17.901005">
        <ele>50.6</ele>
        <time>2018-09-16T09:35:58Z</time>
      </trkpt>
      <trkpt lat="59.207339" lon="17.901046">
        <ele>50.8</ele>
        <time>2018-09-16T09:36:00Z</time>
      </trkpt>
      <trkpt lat="59.207364" lon="17.901102">
        <ele>51</ele>
        <time>2018-09-16T09:36:03Z</time>
      </trkpt>
      <trkpt lat="59.207375" lon="17.901156">
        <ele>51.1</ele>
        <time>2018-09-16T09:36:05Z</time>
      </trkpt>
      <trkpt lat="59.207391" lon="17.901227">
        <ele>51.3</ele>
        <time>2018-09-16T09:36:07Z</time>
      </trkpt>
      <trkpt lat="59.207406" lon="17.90131">
        <ele>51.4</ele>
        <time>2018-09-16T09:36:09Z</time>
      </trkpt>
      <trkpt lat="59.207417" lon="17.90136">
        <ele>51.5</ele>
        <time>2018-09-16T09:36:10Z</time>
      </trkpt>
      <trkpt lat="59.207433" lon="17.90141">
        <ele>51.6</ele>
        <time>2018-09-16T09:36:11Z</time>
      </trkpt>
      <trkpt lat="59.207449" lon="17.901457">
        <ele>51.8</ele>
        <time>2018-09-16T09:36:12Z</time>
      </trkpt>
      <trkpt lat="59.207481" lon="17.901539">
        <ele>52</ele>
        <time>2018-09-16T09:36:14Z</time>
      </trkpt>
      <trkpt lat="59.207509" lon="17.901617">
        <ele>52.2</ele>
        <time>2018-09-16T09:36:16Z</time>
      </trkpt>
      <trkpt lat="59.20753" lon="17.901699">
        <ele>52.5</ele>
        <time>2018-09-16T09:36:18Z</time>
      </trkpt>
      <trkpt lat="59.207733" lon="17.90205">
        <ele>54</ele>
        <time>2018-09-16T09:36:26Z</time>
      </trkpt>
      <trkpt lat="59.207738" lon="17.902111">
        <ele>54</ele>
        <time>2018-09-16T09:36:27Z</time>
      </trkpt>
      <trkpt lat="59.207743" lon="17.902164">
        <ele>54</ele>
        <time>2018-09-16T09:36:28Z</time>
      </trkpt>
      <trkpt lat="59.207743" lon="17.902255">
        <ele>54</ele>
        <time>2018-09-16T09:36:30Z</time>
      </trkpt>
      <trkpt lat="59.207745" lon="17.902324">
        <ele>54</ele>
        <time>2018-09-16T09:36:32Z</time>
      </trkpt>
      <trkpt lat="59.207753" lon="17.902388">
        <ele>53.9</ele>
        <time>2018-09-16T09:36:34Z</time>
      </trkpt>
      <trkpt lat="59.207767" lon="17.902447">
        <ele>53.7</ele>
        <time>2018-09-16T09:36:36Z</time>
      </trkpt>
      <trkpt lat="59.207782" lon="17.902511">
        <ele>53.4</ele>
        <time>2018-09-16T09:36:38Z</time>
      </trkpt>
      <trkpt lat="59.207798" lon="17.902579">
        <ele>53.1</ele>
        <time>2018-09-16T09:36:40Z</time>
      </trkpt>
      <trkpt lat="59.207814" lon="17.902638">
        <ele>52.8</ele>
        <time>2018-09-16T09:36:42Z</time>
      </trkpt>
      <trkpt lat="59.207826" lon="17.9027">
        <ele>52.5</ele>
        <time>2018-09-16T09:36:44Z</time>
      </trkpt>
      <trkpt lat="59.207836" lon="17.902766">
        <ele>52.3</ele>
        <time>2018-09-16T09:36:46Z</time>
      </trkpt>
      <trkpt lat="59.207852" lon="17.902825">
        <ele>52.1</ele>
        <time>2018-09-16T09:36:48Z</time>
      </trkpt>
      <trkpt lat="59.207866" lon="17.902894">
        <ele>51.8</ele>
        <time>2018-09-16T09:36:51Z</time>
      </trkpt>
      <trkpt lat="59.207871" lon="17.902956">
        <ele>51.5</ele>
        <time>2018-09-16T09:36:53Z</time>
      </trkpt>
      <trkpt lat="59.20788" lon="17.903015">
        <ele>51.3</ele>
        <time>2018-09-16T09:36:55Z</time>
      </trkpt>
      <trkpt lat="59.207898" lon="17.903086">
        <ele>51</ele>
        <time>2018-09-16T09:36:57Z</time>
      </trkpt>
      <trkpt lat="59.207914" lon="17.903134">
        <ele>50.9</ele>
        <time>2018-09-16T09:36:59Z</time>
      </trkpt>
      <trkpt lat="59.207931" lon="17.903204">
        <ele>50.6</ele>
        <time>2018-09-16T09:37:01Z</time>
      </trkpt>
      <trkpt lat="59.207953" lon="17.903287">
        <ele>50.3</ele>
        <time>2018-09-16T09:37:03Z</time>
      </trkpt>
      <trkpt lat="59.207985" lon="17.903381">
        <ele>49.9</ele>
        <time>2018-09-16T09:37:05Z</time>
      </trkpt>
      <trkpt lat="59.208006" lon="17.903434">
        <ele>49.7</ele>
        <time>2018-09-16T09:37:06Z</time>
      </trkpt>
      <trkpt lat="59.208029" lon="17.903488">
        <ele>49.4</ele>
        <time>2018-09-16T09:37:07Z</time>
      </trkpt>
      <trkpt lat="59.20805" lon="17.903538">
        <ele>49.3</ele>
        <time>2018-09-16T09:37:08Z</time>
      </trkpt>
      <trkpt lat="59.208068" lon="17.903581">
        <ele>49</ele>
        <time>2018-09-16T09:37:09Z</time>
      </trkpt>
      <trkpt lat="59.208083" lon="17.903628">
        <ele>49</ele>
        <time>2018-09-16T09:37:10Z</time>
      </trkpt>
      <trkpt lat="59.208092" lon="17.903682">
        <ele>49</ele>
        <time>2018-09-16T09:37:11Z</time>
      </trkpt>
      <trkpt lat="59.208096" lon="17.903783">
        <ele>49</ele>
        <time>2018-09-16T09:37:13Z</time>
      </trkpt>
      <trkpt lat="59.20809" lon="17.903835">
        <ele>49</ele>
        <time>2018-09-16T09:37:14Z</time>
      </trkpt>
      <trkpt lat="59.208083" lon="17.903891">
        <ele>48.9</ele>
        <time>2018-09-16T09:37:15Z</time>
      </trkpt>
      <trkpt lat="59.208076" lon="17.903948">
        <ele>48.8</ele>
        <time>2018-09-16T09:37:16Z</time>
      </trkpt>
      <trkpt lat="59.208071" lon="17.904002">
        <ele>48.8</ele>
        <time>2018-09-16T09:37:17Z</time>
      </trkpt>
      <trkpt lat="59.208069" lon="17.904054">
        <ele>48.9</ele>
        <time>2018-09-16T09:37:18Z</time>
      </trkpt>
      <trkpt lat="59.208067" lon="17.904108">
        <ele>48.8</ele>
        <time>2018-09-16T09:37:19Z</time>
      </trkpt>
      <trkpt lat="59.208055" lon="17.904208">
        <ele>48.6</ele>
        <time>2018-09-16T09:37:21Z</time>
      </trkpt>
      <trkpt lat="59.208046" lon="17.904265">
        <ele>48.6</ele>
        <time>2018-09-16T09:37:22Z</time>
      </trkpt>
      <trkpt lat="59.208042" lon="17.90432">
        <ele>48.6</ele>
        <time>2018-09-16T09:37:23Z</time>
      </trkpt>
      <trkpt lat="59.208038" lon="17.904373">
        <ele>48.6</ele>
        <time>2018-09-16T09:37:24Z</time>
      </trkpt>
      <trkpt lat="59.208032" lon="17.90447">
        <ele>48.4</ele>
        <time>2018-09-16T09:37:26Z</time>
      </trkpt>
      <trkpt lat="59.208027" lon="17.904571">
        <ele>48.2</ele>
        <time>2018-09-16T09:37:28Z</time>
      </trkpt>
      <trkpt lat="59.208021" lon="17.904625">
        <ele>48.1</ele>
        <time>2018-09-16T09:37:29Z</time>
      </trkpt>
      <trkpt lat="59.208017" lon="17.904679">
        <ele>48</ele>
        <time>2018-09-16T09:37:30Z</time>
      </trkpt>
      <trkpt lat="59.208012" lon="17.904731">
        <ele>47.9</ele>
        <time>2018-09-16T09:37:31Z</time>
      </trkpt>
      <trkpt lat="59.208007" lon="17.904786">
        <ele>47.8</ele>
        <time>2018-09-16T09:37:32Z</time>
      </trkpt>
      <trkpt lat="59.208" lon="17.904843">
        <ele>47.7</ele>
        <time>2018-09-16T09:37:33Z</time>
      </trkpt>
      <trkpt lat="59.207997" lon="17.904899">
        <ele>47.6</ele>
        <time>2018-09-16T09:37:34Z</time>
      </trkpt>
      <trkpt lat="59.207995" lon="17.904954">
        <ele>47.5</ele>
        <time>2018-09-16T09:37:35Z</time>
      </trkpt>
      <trkpt lat="59.207987" lon="17.905052">
        <ele>47.4</ele>
        <time>2018-09-16T09:37:37Z</time>
      </trkpt>
      <trkpt lat="59.207981" lon="17.905104">
        <ele>47.3</ele>
        <time>2018-09-16T09:37:38Z</time>
      </trkpt>
      <trkpt lat="59.207973" lon="17.905159">
        <ele>47.3</ele>
        <time>2018-09-16T09:37:39Z</time>
      </trkpt>
      <trkpt lat="59.207963" lon="17.905215">
        <ele>47.2</ele>
        <time>2018-09-16T09:37:40Z</time>
      </trkpt>
      <trkpt lat="59.207954" lon="17.905274">
        <ele>47.2</ele>
        <time>2018-09-16T09:37:41Z</time>
      </trkpt>
      <trkpt lat="59.207945" lon="17.905335">
        <ele>47.2</ele>
        <time>2018-09-16T09:37:42Z</time>
      </trkpt>
      <trkpt lat="59.207931" lon="17.905396">
        <ele>47.2</ele>
        <time>2018-09-16T09:37:43Z</time>
      </trkpt>
      <trkpt lat="59.207913" lon="17.905455">
        <ele>47.2</ele>
        <time>2018-09-16T09:37:44Z</time>
      </trkpt>
      <trkpt lat="59.20789" lon="17.905513">
        <ele>47.2</ele>
        <time>2018-09-16T09:37:45Z</time>
      </trkpt>
      <trkpt lat="59.207865" lon="17.905571">
        <ele>47.1</ele>
        <time>2018-09-16T09:37:46Z</time>
      </trkpt>
      <trkpt lat="59.207845" lon="17.905635">
        <ele>47.1</ele>
        <time>2018-09-16T09:37:47Z</time>
      </trkpt>
      <trkpt lat="59.207835" lon="17.905707">
        <ele>47.1</ele>
        <time>2018-09-16T09:37:48Z</time>
      </trkpt>
      <trkpt lat="59.207834" lon="17.905784">
        <ele>47.1</ele>
        <time>2018-09-16T09:37:49Z</time>
      </trkpt>
      <trkpt lat="59.207844" lon="17.905867">
        <ele>47.4</ele>
        <time>2018-09-16T09:37:50Z</time>
      </trkpt>
      <trkpt lat="59.207863" lon="17.905935">
        <ele>47.6</ele>
        <time>2018-09-16T09:37:51Z</time>
      </trkpt>
      <trkpt lat="59.207885" lon="17.905989">
        <ele>47.8</ele>
        <time>2018-09-16T09:37:52Z</time>
      </trkpt>
      <trkpt lat="59.207906" lon="17.90604">
        <ele>47.9</ele>
        <time>2018-09-16T09:37:53Z</time>
      </trkpt>
      <trkpt lat="59.207928" lon="17.906093">
        <ele>48</ele>
        <time>2018-09-16T09:37:54Z</time>
      </trkpt>
      <trkpt lat="59.207948" lon="17.906157">
        <ele>48.1</ele>
        <time>2018-09-16T09:37:55Z</time>
      </trkpt>
      <trkpt lat="59.207963" lon="17.906205">
        <ele>48.2</ele>
        <time>2018-09-16T09:37:56Z</time>
      </trkpt>
      <trkpt lat="59.207991" lon="17.906272">
        <ele>48.3</ele>
        <time>2018-09-16T09:37:58Z</time>
      </trkpt>
      <trkpt lat="59.208015" lon="17.906313">
        <ele>48.4</ele>
        <time>2018-09-16T09:38:00Z</time>
      </trkpt>
      <trkpt lat="59.208048" lon="17.906353">
        <ele>48.5</ele>
        <time>2018-09-16T09:38:03Z</time>
      </trkpt>
      <trkpt lat="59.208077" lon="17.90641">
        <ele>48.6</ele>
        <time>2018-09-16T09:38:05Z</time>
      </trkpt>
      <trkpt lat="59.208088" lon="17.906483">
        <ele>48.7</ele>
        <time>2018-09-16T09:38:07Z</time>
      </trkpt>
      <trkpt lat="59.208104" lon="17.906533">
        <ele>48.7</ele>
        <time>2018-09-16T09:38:08Z</time>
      </trkpt>
      <trkpt lat="59.208129" lon="17.906602">
        <ele>48.8</ele>
        <time>2018-09-16T09:38:09Z</time>
      </trkpt>
      <trkpt lat="59.208147" lon="17.906655">
        <ele>48.9</ele>
        <time>2018-09-16T09:38:10Z</time>
      </trkpt>
      <trkpt lat="59.208183" lon="17.906717">
        <ele>49</ele>
        <time>2018-09-16T09:38:12Z</time>
      </trkpt>
      <trkpt lat="59.208233" lon="17.906738">
        <ele>49.2</ele>
        <time>2018-09-16T09:38:14Z</time>
      </trkpt>
      <trkpt lat="59.208259" lon="17.906752">
        <ele>49.3</ele>
        <time>2018-09-16T09:38:16Z</time>
      </trkpt>
      <trkpt lat="59.20828" lon="17.906791">
        <ele>49.6</ele>
        <time>2018-09-16T09:38:19Z</time>
      </trkpt>
      <trkpt lat="59.208282" lon="17.906857">
        <ele>49.9</ele>
        <time>2018-09-16T09:38:23Z</time>
      </trkpt>
      <trkpt lat="59.20827" lon="17.906912">
        <ele>50.3</ele>
        <time>2018-09-16T09:38:26Z</time>
      </trkpt>
      <trkpt lat="59.208299" lon="17.906927">
        <ele>50.7</ele>
        <time>2018-09-16T09:38:31Z</time>
      </trkpt>
      <trkpt lat="59.208324" lon="17.906887">
        <ele>51.1</ele>
        <time>2018-09-16T09:38:34Z</time>
      </trkpt>
      <trkpt lat="59.208357" lon="17.906885">
        <ele>51.4</ele>
        <time>2018-09-16T09:38:37Z</time>
      </trkpt>
      <trkpt lat="59.20835" lon="17.90703">
        <ele>52</ele>
        <time>2018-09-16T09:38:54Z</time>
      </trkpt>
      <trkpt lat="59.208352" lon="17.907083">
        <ele>52.3</ele>
        <time>2018-09-16T09:38:57Z</time>
      </trkpt>
      <trkpt lat="59.208352" lon="17.907147">
        <ele>52.7</ele>
        <time>2018-09-16T09:39:10Z</time>
      </trkpt>
      <trkpt lat="59.208371" lon="17.907195">
        <ele>53.2</ele>
        <time>2018-09-16T09:39:12Z</time>
      </trkpt>
      <trkpt lat="59.208392" lon="17.90724">
        <ele>53.6</ele>
        <time>2018-09-16T09:39:15Z</time>
      </trkpt>
      <trkpt lat="59.208405" lon="17.907295">
        <ele>54.1</ele>
        <time>2018-09-16T09:39:19Z</time>
      </trkpt>
      <trkpt lat="59.208433" lon="17.907317">
        <ele>54.5</ele>
        <time>2018-09-16T09:39:22Z</time>
      </trkpt>
      <trkpt lat="59.208454" lon="17.907352">
        <ele>55</ele>
        <time>2018-09-16T09:39:25Z</time>
      </trkpt>
      <trkpt lat="59.208482" lon="17.907392">
        <ele>55.5</ele>
        <time>2018-09-16T09:39:28Z</time>
      </trkpt>
      <trkpt lat="59.208503" lon="17.907441">
        <ele>56.2</ele>
        <time>2018-09-16T09:39:31Z</time>
      </trkpt>
      <trkpt lat="59.208516" lon="17.907507">
        <ele>56.6</ele>
        <time>2018-09-16T09:39:34Z</time>
      </trkpt>
      <trkpt lat="59.208529" lon="17.907554">
        <ele>57</ele>
        <time>2018-09-16T09:39:37Z</time>
      </trkpt>
      <trkpt lat="59.208549" lon="17.907603">
        <ele>57.4</ele>
        <time>2018-09-16T09:39:40Z</time>
      </trkpt>
      <trkpt lat="59.208569" lon="17.907664">
        <ele>58.2</ele>
        <time>2018-09-16T09:39:43Z</time>
      </trkpt>
      <trkpt lat="59.208588" lon="17.907715">
        <ele>58.9</ele>
        <time>2018-09-16T09:39:49Z</time>
      </trkpt>
      <trkpt lat="59.208607" lon="17.907755">
        <ele>59.4</ele>
        <time>2018-09-16T09:39:51Z</time>
      </trkpt>
      <trkpt lat="59.208621" lon="17.907799">
        <ele>59.8</ele>
        <time>2018-09-16T09:39:53Z</time>
      </trkpt>
      <trkpt lat="59.208634" lon="17.907884">
        <ele>60.3</ele>
        <time>2018-09-16T09:39:55Z</time>
      </trkpt>
      <trkpt lat="59.208646" lon="17.907973">
        <ele>60.5</ele>
        <time>2018-09-16T09:39:57Z</time>
      </trkpt>
      <trkpt lat="59.208661" lon="17.908055">
        <ele>60.7</ele>
        <time>2018-09-16T09:39:59Z</time>
      </trkpt>
      <trkpt lat="59.208672" lon="17.908139">
        <ele>60.9</ele>
        <time>2018-09-16T09:40:01Z</time>
      </trkpt>
      <trkpt lat="59.208685" lon="17.908214">
        <ele>61.1</ele>
        <time>2018-09-16T09:40:03Z</time>
      </trkpt>
      <trkpt lat="59.208694" lon="17.908277">
        <ele>61.2</ele>
        <time>2018-09-16T09:40:05Z</time>
      </trkpt>
      <trkpt lat="59.208712" lon="17.908354">
        <ele>61.4</ele>
        <time>2018-09-16T09:40:07Z</time>
      </trkpt>
      <trkpt lat="59.208729" lon="17.908411">
        <ele>61.5</ele>
        <time>2018-09-16T09:40:09Z</time>
      </trkpt>
      <trkpt lat="59.208748" lon="17.908459">
        <ele>61.6</ele>
        <time>2018-09-16T09:40:11Z</time>
      </trkpt>
      <trkpt lat="59.208764" lon="17.908524">
        <ele>61.7</ele>
        <time>2018-09-16T09:40:13Z</time>
      </trkpt>
      <trkpt lat="59.208788" lon="17.908587">
        <ele>61.9</ele>
        <time>2018-09-16T09:40:15Z</time>
      </trkpt>
      <trkpt lat="59.208814" lon="17.908647">
        <ele>62</ele>
        <time>2018-09-16T09:40:17Z</time>
      </trkpt>
      <trkpt lat="59.208841" lon="17.908721">
        <ele>62</ele>
        <time>2018-09-16T09:40:19Z</time>
      </trkpt>
      <trkpt lat="59.208867" lon="17.908783">
        <ele>61.9</ele>
        <time>2018-09-16T09:40:21Z</time>
      </trkpt>
      <trkpt lat="59.208893" lon="17.908847">
        <ele>61.9</ele>
        <time>2018-09-16T09:40:23Z</time>
      </trkpt>
      <trkpt lat="59.208924" lon="17.908892">
        <ele>61.9</ele>
        <time>2018-09-16T09:40:25Z</time>
      </trkpt>
      <trkpt lat="59.208955" lon="17.908941">
        <ele>61.8</ele>
        <time>2018-09-16T09:40:27Z</time>
      </trkpt>
      <trkpt lat="59.208983" lon="17.908999">
        <ele>61.8</ele>
        <time>2018-09-16T09:40:29Z</time>
      </trkpt>
      <trkpt lat="59.209013" lon="17.909049">
        <ele>61.8</ele>
        <time>2018-09-16T09:40:31Z</time>
      </trkpt>
      <trkpt lat="59.209039" lon="17.909062">
        <ele>61.8</ele>
        <time>2018-09-16T09:40:33Z</time>
      </trkpt>
      <trkpt lat="59.209067" lon="17.90905">
        <ele>61.8</ele>
        <time>2018-09-16T09:40:35Z</time>
      </trkpt>
      <trkpt lat="59.209109" lon="17.90904">
        <ele>67.2</ele>
        <time>2018-09-16T09:40:38Z</time>
      </trkpt>
      <trkpt lat="59.209141" lon="17.909071">
        <ele>67.3</ele>
        <time>2018-09-16T09:40:40Z</time>
      </trkpt>
      <trkpt lat="59.209175" lon="17.909114">
        <ele>67.3</ele>
        <time>2018-09-16T09:40:43Z</time>
      </trkpt>
      <trkpt lat="59.209195" lon="17.909153">
        <ele>68</ele>
        <time>2018-09-16T09:40:45Z</time>
      </trkpt>
      <trkpt lat="59.209225" lon="17.909196">
        <ele>68</ele>
        <time>2018-09-16T09:40:47Z</time>
      </trkpt>
      <trkpt lat="59.209252" lon="17.909245">
        <ele>68</ele>
        <time>2018-09-16T09:40:49Z</time>
      </trkpt>
      <trkpt lat="59.209277" lon="17.909291">
        <ele>68</ele>
        <time>2018-09-16T09:40:51Z</time>
      </trkpt>
      <trkpt lat="59.209302" lon="17.909346">
        <ele>68</ele>
        <time>2018-09-16T09:40:53Z</time>
      </trkpt>
      <trkpt lat="59.209328" lon="17.909406">
        <ele>68</ele>
        <time>2018-09-16T09:40:55Z</time>
      </trkpt>
      <trkpt lat="59.20935" lon="17.909466">
        <ele>68</ele>
        <time>2018-09-16T09:40:57Z</time>
      </trkpt>
      <trkpt lat="59.209423" lon="17.909691">
        <ele>68</ele>
        <time>2018-09-16T09:41:05Z</time>
      </trkpt>
      <trkpt lat="59.209455" lon="17.909754">
        <ele>67.9</ele>
        <time>2018-09-16T09:41:07Z</time>
      </trkpt>
      <trkpt lat="59.209489" lon="17.909816">
        <ele>67.8</ele>
        <time>2018-09-16T09:41:09Z</time>
      </trkpt>
      <trkpt lat="59.209516" lon="17.909871">
        <ele>67.7</ele>
        <time>2018-09-16T09:41:11Z</time>
      </trkpt>
      <trkpt lat="59.209546" lon="17.90994">
        <ele>67.5</ele>
        <time>2018-09-16T09:41:13Z</time>
      </trkpt>
      <trkpt lat="59.209576" lon="17.909998">
        <ele>67.4</ele>
        <time>2018-09-16T09:41:15Z</time>
      </trkpt>
      <trkpt lat="59.209598" lon="17.910054">
        <ele>67.3</ele>
        <time>2018-09-16T09:41:17Z</time>
      </trkpt>
      <trkpt lat="59.209621" lon="17.910127">
        <ele>67.1</ele>
        <time>2018-09-16T09:41:19Z</time>
      </trkpt>
      <trkpt lat="59.209644" lon="17.910203">
        <ele>67</ele>
        <time>2018-09-16T09:41:21Z</time>
      </trkpt>
      <trkpt lat="59.209668" lon="17.910261">
        <ele>67.1</ele>
        <time>2018-09-16T09:41:23Z</time>
      </trkpt>
      <trkpt lat="59.209696" lon="17.910319">
        <ele>67.2</ele>
        <time>2018-09-16T09:41:25Z</time>
      </trkpt>
      <trkpt lat="59.209723" lon="17.910373">
        <ele>67.2</ele>
        <time>2018-09-16T09:41:27Z</time>
      </trkpt>
      <trkpt lat="59.209758" lon="17.910406">
        <ele>67.3</ele>
        <time>2018-09-16T09:41:30Z</time>
      </trkpt>
      <trkpt lat="59.209796" lon="17.910387">
        <ele>67.4</ele>
        <time>2018-09-16T09:41:32Z</time>
      </trkpt>
      <trkpt lat="59.20983" lon="17.91042">
        <ele>67.5</ele>
        <time>2018-09-16T09:41:35Z</time>
      </trkpt>
      <trkpt lat="59.209848" lon="17.910488">
        <ele>67.5</ele>
        <time>2018-09-16T09:41:37Z</time>
      </trkpt>
      <trkpt lat="59.209861" lon="17.910566">
        <ele>67.6</ele>
        <time>2018-09-16T09:41:39Z</time>
      </trkpt>
      <trkpt lat="59.209872" lon="17.910634">
        <ele>67.7</ele>
        <time>2018-09-16T09:41:41Z</time>
      </trkpt>
      <trkpt lat="59.209892" lon="17.910693">
        <ele>67.8</ele>
        <time>2018-09-16T09:41:43Z</time>
      </trkpt>
      <trkpt lat="59.20991" lon="17.910761">
        <ele>67.8</ele>
        <time>2018-09-16T09:41:45Z</time>
      </trkpt>
      <trkpt lat="59.20993" lon="17.910843">
        <ele>67.9</ele>
        <time>2018-09-16T09:41:47Z</time>
      </trkpt>
      <trkpt lat="59.209941" lon="17.910933">
        <ele>68.1</ele>
        <time>2018-09-16T09:41:49Z</time>
      </trkpt>
      <trkpt lat="59.209959" lon="17.911019">
        <ele>68.2</ele>
        <time>2018-09-16T09:41:51Z</time>
      </trkpt>
      <trkpt lat="59.20997" lon="17.911068">
        <ele>68.3</ele>
        <time>2018-09-16T09:41:52Z</time>
      </trkpt>
      <trkpt lat="59.209989" lon="17.911148">
        <ele>68.5</ele>
        <time>2018-09-16T09:41:54Z</time>
      </trkpt>
      <trkpt lat="59.210009" lon="17.911212">
        <ele>68.7</ele>
        <time>2018-09-16T09:41:56Z</time>
      </trkpt>
      <trkpt lat="59.210033" lon="17.911286">
        <ele>69</ele>
        <time>2018-09-16T09:41:58Z</time>
      </trkpt>
      <trkpt lat="59.210048" lon="17.911384">
        <ele>69.4</ele>
        <time>2018-09-16T09:42:00Z</time>
      </trkpt>
      <trkpt lat="59.210069" lon="17.911469">
        <ele>69.7</ele>
        <time>2018-09-16T09:42:02Z</time>
      </trkpt>
      <trkpt lat="59.210096" lon="17.911538">
        <ele>70</ele>
        <time>2018-09-16T09:42:04Z</time>
      </trkpt>
      <trkpt lat="59.210123" lon="17.911604">
        <ele>70.3</ele>
        <time>2018-09-16T09:42:06Z</time>
      </trkpt>
      <trkpt lat="59.21015" lon="17.911677">
        <ele>70.5</ele>
        <time>2018-09-16T09:42:08Z</time>
      </trkpt>
      <trkpt lat="59.210173" lon="17.911748">
        <ele>70.7</ele>
        <time>2018-09-16T09:42:10Z</time>
      </trkpt>
      <trkpt lat="59.210197" lon="17.911801">
        <ele>70.8</ele>
        <time>2018-09-16T09:42:12Z</time>
      </trkpt>
      <trkpt lat="59.210227" lon="17.911852">
        <ele>70.9</ele>
        <time>2018-09-16T09:42:14Z</time>
      </trkpt>
      <trkpt lat="59.210252" lon="17.911898">
        <ele>71.1</ele>
        <time>2018-09-16T09:42:16Z</time>
      </trkpt>
      <trkpt lat="59.210281" lon="17.911938">
        <ele>71.4</ele>
        <time>2018-09-16T09:42:18Z</time>
      </trkpt>
      <trkpt lat="59.210309" lon="17.911977">
        <ele>71.7</ele>
        <time>2018-09-16T09:42:20Z</time>
      </trkpt>
      <trkpt lat="59.210336" lon="17.912022">
        <ele>71.9</ele>
        <time>2018-09-16T09:42:22Z</time>
      </trkpt>
      <trkpt lat="59.210378" lon="17.91207">
        <ele>72.3</ele>
        <time>2018-09-16T09:42:24Z</time>
      </trkpt>
      <trkpt lat="59.210416" lon="17.912123">
        <ele>72.6</ele>
        <time>2018-09-16T09:42:26Z</time>
      </trkpt>
      <trkpt lat="59.210456" lon="17.912181">
        <ele>72.9</ele>
        <time>2018-09-16T09:42:28Z</time>
      </trkpt>
      <trkpt lat="59.210499" lon="17.91224">
        <ele>73.2</ele>
        <time>2018-09-16T09:42:30Z</time>
      </trkpt>
      <trkpt lat="59.210531" lon="17.91229">
        <ele>73.4</ele>
        <time>2018-09-16T09:42:32Z</time>
      </trkpt>
      <trkpt lat="59.210565" lon="17.912338">
        <ele>73.6</ele>
        <time>2018-09-16T09:42:34Z</time>
      </trkpt>
      <trkpt lat="59.2106" lon="17.9124">
        <ele>73.8</ele>
        <time>2018-09-16T09:42:36Z</time>
      </trkpt>
      <trkpt lat="59.210633" lon="17.912462">
        <ele>74</ele>
        <time>2018-09-16T09:42:38Z</time>
      </trkpt>
      <trkpt lat="59.210651" lon="17.912504">
        <ele>74.1</ele>
        <time>2018-09-16T09:42:39Z</time>
      </trkpt>
      <trkpt lat="59.210668" lon="17.912551">
        <ele>74.1</ele>
        <time>2018-09-16T09:42:40Z</time>
      </trkpt>
      <trkpt lat="59.210685" lon="17.912607">
        <ele>74.2</ele>
        <time>2018-09-16T09:42:41Z</time>
      </trkpt>
      <trkpt lat="59.210702" lon="17.912666">
        <ele>74.2</ele>
        <time>2018-09-16T09:42:42Z</time>
      </trkpt>
      <trkpt lat="59.21072" lon="17.912724">
        <ele>74.3</ele>
        <time>2018-09-16T09:42:43Z</time>
      </trkpt>
      <trkpt lat="59.21074" lon="17.91278">
        <ele>74.3</ele>
        <time>2018-09-16T09:42:44Z</time>
      </trkpt>
      <trkpt lat="59.210761" lon="17.912831">
        <ele>74.4</ele>
        <time>2018-09-16T09:42:45Z</time>
      </trkpt>
      <trkpt lat="59.210783" lon="17.912886">
        <ele>74.5</ele>
        <time>2018-09-16T09:42:46Z</time>
      </trkpt>
      <trkpt lat="59.210804" lon="17.912944">
        <ele>74.5</ele>
        <time>2018-09-16T09:42:47Z</time>
      </trkpt>
      <trkpt lat="59.210824" lon="17.913007">
        <ele>74.6</ele>
        <time>2018-09-16T09:42:48Z</time>
      </trkpt>
      <trkpt lat="59.210843" lon="17.913074">
        <ele>74.6</ele>
        <time>2018-09-16T09:42:49Z</time>
      </trkpt>
      <trkpt lat="59.210861" lon="17.913137">
        <ele>74.7</ele>
        <time>2018-09-16T09:42:50Z</time>
      </trkpt>
      <trkpt lat="59.210879" lon="17.913198">
        <ele>74.8</ele>
        <time>2018-09-16T09:42:51Z</time>
      </trkpt>
      <trkpt lat="59.210894" lon="17.913255">
        <ele>74.8</ele>
        <time>2018-09-16T09:42:52Z</time>
      </trkpt>
      <trkpt lat="59.210905" lon="17.913309">
        <ele>74.9</ele>
        <time>2018-09-16T09:42:53Z</time>
      </trkpt>
      <trkpt lat="59.210914" lon="17.913361">
        <ele>74.9</ele>
        <time>2018-09-16T09:42:54Z</time>
      </trkpt>
      <trkpt lat="59.210926" lon="17.91341">
        <ele>75</ele>
        <time>2018-09-16T09:42:55Z</time>
      </trkpt>
      <trkpt lat="59.210943" lon="17.913454">
        <ele>75</ele>
        <time>2018-09-16T09:42:56Z</time>
      </trkpt>
      <trkpt lat="59.210977" lon="17.913533">
        <ele>74.8</ele>
        <time>2018-09-16T09:42:58Z</time>
      </trkpt>
      <trkpt lat="59.210995" lon="17.913574">
        <ele>74.7</ele>
        <time>2018-09-16T09:42:59Z</time>
      </trkpt>
      <trkpt lat="59.211015" lon="17.913611">
        <ele>74.6</ele>
        <time>2018-09-16T09:43:00Z</time>
      </trkpt>
      <trkpt lat="59.211037" lon="17.913643">
        <ele>74.4</ele>
        <time>2018-09-16T09:43:01Z</time>
      </trkpt>
      <trkpt lat="59.211078" lon="17.91371">
        <ele>74.2</ele>
        <time>2018-09-16T09:43:03Z</time>
      </trkpt>
      <trkpt lat="59.211101" lon="17.913746">
        <ele>74.1</ele>
        <time>2018-09-16T09:43:04Z</time>
      </trkpt>
      <trkpt lat="59.211124" lon="17.913785">
        <ele>73.9</ele>
        <time>2018-09-16T09:43:05Z</time>
      </trkpt>
      <trkpt lat="59.211147" lon="17.913827">
        <ele>73.8</ele>
        <time>2018-09-16T09:43:06Z</time>
      </trkpt>
      <trkpt lat="59.211169" lon="17.913872">
        <ele>73.5</ele>
        <time>2018-09-16T09:43:07Z</time>
      </trkpt>
      <trkpt lat="59.211192" lon="17.913924">
        <ele>73.2</ele>
        <time>2018-09-16T09:43:08Z</time>
      </trkpt>
      <trkpt lat="59.211215" lon="17.91398">
        <ele>73</ele>
        <time>2018-09-16T09:43:09Z</time>
      </trkpt>
      <trkpt lat="59.211237" lon="17.914034">
        <ele>72.7</ele>
        <time>2018-09-16T09:43:10Z</time>
      </trkpt>
      <trkpt lat="59.211258" lon="17.914092">
        <ele>72.4</ele>
        <time>2018-09-16T09:43:11Z</time>
      </trkpt>
      <trkpt lat="59.211281" lon="17.914147">
        <ele>72.2</ele>
        <time>2018-09-16T09:43:12Z</time>
      </trkpt>
      <trkpt lat="59.211304" lon="17.914203">
        <ele>71.9</ele>
        <time>2018-09-16T09:43:13Z</time>
      </trkpt>
      <trkpt lat="59.211327" lon="17.914249">
        <ele>71.7</ele>
        <time>2018-09-16T09:43:14Z</time>
      </trkpt>
      <trkpt lat="59.211348" lon="17.914298">
        <ele>71.5</ele>
        <time>2018-09-16T09:43:15Z</time>
      </trkpt>
      <trkpt lat="59.211369" lon="17.914344">
        <ele>71.3</ele>
        <time>2018-09-16T09:43:16Z</time>
      </trkpt>
      <trkpt lat="59.211392" lon="17.914387">
        <ele>71.2</ele>
        <time>2018-09-16T09:43:17Z</time>
      </trkpt>
      <trkpt lat="59.211413" lon="17.914426">
        <ele>71</ele>
        <time>2018-09-16T09:43:18Z</time>
      </trkpt>
      <trkpt lat="59.211434" lon="17.914464">
        <ele>70.9</ele>
        <time>2018-09-16T09:43:19Z</time>
      </trkpt>
      <trkpt lat="59.211455" lon="17.914501">
        <ele>70.8</ele>
        <time>2018-09-16T09:43:20Z</time>
      </trkpt>
      <trkpt lat="59.211478" lon="17.914533">
        <ele>70.8</ele>
        <time>2018-09-16T09:43:21Z</time>
      </trkpt>
      <trkpt lat="59.2115" lon="17.914567">
        <ele>70.7</ele>
        <time>2018-09-16T09:43:22Z</time>
      </trkpt>
      <trkpt lat="59.211521" lon="17.914601">
        <ele>70.6</ele>
        <time>2018-09-16T09:43:23Z</time>
      </trkpt>
      <trkpt lat="59.211543" lon="17.914635">
        <ele>70.5</ele>
        <time>2018-09-16T09:43:24Z</time>
      </trkpt>
      <trkpt lat="59.211565" lon="17.91467">
        <ele>70.5</ele>
        <time>2018-09-16T09:43:25Z</time>
      </trkpt>
      <trkpt lat="59.211588" lon="17.914701">
        <ele>70.4</ele>
        <time>2018-09-16T09:43:26Z</time>
      </trkpt>
      <trkpt lat="59.211612" lon="17.914731">
        <ele>70.3</ele>
        <time>2018-09-16T09:43:27Z</time>
      </trkpt>
      <trkpt lat="59.211635" lon="17.914762">
        <ele>70.3</ele>
        <time>2018-09-16T09:43:28Z</time>
      </trkpt>
      <trkpt lat="59.211659" lon="17.914798">
        <ele>70.2</ele>
        <time>2018-09-16T09:43:29Z</time>
      </trkpt>
      <trkpt lat="59.211683" lon="17.914835">
        <ele>70.2</ele>
        <time>2018-09-16T09:43:30Z</time>
      </trkpt>
      <trkpt lat="59.211707" lon="17.914874">
        <ele>70.1</ele>
        <time>2018-09-16T09:43:31Z</time>
      </trkpt>
      <trkpt lat="59.211731" lon="17.914914">
        <ele>70</ele>
        <time>2018-09-16T09:43:32Z</time>
      </trkpt>
      <trkpt lat="59.211756" lon="17.914954">
        <ele>69.8</ele>
        <time>2018-09-16T09:43:33Z</time>
      </trkpt>
      <trkpt lat="59.211782" lon="17.914993">
        <ele>69.6</ele>
        <time>2018-09-16T09:43:34Z</time>
      </trkpt>
      <trkpt lat="59.211808" lon="17.915034">
        <ele>69.3</ele>
        <time>2018-09-16T09:43:35Z</time>
      </trkpt>
      <trkpt lat="59.211835" lon="17.915075">
        <ele>69</ele>
        <time>2018-09-16T09:43:36Z</time>
      </trkpt>
      <trkpt lat="59.211861" lon="17.915119">
        <ele>68.8</ele>
        <time>2018-09-16T09:43:37Z</time>
      </trkpt>
      <trkpt lat="59.211886" lon="17.915162">
        <ele>68.5</ele>
        <time>2018-09-16T09:43:38Z</time>
      </trkpt>
      <trkpt lat="59.211908" lon="17.915204">
        <ele>68.3</ele>
        <time>2018-09-16T09:43:39Z</time>
      </trkpt>
      <trkpt lat="59.211929" lon="17.915244">
        <ele>68.1</ele>
        <time>2018-09-16T09:43:40Z</time>
      </trkpt>
      <trkpt lat="59.211949" lon="17.915285">
        <ele>67.9</ele>
        <time>2018-09-16T09:43:41Z</time>
      </trkpt>
      <trkpt lat="59.211971" lon="17.915331">
        <ele>67.7</ele>
        <time>2018-09-16T09:43:42Z</time>
      </trkpt>
      <trkpt lat="59.211996" lon="17.915379">
        <ele>67.4</ele>
        <time>2018-09-16T09:43:43Z</time>
      </trkpt>
      <trkpt lat="59.212024" lon="17.915424">
        <ele>67.1</ele>
        <time>2018-09-16T09:43:44Z</time>
      </trkpt>
      <trkpt lat="59.212055" lon="17.915467">
        <ele>66.9</ele>
        <time>2018-09-16T09:43:45Z</time>
      </trkpt>
      <trkpt lat="59.212086" lon="17.915516">
        <ele>66.6</ele>
        <time>2018-09-16T09:43:46Z</time>
      </trkpt>
      <trkpt lat="59.212116" lon="17.915568">
        <ele>66.4</ele>
        <time>2018-09-16T09:43:47Z</time>
      </trkpt>
      <trkpt lat="59.212145" lon="17.915623">
        <ele>66.2</ele>
        <time>2018-09-16T09:43:48Z</time>
      </trkpt>
      <trkpt lat="59.212173" lon="17.915676">
        <ele>66</ele>
        <time>2018-09-16T09:43:49Z</time>
      </trkpt>
      <trkpt lat="59.212197" lon="17.915729">
        <ele>65.8</ele>
        <time>2018-09-16T09:43:50Z</time>
      </trkpt>
      <trkpt lat="59.212218" lon="17.915784">
        <ele>65.5</ele>
        <time>2018-09-16T09:43:51Z</time>
      </trkpt>
      <trkpt lat="59.212236" lon="17.915847">
        <ele>65.2</ele>
        <time>2018-09-16T09:43:52Z</time>
      </trkpt>
      <trkpt lat="59.212253" lon="17.91591">
        <ele>65</ele>
        <time>2018-09-16T09:43:53Z</time>
      </trkpt>
      <trkpt lat="59.21227" lon="17.915966">
        <ele>65</ele>
        <time>2018-09-16T09:43:54Z</time>
      </trkpt>
      <trkpt lat="59.212287" lon="17.916012">
        <ele>65</ele>
        <time>2018-09-16T09:43:55Z</time>
      </trkpt>
      <trkpt lat="59.212324" lon="17.916044">
        <ele>65</ele>
        <time>2018-09-16T09:43:57Z</time>
      </trkpt>
      <trkpt lat="59.212366" lon="17.916008">
        <ele>64.9</ele>
        <time>2018-09-16T09:43:59Z</time>
      </trkpt>
      <trkpt lat="59.212389" lon="17.915977">
        <ele>64.8</ele>
        <time>2018-09-16T09:44:00Z</time>
      </trkpt>
      <trkpt lat="59.212437" lon="17.915934">
        <ele>64.7</ele>
        <time>2018-09-16T09:44:02Z</time>
      </trkpt>
      <trkpt lat="59.21249" lon="17.915923">
        <ele>64.5</ele>
        <time>2018-09-16T09:44:04Z</time>
      </trkpt>
      <trkpt lat="59.212525" lon="17.915939">
        <ele>64.4</ele>
        <time>2018-09-16T09:44:06Z</time>
      </trkpt>
      <trkpt lat="59.212545" lon="17.915987">
        <ele>64.2</ele>
        <time>2018-09-16T09:44:08Z</time>
      </trkpt>
      <trkpt lat="59.212557" lon="17.916037">
        <ele>64.1</ele>
        <time>2018-09-16T09:44:10Z</time>
      </trkpt>
      <trkpt lat="59.212548" lon="17.916089">
        <ele>64.1</ele>
        <time>2018-09-16T09:44:15Z</time>
      </trkpt>
      <trkpt lat="59.212553" lon="17.91615">
        <ele>64</ele>
        <time>2018-09-16T09:44:17Z</time>
      </trkpt>
      <trkpt lat="59.212563" lon="17.916234">
        <ele>64</ele>
        <time>2018-09-16T09:44:19Z</time>
      </trkpt>
      <trkpt lat="59.212581" lon="17.91631">
        <ele>63.9</ele>
        <time>2018-09-16T09:44:21Z</time>
      </trkpt>
      <trkpt lat="59.212622" lon="17.916376">
        <ele>63.8</ele>
        <time>2018-09-16T09:44:23Z</time>
      </trkpt>
      <trkpt lat="59.212649" lon="17.916385">
        <ele>63.7</ele>
        <time>2018-09-16T09:44:24Z</time>
      </trkpt>
      <trkpt lat="59.212677" lon="17.916379">
        <ele>63.6</ele>
        <time>2018-09-16T09:44:25Z</time>
      </trkpt>
      <trkpt lat="59.212705" lon="17.916361">
        <ele>63.6</ele>
        <time>2018-09-16T09:44:26Z</time>
      </trkpt>
      <trkpt lat="59.212738" lon="17.916345">
        <ele>63.5</ele>
        <time>2018-09-16T09:44:27Z</time>
      </trkpt>
      <trkpt lat="59.212773" lon="17.916333">
        <ele>63.4</ele>
        <time>2018-09-16T09:44:28Z</time>
      </trkpt>
      <trkpt lat="59.212808" lon="17.916321">
        <ele>63.2</ele>
        <time>2018-09-16T09:44:29Z</time>
      </trkpt>
      <trkpt lat="59.212844" lon="17.916316">
        <ele>63.1</ele>
        <time>2018-09-16T09:44:30Z</time>
      </trkpt>
      <trkpt lat="59.212882" lon="17.916305">
        <ele>62.9</ele>
        <time>2018-09-16T09:44:31Z</time>
      </trkpt>
      <trkpt lat="59.212921" lon="17.916291">
        <ele>62.7</ele>
        <time>2018-09-16T09:44:32Z</time>
      </trkpt>
      <trkpt lat="59.212958" lon="17.916273">
        <ele>62.5</ele>
        <time>2018-09-16T09:44:33Z</time>
      </trkpt>
      <trkpt lat="59.212996" lon="17.916252">
        <ele>62.3</ele>
        <time>2018-09-16T09:44:34Z</time>
      </trkpt>
      <trkpt lat="59.213035" lon="17.916229">
        <ele>62.1</ele>
        <time>2018-09-16T09:44:35Z</time>
      </trkpt>
      <trkpt lat="59.213075" lon="17.916206">
        <ele>61.9</ele>
        <time>2018-09-16T09:44:36Z</time>
      </trkpt>
      <trkpt lat="59.213113" lon="17.916182">
        <ele>61.7</ele>
        <time>2018-09-16T09:44:37Z</time>
      </trkpt>
      <trkpt lat="59.213149" lon="17.91616">
        <ele>61.5</ele>
        <time>2018-09-16T09:44:38Z</time>
      </trkpt>
      <trkpt lat="59.21319" lon="17.916144">
        <ele>61.3</ele>
        <time>2018-09-16T09:44:39Z</time>
      </trkpt>
      <trkpt lat="59.213234" lon="17.916124">
        <ele>61.2</ele>
        <time>2018-09-16T09:44:40Z</time>
      </trkpt>
      <trkpt lat="59.213272" lon="17.916097">
        <ele>61.1</ele>
        <time>2018-09-16T09:44:41Z</time>
      </trkpt>
      <trkpt lat="59.213309" lon="17.916072">
        <ele>60.9</ele>
        <time>2018-09-16T09:44:42Z</time>
      </trkpt>
      <trkpt lat="59.213344" lon="17.916037">
        <ele>60.8</ele>
        <time>2018-09-16T09:44:43Z</time>
      </trkpt>
      <trkpt lat="59.213378" lon="17.916001">
        <ele>60.6</ele>
        <time>2018-09-16T09:44:44Z</time>
      </trkpt>
      <trkpt lat="59.213413" lon="17.915973">
        <ele>60.4</ele>
        <time>2018-09-16T09:44:45Z</time>
      </trkpt>
      <trkpt lat="59.21345" lon="17.915942">
        <ele>60.2</ele>
        <time>2018-09-16T09:44:46Z</time>
      </trkpt>
      <trkpt lat="59.213486" lon="17.915913">
        <ele>60</ele>
        <time>2018-09-16T09:44:47Z</time>
      </trkpt>
      <trkpt lat="59.213521" lon="17.915889">
        <ele>59.8</ele>
        <time>2018-09-16T09:44:48Z</time>
      </trkpt>
      <trkpt lat="59.213556" lon="17.91586">
        <ele>59.6</ele>
        <time>2018-09-16T09:44:49Z</time>
      </trkpt>
      <trkpt lat="59.21359" lon="17.915833">
        <ele>59.4</ele>
        <time>2018-09-16T09:44:50Z</time>
      </trkpt>
      <trkpt lat="59.213623" lon="17.915813">
        <ele>59.3</ele>
        <time>2018-09-16T09:44:51Z</time>
      </trkpt>
      <trkpt lat="59.213655" lon="17.915792">
        <ele>59.1</ele>
        <time>2018-09-16T09:44:52Z</time>
      </trkpt>
      <trkpt lat="59.213688" lon="17.915773">
        <ele>59</ele>
        <time>2018-09-16T09:44:53Z</time>
      </trkpt>
      <trkpt lat="59.213717" lon="17.915761">
        <ele>58.9</ele>
        <time>2018-09-16T09:44:54Z</time>
      </trkpt>
      <trkpt lat="59.213746" lon="17.915747">
        <ele>58.8</ele>
        <time>2018-09-16T09:44:55Z</time>
      </trkpt>
      <trkpt lat="59.213779" lon="17.915724">
        <ele>58.7</ele>
        <time>2018-09-16T09:44:56Z</time>
      </trkpt>
      <trkpt lat="59.213814" lon="17.915695">
        <ele>58.6</ele>
        <time>2018-09-16T09:44:57Z</time>
      </trkpt>
      <trkpt lat="59.213849" lon="17.915664">
        <ele>58.4</ele>
        <time>2018-09-16T09:44:58Z</time>
      </trkpt>
      <trkpt lat="59.213881" lon="17.915636">
        <ele>58.3</ele>
        <time>2018-09-16T09:44:59Z</time>
      </trkpt>
      <trkpt lat="59.213915" lon="17.915613">
        <ele>58.1</ele>
        <time>2018-09-16T09:45:00Z</time>
      </trkpt>
      <trkpt lat="59.213948" lon="17.915596">
        <ele>57.9</ele>
        <time>2018-09-16T09:45:01Z</time>
      </trkpt>
      <trkpt lat="59.213985" lon="17.915575">
        <ele>57.8</ele>
        <time>2018-09-16T09:45:02Z</time>
      </trkpt>
      <trkpt lat="59.214027" lon="17.915545">
        <ele>57.6</ele>
        <time>2018-09-16T09:45:03Z</time>
      </trkpt>
      <trkpt lat="59.214062" lon="17.915514">
        <ele>57.4</ele>
        <time>2018-09-16T09:45:04Z</time>
      </trkpt>
      <trkpt lat="59.214094" lon="17.915485">
        <ele>57.3</ele>
        <time>2018-09-16T09:45:05Z</time>
      </trkpt>
      <trkpt lat="59.214128" lon="17.915457">
        <ele>57.2</ele>
        <time>2018-09-16T09:45:06Z</time>
      </trkpt>
      <trkpt lat="59.214164" lon="17.915429">
        <ele>57</ele>
        <time>2018-09-16T09:45:07Z</time>
      </trkpt>
      <trkpt lat="59.2142" lon="17.915402">
        <ele>56.9</ele>
        <time>2018-09-16T09:45:08Z</time>
      </trkpt>
      <trkpt lat="59.21423" lon="17.915381">
        <ele>56.9</ele>
        <time>2018-09-16T09:45:09Z</time>
      </trkpt>
      <trkpt lat="59.214258" lon="17.915361">
        <ele>56.8</ele>
        <time>2018-09-16T09:45:10Z</time>
      </trkpt>
      <trkpt lat="59.21429" lon="17.915338">
        <ele>56.8</ele>
        <time>2018-09-16T09:45:11Z</time>
      </trkpt>
      <trkpt lat="59.214321" lon="17.915312">
        <ele>56.7</ele>
        <time>2018-09-16T09:45:12Z</time>
      </trkpt>
      <trkpt lat="59.214345" lon="17.915283">
        <ele>56.7</ele>
        <time>2018-09-16T09:45:13Z</time>
      </trkpt>
      <trkpt lat="59.21439" lon="17.915247">
        <ele>56.7</ele>
        <time>2018-09-16T09:45:15Z</time>
      </trkpt>
      <trkpt lat="59.214436" lon="17.915237">
        <ele>56.6</ele>
        <time>2018-09-16T09:45:17Z</time>
      </trkpt>
      <trkpt lat="59.214482" lon="17.915231">
        <ele>56.6</ele>
        <time>2018-09-16T09:45:19Z</time>
      </trkpt>
      <trkpt lat="59.214511" lon="17.915209">
        <ele>56.5</ele>
        <time>2018-09-16T09:45:20Z</time>
      </trkpt>
      <trkpt lat="59.214543" lon="17.91518">
        <ele>56.4</ele>
        <time>2018-09-16T09:45:21Z</time>
      </trkpt>
      <trkpt lat="59.214573" lon="17.915146">
        <ele>56.3</ele>
        <time>2018-09-16T09:45:22Z</time>
      </trkpt>
      <trkpt lat="59.214605" lon="17.915115">
        <ele>56.2</ele>
        <time>2018-09-16T09:45:23Z</time>
      </trkpt>
      <trkpt lat="59.214638" lon="17.915089">
        <ele>56.2</ele>
        <time>2018-09-16T09:45:24Z</time>
      </trkpt>
      <trkpt lat="59.214672" lon="17.915068">
        <ele>56.1</ele>
        <time>2018-09-16T09:45:25Z</time>
      </trkpt>
      <trkpt lat="59.214707" lon="17.915046">
        <ele>56</ele>
        <time>2018-09-16T09:45:26Z</time>
      </trkpt>
      <trkpt lat="59.214916" lon="17.914897">
        <ele>55.2</ele>
        <time>2018-09-16T09:45:33Z</time>
      </trkpt>
      <trkpt lat="59.214943" lon="17.914876">
        <ele>55</ele>
        <time>2018-09-16T09:45:34Z</time>
      </trkpt>
      <trkpt lat="59.214969" lon="17.914857">
        <ele>54.9</ele>
        <time>2018-09-16T09:45:35Z</time>
      </trkpt>
      <trkpt lat="59.214998" lon="17.91483">
        <ele>54.7</ele>
        <time>2018-09-16T09:45:36Z</time>
      </trkpt>
      <trkpt lat="59.21503" lon="17.91479">
        <ele>54.6</ele>
        <time>2018-09-16T09:45:37Z</time>
      </trkpt>
      <trkpt lat="59.21506" lon="17.914747">
        <ele>54.5</ele>
        <time>2018-09-16T09:45:38Z</time>
      </trkpt>
      <trkpt lat="59.215091" lon="17.914707">
        <ele>54.4</ele>
        <time>2018-09-16T09:45:39Z</time>
      </trkpt>
      <trkpt lat="59.215125" lon="17.914667">
        <ele>54.3</ele>
        <time>2018-09-16T09:45:40Z</time>
      </trkpt>
      <trkpt lat="59.215161" lon="17.914632">
        <ele>54.2</ele>
        <time>2018-09-16T09:45:41Z</time>
      </trkpt>
      <trkpt lat="59.215196" lon="17.914598">
        <ele>54.2</ele>
        <time>2018-09-16T09:45:42Z</time>
      </trkpt>
      <trkpt lat="59.215227" lon="17.914564">
        <ele>54.2</ele>
        <time>2018-09-16T09:45:43Z</time>
      </trkpt>
      <trkpt lat="59.215252" lon="17.91453">
        <ele>54.1</ele>
        <time>2018-09-16T09:45:44Z</time>
      </trkpt>
      <trkpt lat="59.215276" lon="17.914495">
        <ele>54.1</ele>
        <time>2018-09-16T09:45:45Z</time>
      </trkpt>
      <trkpt lat="59.2153" lon="17.914456">
        <ele>54.1</ele>
        <time>2018-09-16T09:45:46Z</time>
      </trkpt>
      <trkpt lat="59.215322" lon="17.914414">
        <ele>54</ele>
        <time>2018-09-16T09:45:47Z</time>
      </trkpt>
      <trkpt lat="59.215339" lon="17.914371">
        <ele>54</ele>
        <time>2018-09-16T09:45:48Z</time>
      </trkpt>
      <trkpt lat="59.215373" lon="17.914297">
        <ele>54.1</ele>
        <time>2018-09-16T09:45:50Z</time>
      </trkpt>
      <trkpt lat="59.215408" lon="17.914215">
        <ele>54.2</ele>
        <time>2018-09-16T09:45:52Z</time>
      </trkpt>
      <trkpt lat="59.215421" lon="17.914167">
        <ele>54.3</ele>
        <time>2018-09-16T09:45:53Z</time>
      </trkpt>
      <trkpt lat="59.215427" lon="17.914066">
        <ele>54.4</ele>
        <time>2018-09-16T09:45:55Z</time>
      </trkpt>
      <trkpt lat="59.215428" lon="17.914008">
        <ele>54.4</ele>
        <time>2018-09-16T09:45:56Z</time>
      </trkpt>
      <trkpt lat="59.21543" lon="17.913946">
        <ele>54.5</ele>
        <time>2018-09-16T09:45:57Z</time>
      </trkpt>
      <trkpt lat="59.215431" lon="17.913887">
        <ele>54.5</ele>
        <time>2018-09-16T09:45:58Z</time>
      </trkpt>
      <trkpt lat="59.215432" lon="17.91383">
        <ele>54.6</ele>
        <time>2018-09-16T09:45:59Z</time>
      </trkpt>
      <trkpt lat="59.215436" lon="17.913777">
        <ele>54.7</ele>
        <time>2018-09-16T09:46:00Z</time>
      </trkpt>
      <trkpt lat="59.21545" lon="17.913681">
        <ele>54.8</ele>
        <time>2018-09-16T09:46:02Z</time>
      </trkpt>
      <trkpt lat="59.215459" lon="17.913624">
        <ele>54.9</ele>
        <time>2018-09-16T09:46:03Z</time>
      </trkpt>
      <trkpt lat="59.215469" lon="17.913568">
        <ele>55</ele>
        <time>2018-09-16T09:46:04Z</time>
      </trkpt>
      <trkpt lat="59.215481" lon="17.913516">
        <ele>55.1</ele>
        <time>2018-09-16T09:46:05Z</time>
      </trkpt>
      <trkpt lat="59.215495" lon="17.913465">
        <ele>55.2</ele>
        <time>2018-09-16T09:46:06Z</time>
      </trkpt>
      <trkpt lat="59.21551" lon="17.913411">
        <ele>55.3</ele>
        <time>2018-09-16T09:46:07Z</time>
      </trkpt>
      <trkpt lat="59.215526" lon="17.913355">
        <ele>55.4</ele>
        <time>2018-09-16T09:46:08Z</time>
      </trkpt>
      <trkpt lat="59.21554" lon="17.913297">
        <ele>55.5</ele>
        <time>2018-09-16T09:46:09Z</time>
      </trkpt>
      <trkpt lat="59.21555" lon="17.91324">
        <ele>55.7</ele>
        <time>2018-09-16T09:46:10Z</time>
      </trkpt>
      <trkpt lat="59.215557" lon="17.913184">
        <ele>55.8</ele>
        <time>2018-09-16T09:46:11Z</time>
      </trkpt>
      <trkpt lat="59.215564" lon="17.913131">
        <ele>56</ele>
        <time>2018-09-16T09:46:12Z</time>
      </trkpt>
      <trkpt lat="59.215576" lon="17.913032">
        <ele>55.9</ele>
        <time>2018-09-16T09:46:14Z</time>
      </trkpt>
      <trkpt lat="59.215579" lon="17.912979">
        <ele>55.9</ele>
        <time>2018-09-16T09:46:15Z</time>
      </trkpt>
      <trkpt lat="59.215583" lon="17.91288">
        <ele>55.8</ele>
        <time>2018-09-16T09:46:17Z</time>
      </trkpt>
      <trkpt lat="59.215583" lon="17.9128">
        <ele>55.7</ele>
        <time>2018-09-16T09:46:19Z</time>
      </trkpt>
      <trkpt lat="59.215582" lon="17.912713">
        <ele>55.6</ele>
        <time>2018-09-16T09:46:21Z</time>
      </trkpt>
      <trkpt lat="59.215586" lon="17.912628">
        <ele>55.6</ele>
        <time>2018-09-16T09:46:23Z</time>
      </trkpt>
      <trkpt lat="59.215592" lon="17.912545">
        <ele>55.5</ele>
        <time>2018-09-16T09:46:25Z</time>
      </trkpt>
      <trkpt lat="59.215598" lon="17.912456">
        <ele>55.4</ele>
        <time>2018-09-16T09:46:27Z</time>
      </trkpt>
      <trkpt lat="59.215607" lon="17.912374">
        <ele>55.3</ele>
        <time>2018-09-16T09:46:29Z</time>
      </trkpt>
      <trkpt lat="59.215614" lon="17.912298">
        <ele>55.3</ele>
        <time>2018-09-16T09:46:31Z</time>
      </trkpt>
      <trkpt lat="59.215625" lon="17.912211">
        <ele>55.2</ele>
        <time>2018-09-16T09:46:33Z</time>
      </trkpt>
      <trkpt lat="59.215634" lon="17.912124">
        <ele>55.1</ele>
        <time>2018-09-16T09:46:35Z</time>
      </trkpt>
      <trkpt lat="59.215648" lon="17.912039">
        <ele>55</ele>
        <time>2018-09-16T09:46:37Z</time>
      </trkpt>
      <trkpt lat="59.215663" lon="17.911949">
        <ele>55</ele>
        <time>2018-09-16T09:46:39Z</time>
      </trkpt>
      <trkpt lat="59.215671" lon="17.911848">
        <ele>54.9</ele>
        <time>2018-09-16T09:46:41Z</time>
      </trkpt>
      <trkpt lat="59.215678" lon="17.911794">
        <ele>54.8</ele>
        <time>2018-09-16T09:46:42Z</time>
      </trkpt>
      <trkpt lat="59.215684" lon="17.91174">
        <ele>54.7</ele>
        <time>2018-09-16T09:46:43Z</time>
      </trkpt>
      <trkpt lat="59.215688" lon="17.911685">
        <ele>54.7</ele>
        <time>2018-09-16T09:46:44Z</time>
      </trkpt>
      <trkpt lat="59.215692" lon="17.911581">
        <ele>54.6</ele>
        <time>2018-09-16T09:46:46Z</time>
      </trkpt>
      <trkpt lat="59.215704" lon="17.911478">
        <ele>54.5</ele>
        <time>2018-09-16T09:46:48Z</time>
      </trkpt>
      <trkpt lat="59.215712" lon="17.911379">
        <ele>54.4</ele>
        <time>2018-09-16T09:46:50Z</time>
      </trkpt>
      <trkpt lat="59.215721" lon="17.911278">
        <ele>54.3</ele>
        <time>2018-09-16T09:46:52Z</time>
      </trkpt>
      <trkpt lat="59.215727" lon="17.911176">
        <ele>54.1</ele>
        <time>2018-09-16T09:46:54Z</time>
      </trkpt>
      <trkpt lat="59.215734" lon="17.911079">
        <ele>54</ele>
        <time>2018-09-16T09:46:56Z</time>
      </trkpt>
      <trkpt lat="59.215743" lon="17.910985">
        <ele>53.9</ele>
        <time>2018-09-16T09:46:58Z</time>
      </trkpt>
      <trkpt lat="59.215753" lon="17.910887">
        <ele>53.8</ele>
        <time>2018-09-16T09:47:00Z</time>
      </trkpt>
      <trkpt lat="59.215769" lon="17.910793">
        <ele>53.7</ele>
        <time>2018-09-16T09:47:02Z</time>
      </trkpt>
      <trkpt lat="59.215786" lon="17.910705">
        <ele>53.6</ele>
        <time>2018-09-16T09:47:04Z</time>
      </trkpt>
      <trkpt lat="59.215792" lon="17.910651">
        <ele>53.5</ele>
        <time>2018-09-16T09:47:05Z</time>
      </trkpt>
      <trkpt lat="59.215794" lon="17.910559">
        <ele>53.4</ele>
        <time>2018-09-16T09:47:07Z</time>
      </trkpt>
      <trkpt lat="59.215796" lon="17.910463">
        <ele>53.3</ele>
        <time>2018-09-16T09:47:09Z</time>
      </trkpt>
      <trkpt lat="59.215812" lon="17.910366">
        <ele>53.2</ele>
        <time>2018-09-16T09:47:11Z</time>
      </trkpt>
      <trkpt lat="59.215826" lon="17.910267">
        <ele>53.1</ele>
        <time>2018-09-16T09:47:13Z</time>
      </trkpt>
      <trkpt lat="59.215833" lon="17.910168">
        <ele>53</ele>
        <time>2018-09-16T09:47:15Z</time>
      </trkpt>
      <trkpt lat="59.215837" lon="17.910112">
        <ele>52.9</ele>
        <time>2018-09-16T09:47:16Z</time>
      </trkpt>
      <trkpt lat="59.215842" lon="17.910057">
        <ele>52.8</ele>
        <time>2018-09-16T09:47:17Z</time>
      </trkpt>
      <trkpt lat="59.215846" lon="17.910004">
        <ele>52.8</ele>
        <time>2018-09-16T09:47:18Z</time>
      </trkpt>
      <trkpt lat="59.215856" lon="17.909902">
        <ele>52.6</ele>
        <time>2018-09-16T09:47:20Z</time>
      </trkpt>
      <trkpt lat="59.215859" lon="17.909849">
        <ele>52.6</ele>
        <time>2018-09-16T09:47:21Z</time>
      </trkpt>
      <trkpt lat="59.215868" lon="17.909747">
        <ele>52.5</ele>
        <time>2018-09-16T09:47:23Z</time>
      </trkpt>
      <trkpt lat="59.215872" lon="17.909694">
        <ele>52.4</ele>
        <time>2018-09-16T09:47:24Z</time>
      </trkpt>
      <trkpt lat="59.215876" lon="17.909642">
        <ele>52.3</ele>
        <time>2018-09-16T09:47:25Z</time>
      </trkpt>
      <trkpt lat="59.215878" lon="17.909587">
        <ele>52.2</ele>
        <time>2018-09-16T09:47:26Z</time>
      </trkpt>
      <trkpt lat="59.215879" lon="17.909533">
        <ele>52.1</ele>
        <time>2018-09-16T09:47:27Z</time>
      </trkpt>
      <trkpt lat="59.215882" lon="17.909434">
        <ele>51.9</ele>
        <time>2018-09-16T09:47:29Z</time>
      </trkpt>
      <trkpt lat="59.215886" lon="17.909341">
        <ele>51.7</ele>
        <time>2018-09-16T09:47:31Z</time>
      </trkpt>
      <trkpt lat="59.215889" lon="17.909255">
        <ele>51.6</ele>
        <time>2018-09-16T09:47:33Z</time>
      </trkpt>
      <trkpt lat="59.215892" lon="17.909167">
        <ele>51.4</ele>
        <time>2018-09-16T09:47:35Z</time>
      </trkpt>
      <trkpt lat="59.215894" lon="17.909072">
        <ele>51.2</ele>
        <time>2018-09-16T09:47:37Z</time>
      </trkpt>
      <trkpt lat="59.215896" lon="17.909018">
        <ele>51.1</ele>
        <time>2018-09-16T09:47:38Z</time>
      </trkpt>
      <trkpt lat="59.215899" lon="17.908964">
        <ele>51</ele>
        <time>2018-09-16T09:47:39Z</time>
      </trkpt>
      <trkpt lat="59.2159" lon="17.908885">
        <ele>51.1</ele>
        <time>2018-09-16T09:47:41Z</time>
      </trkpt>
      <trkpt lat="59.215904" lon="17.9088">
        <ele>51.3</ele>
        <time>2018-09-16T09:47:43Z</time>
      </trkpt>
      <trkpt lat="59.215908" lon="17.908711">
        <ele>51.4</ele>
        <time>2018-09-16T09:47:45Z</time>
      </trkpt>
      <trkpt lat="59.215899" lon="17.908621">
        <ele>51.6</ele>
        <time>2018-09-16T09:47:47Z</time>
      </trkpt>
      <trkpt lat="59.215888" lon="17.90854">
        <ele>51.8</ele>
        <time>2018-09-16T09:47:49Z</time>
      </trkpt>
      <trkpt lat="59.215888" lon="17.908462">
        <ele>51.9</ele>
        <time>2018-09-16T09:47:51Z</time>
      </trkpt>
      <trkpt lat="59.215895" lon="17.908381">
        <ele>52.1</ele>
        <time>2018-09-16T09:47:53Z</time>
      </trkpt>
      <trkpt lat="59.215902" lon="17.908315">
        <ele>52.2</ele>
        <time>2018-09-16T09:47:55Z</time>
      </trkpt>
      <trkpt lat="59.215907" lon="17.908249">
        <ele>52.4</ele>
        <time>2018-09-16T09:47:57Z</time>
      </trkpt>
      <trkpt lat="59.215906" lon="17.908169">
        <ele>52.6</ele>
        <time>2018-09-16T09:47:59Z</time>
      </trkpt>
      <trkpt lat="59.215903" lon="17.908085">
        <ele>52.7</ele>
        <time>2018-09-16T09:48:01Z</time>
      </trkpt>
      <trkpt lat="59.215903" lon="17.907995">
        <ele>52.9</ele>
        <time>2018-09-16T09:48:03Z</time>
      </trkpt>
      <trkpt lat="59.215903" lon="17.907906">
        <ele>53.1</ele>
        <time>2018-09-16T09:48:05Z</time>
      </trkpt>
      <trkpt lat="59.215902" lon="17.90784">
        <ele>53.2</ele>
        <time>2018-09-16T09:48:07Z</time>
      </trkpt>
      <trkpt lat="59.215903" lon="17.907763">
        <ele>53.5</ele>
        <time>2018-09-16T09:48:09Z</time>
      </trkpt>
      <trkpt lat="59.215905" lon="17.907671">
        <ele>53.8</ele>
        <time>2018-09-16T09:48:11Z</time>
      </trkpt>
      <trkpt lat="59.215915" lon="17.907573">
        <ele>54.2</ele>
        <time>2018-09-16T09:48:13Z</time>
      </trkpt>
      <trkpt lat="59.215927" lon="17.907523">
        <ele>54.5</ele>
        <time>2018-09-16T09:48:14Z</time>
      </trkpt>
      <trkpt lat="59.215944" lon="17.907446">
        <ele>54.8</ele>
        <time>2018-09-16T09:48:16Z</time>
      </trkpt>
      <trkpt lat="59.215975" lon="17.90738">
        <ele>55</ele>
        <time>2018-09-16T09:48:18Z</time>
      </trkpt>
      <trkpt lat="59.21601" lon="17.907317">
        <ele>55.3</ele>
        <time>2018-09-16T09:48:20Z</time>
      </trkpt>
      <trkpt lat="59.216051" lon="17.907255">
        <ele>55.5</ele>
        <time>2018-09-16T09:48:22Z</time>
      </trkpt>
      <trkpt lat="59.21609" lon="17.907185">
        <ele>55.7</ele>
        <time>2018-09-16T09:48:24Z</time>
      </trkpt>
      <trkpt lat="59.216129" lon="17.907121">
        <ele>56</ele>
        <time>2018-09-16T09:48:26Z</time>
      </trkpt>
      <trkpt lat="59.216171" lon="17.907056">
        <ele>56.2</ele>
        <time>2018-09-16T09:48:28Z</time>
      </trkpt>
      <trkpt lat="59.216193" lon="17.907022">
        <ele>56.4</ele>
        <time>2018-09-16T09:48:29Z</time>
      </trkpt>
      <trkpt lat="59.216216" lon="17.906983">
        <ele>56.6</ele>
        <time>2018-09-16T09:48:30Z</time>
      </trkpt>
      <trkpt lat="59.216244" lon="17.906931">
        <ele>56.8</ele>
        <time>2018-09-16T09:48:31Z</time>
      </trkpt>
      <trkpt lat="59.216273" lon="17.906884">
        <ele>57.1</ele>
        <time>2018-09-16T09:48:32Z</time>
      </trkpt>
      <trkpt lat="59.216297" lon="17.906844">
        <ele>57.2</ele>
        <time>2018-09-16T09:48:33Z</time>
      </trkpt>
      <trkpt lat="59.216321" lon="17.9068">
        <ele>57.4</ele>
        <time>2018-09-16T09:48:34Z</time>
      </trkpt>
      <trkpt lat="59.216341" lon="17.906753">
        <ele>57.6</ele>
        <time>2018-09-16T09:48:35Z</time>
      </trkpt>
      <trkpt lat="59.216359" lon="17.906711">
        <ele>57.9</ele>
        <time>2018-09-16T09:48:36Z</time>
      </trkpt>
      <trkpt lat="59.216378" lon="17.906667">
        <ele>58.1</ele>
        <time>2018-09-16T09:48:37Z</time>
      </trkpt>
      <trkpt lat="59.216397" lon="17.90662">
        <ele>58.3</ele>
        <time>2018-09-16T09:48:38Z</time>
      </trkpt>
      <trkpt lat="59.216416" lon="17.906582">
        <ele>58.6</ele>
        <time>2018-09-16T09:48:39Z</time>
      </trkpt>
      <trkpt lat="59.216456" lon="17.906536">
        <ele>58.9</ele>
        <time>2018-09-16T09:48:41Z</time>
      </trkpt>
      <trkpt lat="59.216489" lon="17.906494">
        <ele>58.8</ele>
        <time>2018-09-16T09:48:43Z</time>
      </trkpt>
      <trkpt lat="59.216512" lon="17.906423">
        <ele>58.1</ele>
        <time>2018-09-16T09:48:45Z</time>
      </trkpt>
      <trkpt lat="59.216537" lon="17.906344">
        <ele>57.4</ele>
        <time>2018-09-16T09:48:47Z</time>
      </trkpt>
      <trkpt lat="59.21656" lon="17.906264">
        <ele>56.7</ele>
        <time>2018-09-16T09:48:49Z</time>
      </trkpt>
      <trkpt lat="59.216577" lon="17.906162">
        <ele>55.9</ele>
        <time>2018-09-16T09:48:51Z</time>
      </trkpt>
      <trkpt lat="59.216583" lon="17.906104">
        <ele>55.4</ele>
        <time>2018-09-16T09:48:52Z</time>
      </trkpt>
      <trkpt lat="59.216588" lon="17.90604">
        <ele>54.9</ele>
        <time>2018-09-16T09:48:53Z</time>
      </trkpt>
      <trkpt lat="59.216594" lon="17.905977">
        <ele>54.4</ele>
        <time>2018-09-16T09:48:54Z</time>
      </trkpt>
      <trkpt lat="59.216601" lon="17.905916">
        <ele>53.9</ele>
        <time>2018-09-16T09:48:55Z</time>
      </trkpt>
      <trkpt lat="59.216608" lon="17.90586">
        <ele>53.5</ele>
        <time>2018-09-16T09:48:56Z</time>
      </trkpt>
      <trkpt lat="59.216617" lon="17.905807">
        <ele>53.1</ele>
        <time>2018-09-16T09:48:57Z</time>
      </trkpt>
      <trkpt lat="59.216625" lon="17.905753">
        <ele>52.7</ele>
        <time>2018-09-16T09:48:58Z</time>
      </trkpt>
      <trkpt lat="59.216635" lon="17.905698">
        <ele>52.3</ele>
        <time>2018-09-16T09:48:59Z</time>
      </trkpt>
      <trkpt lat="59.216643" lon="17.905643">
        <ele>51.9</ele>
        <time>2018-09-16T09:49:00Z</time>
      </trkpt>
      <trkpt lat="59.216655" lon="17.905542">
        <ele>51.1</ele>
        <time>2018-09-16T09:49:02Z</time>
      </trkpt>
      <trkpt lat="59.216655" lon="17.905446">
        <ele>50.5</ele>
        <time>2018-09-16T09:49:04Z</time>
      </trkpt>
      <trkpt lat="59.21667" lon="17.905399">
        <ele>50.1</ele>
        <time>2018-09-16T09:49:05Z</time>
      </trkpt>
      <trkpt lat="59.216682" lon="17.90535">
        <ele>49.7</ele>
        <time>2018-09-16T09:49:06Z</time>
      </trkpt>
      <trkpt lat="59.216707" lon="17.905251">
        <ele>49</ele>
        <time>2018-09-16T09:49:08Z</time>
      </trkpt>
      <trkpt lat="59.216718" lon="17.905196">
        <ele>48.6</ele>
        <time>2018-09-16T09:49:09Z</time>
      </trkpt>
      <trkpt lat="59.216728" lon="17.905136">
        <ele>48.1</ele>
        <time>2018-09-16T09:49:10Z</time>
      </trkpt>
      <trkpt lat="59.216739" lon="17.905074">
        <ele>47.7</ele>
        <time>2018-09-16T09:49:11Z</time>
      </trkpt>
      <trkpt lat="59.216748" lon="17.905013">
        <ele>47.3</ele>
        <time>2018-09-16T09:49:12Z</time>
      </trkpt>
      <trkpt lat="59.216756" lon="17.904956">
        <ele>46.9</ele>
        <time>2018-09-16T09:49:13Z</time>
      </trkpt>
      <trkpt lat="59.216763" lon="17.904899">
        <ele>46.5</ele>
        <time>2018-09-16T09:49:14Z</time>
      </trkpt>
      <trkpt lat="59.21678" lon="17.90482">
        <ele>46</ele>
        <time>2018-09-16T09:49:16Z</time>
      </trkpt>
      <trkpt lat="59.216838" lon="17.904806">
        <ele>46</ele>
        <time>2018-09-16T09:49:18Z</time>
      </trkpt>
      <trkpt lat="59.216875" lon="17.904829">
        <ele>46</ele>
        <time>2018-09-16T09:49:19Z</time>
      </trkpt>
      <trkpt lat="59.216908" lon="17.904858">
        <ele>46</ele>
        <time>2018-09-16T09:49:20Z</time>
      </trkpt>
      <trkpt lat="59.216939" lon="17.904889">
        <ele>46</ele>
        <time>2018-09-16T09:49:21Z</time>
      </trkpt>
      <trkpt lat="59.21697" lon="17.904919">
        <ele>46</ele>
        <time>2018-09-16T09:49:22Z</time>
      </trkpt>
      <trkpt lat="59.217" lon="17.904946">
        <ele>46</ele>
        <time>2018-09-16T09:49:23Z</time>
      </trkpt>
      <trkpt lat="59.217029" lon="17.904972">
        <ele>46.3</ele>
        <time>2018-09-16T09:49:24Z</time>
      </trkpt>
      <trkpt lat="59.217062" lon="17.904993">
        <ele>46.5</ele>
        <time>2018-09-16T09:49:25Z</time>
      </trkpt>
      <trkpt lat="59.217098" lon="17.905011">
        <ele>46.8</ele>
        <time>2018-09-16T09:49:26Z</time>
      </trkpt>
      <trkpt lat="59.217135" lon="17.905027">
        <ele>47.1</ele>
        <time>2018-09-16T09:49:27Z</time>
      </trkpt>
      <trkpt lat="59.21717" lon="17.905043">
        <ele>47.4</ele>
        <time>2018-09-16T09:49:28Z</time>
      </trkpt>
      <trkpt lat="59.217205" lon="17.905059">
        <ele>47.6</ele>
        <time>2018-09-16T09:49:29Z</time>
      </trkpt>
      <trkpt lat="59.217241" lon="17.905075">
        <ele>47.9</ele>
        <time>2018-09-16T09:49:30Z</time>
      </trkpt>
      <trkpt lat="59.217278" lon="17.905089">
        <ele>48.2</ele>
        <time>2018-09-16T09:49:31Z</time>
      </trkpt>
      <trkpt lat="59.217313" lon="17.905106">
        <ele>48.5</ele>
        <time>2018-09-16T09:49:32Z</time>
      </trkpt>
      <trkpt lat="59.217347" lon="17.905128">
        <ele>48.7</ele>
        <time>2018-09-16T09:49:33Z</time>
      </trkpt>
      <trkpt lat="59.21738" lon="17.905155">
        <ele>49</ele>
        <time>2018-09-16T09:49:34Z</time>
      </trkpt>
      <trkpt lat="59.217412" lon="17.90518">
        <ele>48.9</ele>
        <time>2018-09-16T09:49:35Z</time>
      </trkpt>
      <trkpt lat="59.217446" lon="17.905209">
        <ele>48.8</ele>
        <time>2018-09-16T09:49:36Z</time>
      </trkpt>
      <trkpt lat="59.217477" lon="17.905241">
        <ele>48.8</ele>
        <time>2018-09-16T09:49:37Z</time>
      </trkpt>
      <trkpt lat="59.217503" lon="17.905278">
        <ele>48.7</ele>
        <time>2018-09-16T09:49:38Z</time>
      </trkpt>
      <trkpt lat="59.217524" lon="17.905321">
        <ele>48.6</ele>
        <time>2018-09-16T09:49:39Z</time>
      </trkpt>
      <trkpt lat="59.217543" lon="17.905372">
        <ele>48.5</ele>
        <time>2018-09-16T09:49:40Z</time>
      </trkpt>
      <trkpt lat="59.217561" lon="17.905431">
        <ele>48.4</ele>
        <time>2018-09-16T09:49:41Z</time>
      </trkpt>
      <trkpt lat="59.217583" lon="17.905493">
        <ele>48.3</ele>
        <time>2018-09-16T09:49:42Z</time>
      </trkpt>
      <trkpt lat="59.217607" lon="17.905551">
        <ele>48.2</ele>
        <time>2018-09-16T09:49:43Z</time>
      </trkpt>
      <trkpt lat="59.21763" lon="17.905607">
        <ele>48.1</ele>
        <time>2018-09-16T09:49:44Z</time>
      </trkpt>
      <trkpt lat="59.217651" lon="17.905663">
        <ele>48</ele>
        <time>2018-09-16T09:49:45Z</time>
      </trkpt>
      <trkpt lat="59.217668" lon="17.90572">
        <ele>47.9</ele>
        <time>2018-09-16T09:49:46Z</time>
      </trkpt>
      <trkpt lat="59.217686" lon="17.905776">
        <ele>47.8</ele>
        <time>2018-09-16T09:49:47Z</time>
      </trkpt>
      <trkpt lat="59.217703" lon="17.905826">
        <ele>47.6</ele>
        <time>2018-09-16T09:49:48Z</time>
      </trkpt>
      <trkpt lat="59.217717" lon="17.905873">
        <ele>47.5</ele>
        <time>2018-09-16T09:49:49Z</time>
      </trkpt>
      <trkpt lat="59.217732" lon="17.905928">
        <ele>47.4</ele>
        <time>2018-09-16T09:49:50Z</time>
      </trkpt>
      <trkpt lat="59.217748" lon="17.905986">
        <ele>47.2</ele>
        <time>2018-09-16T09:49:51Z</time>
      </trkpt>
      <trkpt lat="59.217763" lon="17.906038">
        <ele>47.1</ele>
        <time>2018-09-16T09:49:52Z</time>
      </trkpt>
      <trkpt lat="59.217778" lon="17.906092">
        <ele>47</ele>
        <time>2018-09-16T09:49:53Z</time>
      </trkpt>
      <trkpt lat="59.217796" lon="17.906152">
        <ele>47</ele>
        <time>2018-09-16T09:49:54Z</time>
      </trkpt>
      <trkpt lat="59.217812" lon="17.906211">
        <ele>47</ele>
        <time>2018-09-16T09:49:55Z</time>
      </trkpt>
      <trkpt lat="59.217829" lon="17.906269">
        <ele>47</ele>
        <time>2018-09-16T09:49:56Z</time>
      </trkpt>
      <trkpt lat="59.217847" lon="17.906324">
        <ele>47</ele>
        <time>2018-09-16T09:49:57Z</time>
      </trkpt>
      <trkpt lat="59.217867" lon="17.906385">
        <ele>47</ele>
        <time>2018-09-16T09:49:58Z</time>
      </trkpt>
      <trkpt lat="59.217889" lon="17.906432">
        <ele>46.9</ele>
        <time>2018-09-16T09:49:59Z</time>
      </trkpt>
      <trkpt lat="59.217911" lon="17.906474">
        <ele>46.9</ele>
        <time>2018-09-16T09:50:00Z</time>
      </trkpt>
      <trkpt lat="59.217935" lon="17.906545">
        <ele>46.8</ele>
        <time>2018-09-16T09:50:02Z</time>
      </trkpt>
      <trkpt lat="59.21795" lon="17.90662">
        <ele>46.7</ele>
        <time>2018-09-16T09:50:04Z</time>
      </trkpt>
      <trkpt lat="59.217976" lon="17.906697">
        <ele>46.6</ele>
        <time>2018-09-16T09:50:06Z</time>
      </trkpt>
      <trkpt lat="59.218011" lon="17.906777">
        <ele>46.4</ele>
        <time>2018-09-16T09:50:08Z</time>
      </trkpt>
      <trkpt lat="59.218031" lon="17.906818">
        <ele>46.4</ele>
        <time>2018-09-16T09:50:09Z</time>
      </trkpt>
      <trkpt lat="59.218051" lon="17.906855">
        <ele>46.4</ele>
        <time>2018-09-16T09:50:10Z</time>
      </trkpt>
      <trkpt lat="59.218087" lon="17.906916">
        <ele>46.4</ele>
        <time>2018-09-16T09:50:12Z</time>
      </trkpt>
      <trkpt lat="59.218128" lon="17.906973">
        <ele>46.4</ele>
        <time>2018-09-16T09:50:14Z</time>
      </trkpt>
      <trkpt lat="59.21815" lon="17.907006">
        <ele>46.5</ele>
        <time>2018-09-16T09:50:15Z</time>
      </trkpt>
      <trkpt lat="59.21817" lon="17.907051">
        <ele>46.5</ele>
        <time>2018-09-16T09:50:16Z</time>
      </trkpt>
      <trkpt lat="59.218193" lon="17.907104">
        <ele>46.5</ele>
        <time>2018-09-16T09:50:17Z</time>
      </trkpt>
      <trkpt lat="59.218215" lon="17.907143">
        <ele>46.5</ele>
        <time>2018-09-16T09:50:18Z</time>
      </trkpt>
      <trkpt lat="59.21826" lon="17.907198">
        <ele>46.6</ele>
        <time>2018-09-16T09:50:20Z</time>
      </trkpt>
      <trkpt lat="59.218286" lon="17.907226">
        <ele>46.7</ele>
        <time>2018-09-16T09:50:21Z</time>
      </trkpt>
      <trkpt lat="59.218309" lon="17.907262">
        <ele>46.8</ele>
        <time>2018-09-16T09:50:22Z</time>
      </trkpt>
      <trkpt lat="59.218331" lon="17.907309">
        <ele>46.9</ele>
        <time>2018-09-16T09:50:23Z</time>
      </trkpt>
      <trkpt lat="59.218353" lon="17.907359">
        <ele>47</ele>
        <time>2018-09-16T09:50:24Z</time>
      </trkpt>
      <trkpt lat="59.218373" lon="17.907408">
        <ele>47</ele>
        <time>2018-09-16T09:50:25Z</time>
      </trkpt>
      <trkpt lat="59.218392" lon="17.907457">
        <ele>47.1</ele>
        <time>2018-09-16T09:50:26Z</time>
      </trkpt>
      <trkpt lat="59.218412" lon="17.907516">
        <ele>47.1</ele>
        <time>2018-09-16T09:50:27Z</time>
      </trkpt>
      <trkpt lat="59.218431" lon="17.907568">
        <ele>47.2</ele>
        <time>2018-09-16T09:50:28Z</time>
      </trkpt>
      <trkpt lat="59.218447" lon="17.907618">
        <ele>47.3</ele>
        <time>2018-09-16T09:50:29Z</time>
      </trkpt>
      <trkpt lat="59.218462" lon="17.90767">
        <ele>47.4</ele>
        <time>2018-09-16T09:50:30Z</time>
      </trkpt>
      <trkpt lat="59.218477" lon="17.907718">
        <ele>47.5</ele>
        <time>2018-09-16T09:50:31Z</time>
      </trkpt>
      <trkpt lat="59.218506" lon="17.907781">
        <ele>47.7</ele>
        <time>2018-09-16T09:50:33Z</time>
      </trkpt>
      <trkpt lat="59.218538" lon="17.907796">
        <ele>47.8</ele>
        <time>2018-09-16T09:50:36Z</time>
      </trkpt>
      <trkpt lat="59.218569" lon="17.907799">
        <ele>47.8</ele>
        <time>2018-09-16T09:50:42Z</time>
      </trkpt>
      <trkpt lat="59.2186" lon="17.907824">
        <ele>47.9</ele>
        <time>2018-09-16T09:50:46Z</time>
      </trkpt>
      <trkpt lat="59.218625" lon="17.907859">
        <ele>48</ele>
        <time>2018-09-16T09:50:49Z</time>
      </trkpt>
      <trkpt lat="59.218666" lon="17.90783">
        <ele>48</ele>
        <time>2018-09-16T09:50:53Z</time>
      </trkpt>
      <trkpt lat="59.2187" lon="17.907782">
        <ele>48</ele>
        <time>2018-09-16T09:50:55Z</time>
      </trkpt>
      <trkpt lat="59.218738" lon="17.907727">
        <ele>48</ele>
        <time>2018-09-16T09:50:57Z</time>
      </trkpt>
      <trkpt lat="59.218775" lon="17.907674">
        <ele>45.7</ele>
        <time>2018-09-16T09:50:59Z</time>
      </trkpt>
      <trkpt lat="59.218812" lon="17.90762">
        <ele>45.1</ele>
        <time>2018-09-16T09:51:01Z</time>
      </trkpt>
      <trkpt lat="59.218849" lon="17.907556">
        <ele>44.4</ele>
        <time>2018-09-16T09:51:03Z</time>
      </trkpt>
      <trkpt lat="59.218878" lon="17.907491">
        <ele>43.9</ele>
        <time>2018-09-16T09:51:05Z</time>
      </trkpt>
      <trkpt lat="59.218909" lon="17.907427">
        <ele>43.3</ele>
        <time>2018-09-16T09:51:07Z</time>
      </trkpt>
      <trkpt lat="59.218934" lon="17.907357">
        <ele>43</ele>
        <time>2018-09-16T09:51:09Z</time>
      </trkpt>
      <trkpt lat="59.218957" lon="17.907317">
        <ele>43</ele>
        <time>2018-09-16T09:51:25Z</time>
      </trkpt>
      <trkpt lat="59.218981" lon="17.907284">
        <ele>43</ele>
        <time>2018-09-16T09:51:27Z</time>
      </trkpt>
      <trkpt lat="59.219005" lon="17.907255">
        <ele>43</ele>
        <time>2018-09-16T09:51:28Z</time>
      </trkpt>
      <trkpt lat="59.219045" lon="17.907211">
        <ele>42.9</ele>
        <time>2018-09-16T09:51:30Z</time>
      </trkpt>
      <trkpt lat="59.219078" lon="17.907178">
        <ele>42.6</ele>
        <time>2018-09-16T09:51:32Z</time>
      </trkpt>
      <trkpt lat="59.219123" lon="17.907129">
        <ele>42.3</ele>
        <time>2018-09-16T09:51:34Z</time>
      </trkpt>
      <trkpt lat="59.219169" lon="17.907152">
        <ele>42.1</ele>
        <time>2018-09-16T09:51:36Z</time>
      </trkpt>
      <trkpt lat="59.219191" lon="17.90719">
        <ele>41.9</ele>
        <time>2018-09-16T09:51:37Z</time>
      </trkpt>
      <trkpt lat="59.219231" lon="17.907227">
        <ele>41.9</ele>
        <time>2018-09-16T09:51:39Z</time>
      </trkpt>
      <trkpt lat="59.219279" lon="17.907196">
        <ele>41.8</ele>
        <time>2018-09-16T09:51:41Z</time>
      </trkpt>
      <trkpt lat="59.219326" lon="17.907146">
        <ele>41.8</ele>
        <time>2018-09-16T09:51:43Z</time>
      </trkpt>
      <trkpt lat="59.219369" lon="17.907082">
        <ele>41.8</ele>
        <time>2018-09-16T09:51:45Z</time>
      </trkpt>
      <trkpt lat="59.219389" lon="17.907042">
        <ele>41.9</ele>
        <time>2018-09-16T09:51:46Z</time>
      </trkpt>
      <trkpt lat="59.219408" lon="17.907004">
        <ele>41.9</ele>
        <time>2018-09-16T09:51:47Z</time>
      </trkpt>
      <trkpt lat="59.219428" lon="17.906968">
        <ele>41.9</ele>
        <time>2018-09-16T09:51:48Z</time>
      </trkpt>
      <trkpt lat="59.219466" lon="17.906913">
        <ele>41.7</ele>
        <time>2018-09-16T09:51:50Z</time>
      </trkpt>
      <trkpt lat="59.2195" lon="17.906878">
        <ele>41.6</ele>
        <time>2018-09-16T09:51:52Z</time>
      </trkpt>
      <trkpt lat="59.219549" lon="17.906862">
        <ele>41.5</ele>
        <time>2018-09-16T09:51:54Z</time>
      </trkpt>
      <trkpt lat="59.219597" lon="17.906861">
        <ele>41.3</ele>
        <time>2018-09-16T09:51:56Z</time>
      </trkpt>
      <trkpt lat="59.219636" lon="17.906867">
        <ele>41.1</ele>
        <time>2018-09-16T09:51:58Z</time>
      </trkpt>
      <trkpt lat="59.219663" lon="17.906889">
        <ele>41</ele>
        <time>2018-09-16T09:52:00Z</time>
      </trkpt>
      <trkpt lat="59.219681" lon="17.906938">
        <ele>41</ele>
        <time>2018-09-16T09:52:02Z</time>
      </trkpt>
      <trkpt lat="59.219695" lon="17.906995">
        <ele>41</ele>
        <time>2018-09-16T09:52:04Z</time>
      </trkpt>
      <trkpt lat="59.21971" lon="17.907041">
        <ele>41</ele>
        <time>2018-09-16T09:52:06Z</time>
      </trkpt>
      <trkpt lat="59.219736" lon="17.907066">
        <ele>41</ele>
        <time>2018-09-16T09:52:08Z</time>
      </trkpt>
      <trkpt lat="59.21977" lon="17.907046">
        <ele>41.1</ele>
        <time>2018-09-16T09:52:10Z</time>
      </trkpt>
      <trkpt lat="59.219791" lon="17.907008">
        <ele>41.1</ele>
        <time>2018-09-16T09:52:12Z</time>
      </trkpt>
    </trkseg>
  </trk>
</gpx>